<?xml version="1.0" encoding="UTF-8" standalone="no" ?>
<gpx xmlns="http://www.topografix.com/GPX/1/1" xmlns:xsi="http://www.w3.org/2001/XMLSchema-instance" xsi:schemaLocation="http://www.topografix.com/GPX/1/1 http://www.topografix.com/GPX/1/1/gpx.xsd" version="1.1" creator="VisuGPX - https://www.visugpx.com">
  <metadata>
    <name>suite voyage</name>
  </metadata>
  <trk>
    <name><![CDATA[T10]]></name>
    <trkseg>
      <trkpt lat="48.41557" lon="-4.79198">
        <ele>29.4</ele>
        <time>2020-06-09T11:03:03Z</time>
      </trkpt>
      <trkpt lat="48.41556" lon="-4.79197">
        <ele>29.4</ele>
        <time>2020-06-09T11:03:04Z</time>
      </trkpt>
      <trkpt lat="48.41554" lon="-4.79197">
        <ele>29.4</ele>
        <time>2020-06-09T11:03:05Z</time>
      </trkpt>
      <trkpt lat="48.41553" lon="-4.79197">
        <ele>29.3</ele>
        <time>2020-06-09T11:03:06Z</time>
      </trkpt>
      <trkpt lat="48.41552" lon="-4.79197">
        <ele>29.3</ele>
        <time>2020-06-09T11:03:08Z</time>
      </trkpt>
      <trkpt lat="48.41551" lon="-4.79196">
        <ele>29.3</ele>
        <time>2020-06-09T11:03:09Z</time>
      </trkpt>
      <trkpt lat="48.4155" lon="-4.79196">
        <ele>29.3</ele>
        <time>2020-06-09T11:03:10Z</time>
      </trkpt>
      <trkpt lat="48.41549" lon="-4.79196">
        <ele>29.2</ele>
        <time>2020-06-09T11:03:11Z</time>
      </trkpt>
      <trkpt lat="48.41548" lon="-4.79196">
        <ele>29.2</ele>
        <time>2020-06-09T11:03:12Z</time>
      </trkpt>
      <trkpt lat="48.41547" lon="-4.79195">
        <ele>29.2</ele>
        <time>2020-06-09T11:03:13Z</time>
      </trkpt>
      <trkpt lat="48.41546" lon="-4.79195">
        <ele>29.1</ele>
        <time>2020-06-09T11:04:25Z</time>
      </trkpt>
      <trkpt lat="48.41545" lon="-4.79195">
        <ele>29.1</ele>
        <time>2020-06-09T11:04:26Z</time>
      </trkpt>
      <trkpt lat="48.41542" lon="-4.79195">
        <ele>29</ele>
        <time>2020-06-09T11:04:27Z</time>
      </trkpt>
      <trkpt lat="48.41541" lon="-4.79194">
        <ele>29</ele>
        <time>2020-06-09T11:04:28Z</time>
      </trkpt>
      <trkpt lat="48.4154" lon="-4.79194">
        <ele>29</ele>
        <time>2020-06-09T11:04:29Z</time>
      </trkpt>
      <trkpt lat="48.41538" lon="-4.79194">
        <ele>28.9</ele>
        <time>2020-06-09T11:04:30Z</time>
      </trkpt>
      <trkpt lat="48.41538" lon="-4.79193">
        <ele>28.9</ele>
        <time>2020-06-09T11:04:31Z</time>
      </trkpt>
      <trkpt lat="48.41536" lon="-4.79191">
        <ele>28.9</ele>
        <time>2020-06-09T11:04:32Z</time>
      </trkpt>
      <trkpt lat="48.41535" lon="-4.79191">
        <ele>28.8</ele>
        <time>2020-06-09T11:04:33Z</time>
      </trkpt>
      <trkpt lat="48.41534" lon="-4.7919">
        <ele>28.8</ele>
        <time>2020-06-09T11:04:34Z</time>
      </trkpt>
      <trkpt lat="48.41531" lon="-4.7919">
        <ele>28.7</ele>
        <time>2020-06-09T11:04:35Z</time>
      </trkpt>
      <trkpt lat="48.4153" lon="-4.79189">
        <ele>28.7</ele>
        <time>2020-06-09T11:04:36Z</time>
      </trkpt>
      <trkpt lat="48.41527" lon="-4.79189">
        <ele>28.7</ele>
        <time>2020-06-09T11:04:37Z</time>
      </trkpt>
      <trkpt lat="48.41526" lon="-4.79189">
        <ele>28.7</ele>
        <time>2020-06-09T11:04:38Z</time>
      </trkpt>
      <trkpt lat="48.41522" lon="-4.79189">
        <ele>28.6</ele>
        <time>2020-06-09T11:04:39Z</time>
      </trkpt>
      <trkpt lat="48.4152" lon="-4.79189">
        <ele>28.6</ele>
        <time>2020-06-09T11:04:40Z</time>
      </trkpt>
      <trkpt lat="48.41516" lon="-4.79188">
        <ele>28.5</ele>
        <time>2020-06-09T11:04:41Z</time>
      </trkpt>
      <trkpt lat="48.41511" lon="-4.79187">
        <ele>28.5</ele>
        <time>2020-06-09T11:04:42Z</time>
      </trkpt>
      <trkpt lat="48.41506" lon="-4.79185">
        <ele>28.4</ele>
        <time>2020-06-09T11:04:43Z</time>
      </trkpt>
      <trkpt lat="48.41501" lon="-4.79184">
        <ele>28.4</ele>
        <time>2020-06-09T11:04:44Z</time>
      </trkpt>
      <trkpt lat="48.41495" lon="-4.79184">
        <ele>28.4</ele>
        <time>2020-06-09T11:04:45Z</time>
      </trkpt>
      <trkpt lat="48.4149" lon="-4.79184">
        <ele>28.4</ele>
        <time>2020-06-09T11:04:46Z</time>
      </trkpt>
      <trkpt lat="48.41485" lon="-4.79184">
        <ele>28.5</ele>
        <time>2020-06-09T11:04:47Z</time>
      </trkpt>
      <trkpt lat="48.41481" lon="-4.79184">
        <ele>28.6</ele>
        <time>2020-06-09T11:04:48Z</time>
      </trkpt>
      <trkpt lat="48.41477" lon="-4.79185">
        <ele>28.7</ele>
        <time>2020-06-09T11:04:49Z</time>
      </trkpt>
      <trkpt lat="48.41475" lon="-4.79185">
        <ele>28.8</ele>
        <time>2020-06-09T11:04:50Z</time>
      </trkpt>
      <trkpt lat="48.41475" lon="-4.79186">
        <ele>28.8</ele>
        <time>2020-06-09T11:04:51Z</time>
      </trkpt>
      <trkpt lat="48.41473" lon="-4.79185">
        <ele>28.8</ele>
        <time>2020-06-09T11:04:52Z</time>
      </trkpt>
      <trkpt lat="48.41473" lon="-4.79185">
        <ele>28.8</ele>
        <time>2020-06-09T11:04:53Z</time>
      </trkpt>
      <trkpt lat="48.41473" lon="-4.79185">
        <ele>28.8</ele>
        <time>2020-06-09T11:04:54Z</time>
      </trkpt>
      <trkpt lat="48.41473" lon="-4.79184">
        <ele>28.8</ele>
        <time>2020-06-09T11:04:55Z</time>
      </trkpt>
      <trkpt lat="48.41472" lon="-4.79186">
        <ele>28.9</ele>
        <time>2020-06-09T11:04:56Z</time>
      </trkpt>
      <trkpt lat="48.41471" lon="-4.79185">
        <ele>28.9</ele>
        <time>2020-06-09T11:04:57Z</time>
      </trkpt>
      <trkpt lat="48.41471" lon="-4.79185">
        <ele>28.9</ele>
        <time>2020-06-09T11:04:58Z</time>
      </trkpt>
      <trkpt lat="48.4147" lon="-4.79184">
        <ele>29</ele>
        <time>2020-06-09T11:04:59Z</time>
      </trkpt>
      <trkpt lat="48.41469" lon="-4.79183">
        <ele>29</ele>
        <time>2020-06-09T11:05:00Z</time>
      </trkpt>
      <trkpt lat="48.41469" lon="-4.79183">
        <ele>29</ele>
        <time>2020-06-09T11:05:01Z</time>
      </trkpt>
      <trkpt lat="48.41469" lon="-4.79183">
        <ele>29</ele>
        <time>2020-06-09T11:05:02Z</time>
      </trkpt>
      <trkpt lat="48.41469" lon="-4.79183">
        <ele>29</ele>
        <time>2020-06-09T11:05:03Z</time>
      </trkpt>
      <trkpt lat="48.41469" lon="-4.79183">
        <ele>29</ele>
        <time>2020-06-09T11:05:04Z</time>
      </trkpt>
      <trkpt lat="48.41469" lon="-4.79183">
        <ele>29</ele>
        <time>2020-06-09T11:05:05Z</time>
      </trkpt>
      <trkpt lat="48.4147" lon="-4.79183">
        <ele>29</ele>
        <time>2020-06-09T11:05:06Z</time>
      </trkpt>
      <trkpt lat="48.4147" lon="-4.79182">
        <ele>29.1</ele>
        <time>2020-06-09T11:05:07Z</time>
      </trkpt>
      <trkpt lat="48.4147" lon="-4.79182">
        <ele>29.1</ele>
        <time>2020-06-09T11:05:08Z</time>
      </trkpt>
      <trkpt lat="48.4147" lon="-4.79182">
        <ele>29.1</ele>
        <time>2020-06-09T11:05:09Z</time>
      </trkpt>
      <trkpt lat="48.4147" lon="-4.79182">
        <ele>29.1</ele>
        <time>2020-06-09T11:05:10Z</time>
      </trkpt>
      <trkpt lat="48.4147" lon="-4.79182">
        <ele>29.1</ele>
        <time>2020-06-09T11:05:11Z</time>
      </trkpt>
      <trkpt lat="48.41471" lon="-4.79182">
        <ele>29.1</ele>
        <time>2020-06-09T11:05:12Z</time>
      </trkpt>
      <trkpt lat="48.41471" lon="-4.79182">
        <ele>29.1</ele>
        <time>2020-06-09T11:05:13Z</time>
      </trkpt>
      <trkpt lat="48.41471" lon="-4.79181">
        <ele>29.1</ele>
        <time>2020-06-09T11:05:14Z</time>
      </trkpt>
      <trkpt lat="48.4147" lon="-4.79181">
        <ele>29.2</ele>
        <time>2020-06-09T11:05:15Z</time>
      </trkpt>
      <trkpt lat="48.41471" lon="-4.79181">
        <ele>29.2</ele>
        <time>2020-06-09T11:05:16Z</time>
      </trkpt>
      <trkpt lat="48.41472" lon="-4.7918">
        <ele>29.2</ele>
        <time>2020-06-09T11:05:17Z</time>
      </trkpt>
      <trkpt lat="48.41473" lon="-4.79178">
        <ele>29.3</ele>
        <time>2020-06-09T11:05:18Z</time>
      </trkpt>
      <trkpt lat="48.41472" lon="-4.79176">
        <ele>29.3</ele>
        <time>2020-06-09T11:05:19Z</time>
      </trkpt>
      <trkpt lat="48.41472" lon="-4.79171">
        <ele>29.4</ele>
        <time>2020-06-09T11:05:20Z</time>
      </trkpt>
      <trkpt lat="48.41471" lon="-4.7917">
        <ele>29.5</ele>
        <time>2020-06-09T11:05:21Z</time>
      </trkpt>
      <trkpt lat="48.41471" lon="-4.79165">
        <ele>29.6</ele>
        <time>2020-06-09T11:05:22Z</time>
      </trkpt>
      <trkpt lat="48.41471" lon="-4.79163">
        <ele>29.7</ele>
        <time>2020-06-09T11:05:23Z</time>
      </trkpt>
      <trkpt lat="48.4147" lon="-4.79159">
        <ele>29.8</ele>
        <time>2020-06-09T11:05:24Z</time>
      </trkpt>
      <trkpt lat="48.4147" lon="-4.79155">
        <ele>30</ele>
        <time>2020-06-09T11:05:25Z</time>
      </trkpt>
      <trkpt lat="48.4147" lon="-4.79149">
        <ele>30.1</ele>
        <time>2020-06-09T11:05:26Z</time>
      </trkpt>
      <trkpt lat="48.4147" lon="-4.79148">
        <ele>30.2</ele>
        <time>2020-06-09T11:05:27Z</time>
      </trkpt>
      <trkpt lat="48.4147" lon="-4.79145">
        <ele>30.3</ele>
        <time>2020-06-09T11:05:28Z</time>
      </trkpt>
      <trkpt lat="48.4147" lon="-4.79143">
        <ele>30.4</ele>
        <time>2020-06-09T11:05:29Z</time>
      </trkpt>
      <trkpt lat="48.4147" lon="-4.79141">
        <ele>30.4</ele>
        <time>2020-06-09T11:05:30Z</time>
      </trkpt>
      <trkpt lat="48.4147" lon="-4.79137">
        <ele>30.6</ele>
        <time>2020-06-09T11:05:31Z</time>
      </trkpt>
      <trkpt lat="48.41469" lon="-4.79135">
        <ele>30.6</ele>
        <time>2020-06-09T11:05:32Z</time>
      </trkpt>
      <trkpt lat="48.41469" lon="-4.7913">
        <ele>30.8</ele>
        <time>2020-06-09T11:05:33Z</time>
      </trkpt>
      <trkpt lat="48.41469" lon="-4.79128">
        <ele>30.9</ele>
        <time>2020-06-09T11:05:34Z</time>
      </trkpt>
      <trkpt lat="48.41469" lon="-4.79122">
        <ele>31.1</ele>
        <time>2020-06-09T11:05:35Z</time>
      </trkpt>
      <trkpt lat="48.41469" lon="-4.79121">
        <ele>31.2</ele>
        <time>2020-06-09T11:05:36Z</time>
      </trkpt>
      <trkpt lat="48.41469" lon="-4.79115">
        <ele>31.4</ele>
        <time>2020-06-09T11:05:37Z</time>
      </trkpt>
      <trkpt lat="48.41469" lon="-4.79113">
        <ele>31.5</ele>
        <time>2020-06-09T11:05:38Z</time>
      </trkpt>
      <trkpt lat="48.41469" lon="-4.79108">
        <ele>31.7</ele>
        <time>2020-06-09T11:05:39Z</time>
      </trkpt>
      <trkpt lat="48.41468" lon="-4.79106">
        <ele>31.7</ele>
        <time>2020-06-09T11:05:40Z</time>
      </trkpt>
      <trkpt lat="48.41469" lon="-4.79101">
        <ele>32</ele>
        <time>2020-06-09T11:05:41Z</time>
      </trkpt>
      <trkpt lat="48.41469" lon="-4.79099">
        <ele>32</ele>
        <time>2020-06-09T11:05:42Z</time>
      </trkpt>
      <trkpt lat="48.41468" lon="-4.79094">
        <ele>32.3</ele>
        <time>2020-06-09T11:05:43Z</time>
      </trkpt>
      <trkpt lat="48.41467" lon="-4.79093">
        <ele>32.3</ele>
        <time>2020-06-09T11:05:44Z</time>
      </trkpt>
      <trkpt lat="48.41466" lon="-4.79087">
        <ele>32.6</ele>
        <time>2020-06-09T11:05:45Z</time>
      </trkpt>
      <trkpt lat="48.41466" lon="-4.79086">
        <ele>32.7</ele>
        <time>2020-06-09T11:05:46Z</time>
      </trkpt>
      <trkpt lat="48.41466" lon="-4.79081">
        <ele>32.9</ele>
        <time>2020-06-09T11:05:47Z</time>
      </trkpt>
      <trkpt lat="48.41467" lon="-4.7908">
        <ele>33</ele>
        <time>2020-06-09T11:05:48Z</time>
      </trkpt>
      <trkpt lat="48.41467" lon="-4.79076">
        <ele>33.2</ele>
        <time>2020-06-09T11:05:49Z</time>
      </trkpt>
      <trkpt lat="48.41467" lon="-4.79075">
        <ele>33.2</ele>
        <time>2020-06-09T11:05:50Z</time>
      </trkpt>
      <trkpt lat="48.41467" lon="-4.7907">
        <ele>33.5</ele>
        <time>2020-06-09T11:05:51Z</time>
      </trkpt>
      <trkpt lat="48.41467" lon="-4.79068">
        <ele>33.6</ele>
        <time>2020-06-09T11:05:52Z</time>
      </trkpt>
      <trkpt lat="48.41467" lon="-4.79063">
        <ele>33.8</ele>
        <time>2020-06-09T11:05:53Z</time>
      </trkpt>
      <trkpt lat="48.41467" lon="-4.79061">
        <ele>33.9</ele>
        <time>2020-06-09T11:05:54Z</time>
      </trkpt>
      <trkpt lat="48.41467" lon="-4.79056">
        <ele>34.2</ele>
        <time>2020-06-09T11:05:55Z</time>
      </trkpt>
      <trkpt lat="48.41467" lon="-4.79054">
        <ele>34.3</ele>
        <time>2020-06-09T11:05:56Z</time>
      </trkpt>
      <trkpt lat="48.41467" lon="-4.79049">
        <ele>34.5</ele>
        <time>2020-06-09T11:05:57Z</time>
      </trkpt>
      <trkpt lat="48.41467" lon="-4.79047">
        <ele>34.6</ele>
        <time>2020-06-09T11:05:58Z</time>
      </trkpt>
      <trkpt lat="48.41467" lon="-4.79042">
        <ele>34.9</ele>
        <time>2020-06-09T11:05:59Z</time>
      </trkpt>
      <trkpt lat="48.41467" lon="-4.7904">
        <ele>35</ele>
        <time>2020-06-09T11:06:00Z</time>
      </trkpt>
      <trkpt lat="48.41466" lon="-4.79035">
        <ele>35.2</ele>
        <time>2020-06-09T11:06:01Z</time>
      </trkpt>
      <trkpt lat="48.41466" lon="-4.79034">
        <ele>35.3</ele>
        <time>2020-06-09T11:06:02Z</time>
      </trkpt>
      <trkpt lat="48.41465" lon="-4.79028">
        <ele>35.5</ele>
        <time>2020-06-09T11:06:03Z</time>
      </trkpt>
      <trkpt lat="48.41465" lon="-4.79026">
        <ele>35.6</ele>
        <time>2020-06-09T11:06:04Z</time>
      </trkpt>
      <trkpt lat="48.41464" lon="-4.79023">
        <ele>35.8</ele>
        <time>2020-06-09T11:06:05Z</time>
      </trkpt>
      <trkpt lat="48.41464" lon="-4.79021">
        <ele>35.9</ele>
        <time>2020-06-09T11:06:06Z</time>
      </trkpt>
      <trkpt lat="48.41463" lon="-4.79016">
        <ele>36.1</ele>
        <time>2020-06-09T11:06:07Z</time>
      </trkpt>
      <trkpt lat="48.41463" lon="-4.79014">
        <ele>36.2</ele>
        <time>2020-06-09T11:06:08Z</time>
      </trkpt>
      <trkpt lat="48.41463" lon="-4.79009">
        <ele>36.4</ele>
        <time>2020-06-09T11:06:09Z</time>
      </trkpt>
      <trkpt lat="48.41463" lon="-4.79008">
        <ele>36.4</ele>
        <time>2020-06-09T11:06:10Z</time>
      </trkpt>
      <trkpt lat="48.41462" lon="-4.79003">
        <ele>36.7</ele>
        <time>2020-06-09T11:06:11Z</time>
      </trkpt>
      <trkpt lat="48.41462" lon="-4.79001">
        <ele>36.8</ele>
        <time>2020-06-09T11:06:12Z</time>
      </trkpt>
      <trkpt lat="48.41462" lon="-4.78996">
        <ele>37</ele>
        <time>2020-06-09T11:06:13Z</time>
      </trkpt>
      <trkpt lat="48.41461" lon="-4.78995">
        <ele>37</ele>
        <time>2020-06-09T11:06:14Z</time>
      </trkpt>
      <trkpt lat="48.41461" lon="-4.7899">
        <ele>37.3</ele>
        <time>2020-06-09T11:06:15Z</time>
      </trkpt>
      <trkpt lat="48.41461" lon="-4.78988">
        <ele>37.3</ele>
        <time>2020-06-09T11:06:16Z</time>
      </trkpt>
      <trkpt lat="48.4146" lon="-4.78986">
        <ele>37.5</ele>
        <time>2020-06-09T11:06:17Z</time>
      </trkpt>
      <trkpt lat="48.4146" lon="-4.78983">
        <ele>37.6</ele>
        <time>2020-06-09T11:06:18Z</time>
      </trkpt>
      <trkpt lat="48.4146" lon="-4.78978">
        <ele>37.8</ele>
        <time>2020-06-09T11:06:19Z</time>
      </trkpt>
      <trkpt lat="48.41459" lon="-4.78977">
        <ele>37.9</ele>
        <time>2020-06-09T11:06:20Z</time>
      </trkpt>
      <trkpt lat="48.41459" lon="-4.78972">
        <ele>38.1</ele>
        <time>2020-06-09T11:06:21Z</time>
      </trkpt>
      <trkpt lat="48.41459" lon="-4.7897">
        <ele>38.2</ele>
        <time>2020-06-09T11:06:22Z</time>
      </trkpt>
      <trkpt lat="48.41458" lon="-4.78964">
        <ele>38.5</ele>
        <time>2020-06-09T11:06:23Z</time>
      </trkpt>
      <trkpt lat="48.41458" lon="-4.78962">
        <ele>38.6</ele>
        <time>2020-06-09T11:06:24Z</time>
      </trkpt>
      <trkpt lat="48.41458" lon="-4.78957">
        <ele>38.9</ele>
        <time>2020-06-09T11:06:25Z</time>
      </trkpt>
      <trkpt lat="48.41458" lon="-4.78956">
        <ele>38.9</ele>
        <time>2020-06-09T11:06:26Z</time>
      </trkpt>
      <trkpt lat="48.41458" lon="-4.7895">
        <ele>39.2</ele>
        <time>2020-06-09T11:06:27Z</time>
      </trkpt>
      <trkpt lat="48.41458" lon="-4.78949">
        <ele>39.3</ele>
        <time>2020-06-09T11:06:28Z</time>
      </trkpt>
      <trkpt lat="48.41456" lon="-4.78944">
        <ele>39.5</ele>
        <time>2020-06-09T11:06:29Z</time>
      </trkpt>
      <trkpt lat="48.41456" lon="-4.78943">
        <ele>39.6</ele>
        <time>2020-06-09T11:06:30Z</time>
      </trkpt>
      <trkpt lat="48.41456" lon="-4.78937">
        <ele>39.9</ele>
        <time>2020-06-09T11:06:31Z</time>
      </trkpt>
      <trkpt lat="48.41456" lon="-4.78936">
        <ele>40</ele>
        <time>2020-06-09T11:06:32Z</time>
      </trkpt>
      <trkpt lat="48.41456" lon="-4.78934">
        <ele>40</ele>
        <time>2020-06-09T11:06:33Z</time>
      </trkpt>
      <trkpt lat="48.41455" lon="-4.78931">
        <ele>40.2</ele>
        <time>2020-06-09T11:06:34Z</time>
      </trkpt>
      <trkpt lat="48.41455" lon="-4.78926">
        <ele>40.4</ele>
        <time>2020-06-09T11:06:35Z</time>
      </trkpt>
      <trkpt lat="48.41455" lon="-4.78924">
        <ele>40.5</ele>
        <time>2020-06-09T11:06:36Z</time>
      </trkpt>
      <trkpt lat="48.41455" lon="-4.7892">
        <ele>40.7</ele>
        <time>2020-06-09T11:06:37Z</time>
      </trkpt>
      <trkpt lat="48.41455" lon="-4.78919">
        <ele>40.8</ele>
        <time>2020-06-09T11:06:38Z</time>
      </trkpt>
      <trkpt lat="48.41454" lon="-4.78914">
        <ele>41</ele>
        <time>2020-06-09T11:06:39Z</time>
      </trkpt>
      <trkpt lat="48.41454" lon="-4.78912">
        <ele>41.1</ele>
        <time>2020-06-09T11:06:40Z</time>
      </trkpt>
      <trkpt lat="48.41453" lon="-4.78908">
        <ele>41.3</ele>
        <time>2020-06-09T11:06:41Z</time>
      </trkpt>
      <trkpt lat="48.41453" lon="-4.78907">
        <ele>41.4</ele>
        <time>2020-06-09T11:06:42Z</time>
      </trkpt>
      <trkpt lat="48.41452" lon="-4.78903">
        <ele>41.6</ele>
        <time>2020-06-09T11:06:43Z</time>
      </trkpt>
      <trkpt lat="48.41452" lon="-4.78902">
        <ele>41.6</ele>
        <time>2020-06-09T11:06:44Z</time>
      </trkpt>
      <trkpt lat="48.41451" lon="-4.78897">
        <ele>41.9</ele>
        <time>2020-06-09T11:06:45Z</time>
      </trkpt>
      <trkpt lat="48.41451" lon="-4.78895">
        <ele>42</ele>
        <time>2020-06-09T11:06:46Z</time>
      </trkpt>
      <trkpt lat="48.41451" lon="-4.7889">
        <ele>42.2</ele>
        <time>2020-06-09T11:06:47Z</time>
      </trkpt>
      <trkpt lat="48.41451" lon="-4.78888">
        <ele>42.3</ele>
        <time>2020-06-09T11:06:48Z</time>
      </trkpt>
      <trkpt lat="48.41452" lon="-4.78883">
        <ele>42.6</ele>
        <time>2020-06-09T11:06:49Z</time>
      </trkpt>
      <trkpt lat="48.41452" lon="-4.78881">
        <ele>42.7</ele>
        <time>2020-06-09T11:06:50Z</time>
      </trkpt>
      <trkpt lat="48.41452" lon="-4.78879">
        <ele>42.8</ele>
        <time>2020-06-09T11:06:51Z</time>
      </trkpt>
      <trkpt lat="48.41452" lon="-4.78877">
        <ele>42.9</ele>
        <time>2020-06-09T11:06:52Z</time>
      </trkpt>
      <trkpt lat="48.41451" lon="-4.78874">
        <ele>43</ele>
        <time>2020-06-09T11:06:53Z</time>
      </trkpt>
      <trkpt lat="48.41451" lon="-4.78872">
        <ele>43.1</ele>
        <time>2020-06-09T11:06:54Z</time>
      </trkpt>
      <trkpt lat="48.41451" lon="-4.78869">
        <ele>43.3</ele>
        <time>2020-06-09T11:06:55Z</time>
      </trkpt>
      <trkpt lat="48.4145" lon="-4.78867">
        <ele>43.3</ele>
        <time>2020-06-09T11:06:56Z</time>
      </trkpt>
      <trkpt lat="48.4145" lon="-4.78866">
        <ele>43.4</ele>
        <time>2020-06-09T11:06:57Z</time>
      </trkpt>
      <trkpt lat="48.4145" lon="-4.78864">
        <ele>43.5</ele>
        <time>2020-06-09T11:06:58Z</time>
      </trkpt>
      <trkpt lat="48.41449" lon="-4.78862">
        <ele>43.6</ele>
        <time>2020-06-09T11:06:59Z</time>
      </trkpt>
      <trkpt lat="48.41449" lon="-4.7886">
        <ele>43.7</ele>
        <time>2020-06-09T11:07:00Z</time>
      </trkpt>
      <trkpt lat="48.41449" lon="-4.78858">
        <ele>43.8</ele>
        <time>2020-06-09T11:07:01Z</time>
      </trkpt>
      <trkpt lat="48.4145" lon="-4.78857">
        <ele>43.8</ele>
        <time>2020-06-09T11:07:02Z</time>
      </trkpt>
      <trkpt lat="48.4145" lon="-4.78854">
        <ele>43.9</ele>
        <time>2020-06-09T11:07:03Z</time>
      </trkpt>
      <trkpt lat="48.41451" lon="-4.78853">
        <ele>44</ele>
        <time>2020-06-09T11:07:04Z</time>
      </trkpt>
      <trkpt lat="48.41452" lon="-4.7885">
        <ele>44.1</ele>
        <time>2020-06-09T11:07:05Z</time>
      </trkpt>
      <trkpt lat="48.41453" lon="-4.78849">
        <ele>44.4</ele>
        <time>2020-06-09T11:07:06Z</time>
      </trkpt>
      <trkpt lat="48.41454" lon="-4.78849">
        <ele>44.4</ele>
        <time>2020-06-09T11:07:07Z</time>
      </trkpt>
      <trkpt lat="48.41455" lon="-4.78848">
        <ele>44.5</ele>
        <time>2020-06-09T11:07:08Z</time>
      </trkpt>
      <trkpt lat="48.41456" lon="-4.78847">
        <ele>44.5</ele>
        <time>2020-06-09T11:07:09Z</time>
      </trkpt>
      <trkpt lat="48.41457" lon="-4.78847">
        <ele>44.5</ele>
        <time>2020-06-09T11:07:10Z</time>
      </trkpt>
      <trkpt lat="48.41458" lon="-4.78847">
        <ele>44.5</ele>
        <time>2020-06-09T11:07:11Z</time>
      </trkpt>
      <trkpt lat="48.41459" lon="-4.78845">
        <ele>44.5</ele>
        <time>2020-06-09T11:07:12Z</time>
      </trkpt>
      <trkpt lat="48.41461" lon="-4.78844">
        <ele>44.5</ele>
        <time>2020-06-09T11:07:13Z</time>
      </trkpt>
      <trkpt lat="48.41463" lon="-4.78842">
        <ele>44.6</ele>
        <time>2020-06-09T11:07:14Z</time>
      </trkpt>
      <trkpt lat="48.41464" lon="-4.78842">
        <ele>44.6</ele>
        <time>2020-06-09T11:07:15Z</time>
      </trkpt>
      <trkpt lat="48.41465" lon="-4.78842">
        <ele>44.6</ele>
        <time>2020-06-09T11:07:16Z</time>
      </trkpt>
      <trkpt lat="48.41467" lon="-4.78841">
        <ele>44.6</ele>
        <time>2020-06-09T11:07:17Z</time>
      </trkpt>
      <trkpt lat="48.41468" lon="-4.78841">
        <ele>44.6</ele>
        <time>2020-06-09T11:07:18Z</time>
      </trkpt>
      <trkpt lat="48.41471" lon="-4.78839">
        <ele>44.6</ele>
        <time>2020-06-09T11:07:19Z</time>
      </trkpt>
      <trkpt lat="48.41472" lon="-4.78839">
        <ele>44.6</ele>
        <time>2020-06-09T11:07:20Z</time>
      </trkpt>
      <trkpt lat="48.41475" lon="-4.78838">
        <ele>44.6</ele>
        <time>2020-06-09T11:07:21Z</time>
      </trkpt>
      <trkpt lat="48.41476" lon="-4.78838">
        <ele>44.6</ele>
        <time>2020-06-09T11:07:22Z</time>
      </trkpt>
      <trkpt lat="48.41479" lon="-4.78838">
        <ele>44.6</ele>
        <time>2020-06-09T11:07:23Z</time>
      </trkpt>
      <trkpt lat="48.41482" lon="-4.78838">
        <ele>44.5</ele>
        <time>2020-06-09T11:07:24Z</time>
      </trkpt>
      <trkpt lat="48.41483" lon="-4.78838">
        <ele>44.5</ele>
        <time>2020-06-09T11:07:25Z</time>
      </trkpt>
      <trkpt lat="48.41486" lon="-4.78837">
        <ele>44.5</ele>
        <time>2020-06-09T11:07:26Z</time>
      </trkpt>
      <trkpt lat="48.41487" lon="-4.78837">
        <ele>44.5</ele>
        <time>2020-06-09T11:07:27Z</time>
      </trkpt>
      <trkpt lat="48.41491" lon="-4.78836">
        <ele>44.4</ele>
        <time>2020-06-09T11:07:28Z</time>
      </trkpt>
      <trkpt lat="48.41493" lon="-4.78835">
        <ele>44.4</ele>
        <time>2020-06-09T11:07:29Z</time>
      </trkpt>
      <trkpt lat="48.41496" lon="-4.78834">
        <ele>44.3</ele>
        <time>2020-06-09T11:07:30Z</time>
      </trkpt>
      <trkpt lat="48.415" lon="-4.78833">
        <ele>44.3</ele>
        <time>2020-06-09T11:07:31Z</time>
      </trkpt>
      <trkpt lat="48.41501" lon="-4.78832">
        <ele>44.2</ele>
        <time>2020-06-09T11:07:32Z</time>
      </trkpt>
      <trkpt lat="48.41505" lon="-4.78831">
        <ele>44.1</ele>
        <time>2020-06-09T11:07:33Z</time>
      </trkpt>
      <trkpt lat="48.41506" lon="-4.7883">
        <ele>44.1</ele>
        <time>2020-06-09T11:07:34Z</time>
      </trkpt>
      <trkpt lat="48.41509" lon="-4.78826">
        <ele>44</ele>
        <time>2020-06-09T11:07:35Z</time>
      </trkpt>
      <trkpt lat="48.41513" lon="-4.78823">
        <ele>43.9</ele>
        <time>2020-06-09T11:07:36Z</time>
      </trkpt>
      <trkpt lat="48.41517" lon="-4.7882">
        <ele>43.7</ele>
        <time>2020-06-09T11:07:37Z</time>
      </trkpt>
      <trkpt lat="48.4152" lon="-4.78817">
        <ele>43.6</ele>
        <time>2020-06-09T11:07:38Z</time>
      </trkpt>
      <trkpt lat="48.41523" lon="-4.78815">
        <ele>43.5</ele>
        <time>2020-06-09T11:07:39Z</time>
      </trkpt>
      <trkpt lat="48.41527" lon="-4.78812">
        <ele>43.4</ele>
        <time>2020-06-09T11:07:40Z</time>
      </trkpt>
      <trkpt lat="48.41531" lon="-4.7881">
        <ele>43.3</ele>
        <time>2020-06-09T11:07:41Z</time>
      </trkpt>
      <trkpt lat="48.41534" lon="-4.78808">
        <ele>43.1</ele>
        <time>2020-06-09T11:07:42Z</time>
      </trkpt>
      <trkpt lat="48.41539" lon="-4.78806">
        <ele>43</ele>
        <time>2020-06-09T11:07:43Z</time>
      </trkpt>
      <trkpt lat="48.41543" lon="-4.78803">
        <ele>42.8</ele>
        <time>2020-06-09T11:07:44Z</time>
      </trkpt>
      <trkpt lat="48.41547" lon="-4.78801">
        <ele>42.7</ele>
        <time>2020-06-09T11:07:45Z</time>
      </trkpt>
      <trkpt lat="48.41552" lon="-4.78799">
        <ele>42.6</ele>
        <time>2020-06-09T11:07:46Z</time>
      </trkpt>
      <trkpt lat="48.41556" lon="-4.78796">
        <ele>42.4</ele>
        <time>2020-06-09T11:07:47Z</time>
      </trkpt>
      <trkpt lat="48.4156" lon="-4.78794">
        <ele>42.3</ele>
        <time>2020-06-09T11:07:48Z</time>
      </trkpt>
      <trkpt lat="48.41565" lon="-4.78792">
        <ele>42.2</ele>
        <time>2020-06-09T11:07:49Z</time>
      </trkpt>
      <trkpt lat="48.4157" lon="-4.78789">
        <ele>42</ele>
        <time>2020-06-09T11:07:50Z</time>
      </trkpt>
      <trkpt lat="48.41573" lon="-4.78786">
        <ele>41.9</ele>
        <time>2020-06-09T11:07:51Z</time>
      </trkpt>
      <trkpt lat="48.41577" lon="-4.78782">
        <ele>41.7</ele>
        <time>2020-06-09T11:07:52Z</time>
      </trkpt>
      <trkpt lat="48.41582" lon="-4.78779">
        <ele>41.6</ele>
        <time>2020-06-09T11:07:53Z</time>
      </trkpt>
      <trkpt lat="48.41587" lon="-4.78776">
        <ele>41.4</ele>
        <time>2020-06-09T11:07:54Z</time>
      </trkpt>
      <trkpt lat="48.41592" lon="-4.78773">
        <ele>41.3</ele>
        <time>2020-06-09T11:07:55Z</time>
      </trkpt>
      <trkpt lat="48.41596" lon="-4.7877">
        <ele>41.2</ele>
        <time>2020-06-09T11:07:56Z</time>
      </trkpt>
      <trkpt lat="48.41601" lon="-4.78767">
        <ele>41.1</ele>
        <time>2020-06-09T11:07:57Z</time>
      </trkpt>
      <trkpt lat="48.41606" lon="-4.78763">
        <ele>41.1</ele>
        <time>2020-06-09T11:07:58Z</time>
      </trkpt>
      <trkpt lat="48.41611" lon="-4.7876">
        <ele>41.1</ele>
        <time>2020-06-09T11:07:59Z</time>
      </trkpt>
      <trkpt lat="48.41615" lon="-4.78756">
        <ele>41.1</ele>
        <time>2020-06-09T11:08:00Z</time>
      </trkpt>
      <trkpt lat="48.4162" lon="-4.78752">
        <ele>41.1</ele>
        <time>2020-06-09T11:08:01Z</time>
      </trkpt>
      <trkpt lat="48.41625" lon="-4.78749">
        <ele>41.2</ele>
        <time>2020-06-09T11:08:02Z</time>
      </trkpt>
      <trkpt lat="48.4163" lon="-4.78745">
        <ele>41.3</ele>
        <time>2020-06-09T11:08:03Z</time>
      </trkpt>
      <trkpt lat="48.41634" lon="-4.78742">
        <ele>41.5</ele>
        <time>2020-06-09T11:08:04Z</time>
      </trkpt>
      <trkpt lat="48.41638" lon="-4.78739">
        <ele>41.7</ele>
        <time>2020-06-09T11:08:05Z</time>
      </trkpt>
      <trkpt lat="48.41642" lon="-4.78737">
        <ele>41.9</ele>
        <time>2020-06-09T11:08:06Z</time>
      </trkpt>
      <trkpt lat="48.41646" lon="-4.78735">
        <ele>42.2</ele>
        <time>2020-06-09T11:08:07Z</time>
      </trkpt>
      <trkpt lat="48.41649" lon="-4.78733">
        <ele>42.3</ele>
        <time>2020-06-09T11:08:08Z</time>
      </trkpt>
      <trkpt lat="48.41653" lon="-4.78731">
        <ele>42.4</ele>
        <time>2020-06-09T11:08:09Z</time>
      </trkpt>
      <trkpt lat="48.41656" lon="-4.78729">
        <ele>42.4</ele>
        <time>2020-06-09T11:08:10Z</time>
      </trkpt>
      <trkpt lat="48.41659" lon="-4.78727">
        <ele>42.5</ele>
        <time>2020-06-09T11:08:11Z</time>
      </trkpt>
      <trkpt lat="48.41662" lon="-4.78725">
        <ele>42.6</ele>
        <time>2020-06-09T11:08:12Z</time>
      </trkpt>
      <trkpt lat="48.41666" lon="-4.78723">
        <ele>42.7</ele>
        <time>2020-06-09T11:08:13Z</time>
      </trkpt>
      <trkpt lat="48.41669" lon="-4.7872">
        <ele>42.8</ele>
        <time>2020-06-09T11:08:14Z</time>
      </trkpt>
      <trkpt lat="48.41672" lon="-4.78719">
        <ele>43</ele>
        <time>2020-06-09T11:08:15Z</time>
      </trkpt>
      <trkpt lat="48.41675" lon="-4.78717">
        <ele>43.1</ele>
        <time>2020-06-09T11:08:16Z</time>
      </trkpt>
      <trkpt lat="48.41678" lon="-4.78715">
        <ele>43.1</ele>
        <time>2020-06-09T11:08:17Z</time>
      </trkpt>
      <trkpt lat="48.4168" lon="-4.78713">
        <ele>43.2</ele>
        <time>2020-06-09T11:08:18Z</time>
      </trkpt>
      <trkpt lat="48.41684" lon="-4.7871">
        <ele>43.4</ele>
        <time>2020-06-09T11:08:19Z</time>
      </trkpt>
      <trkpt lat="48.41685" lon="-4.78709">
        <ele>43.4</ele>
        <time>2020-06-09T11:08:20Z</time>
      </trkpt>
      <trkpt lat="48.41689" lon="-4.78706">
        <ele>43.5</ele>
        <time>2020-06-09T11:08:21Z</time>
      </trkpt>
      <trkpt lat="48.4169" lon="-4.78706">
        <ele>43.5</ele>
        <time>2020-06-09T11:08:22Z</time>
      </trkpt>
      <trkpt lat="48.41693" lon="-4.78704">
        <ele>43.6</ele>
        <time>2020-06-09T11:08:23Z</time>
      </trkpt>
      <trkpt lat="48.41696" lon="-4.78701">
        <ele>43.7</ele>
        <time>2020-06-09T11:08:24Z</time>
      </trkpt>
      <trkpt lat="48.41699" lon="-4.787">
        <ele>43.8</ele>
        <time>2020-06-09T11:08:25Z</time>
      </trkpt>
      <trkpt lat="48.41703" lon="-4.78699">
        <ele>43.9</ele>
        <time>2020-06-09T11:08:26Z</time>
      </trkpt>
      <trkpt lat="48.41704" lon="-4.78698">
        <ele>43.9</ele>
        <time>2020-06-09T11:08:27Z</time>
      </trkpt>
      <trkpt lat="48.41707" lon="-4.78695">
        <ele>43.9</ele>
        <time>2020-06-09T11:08:28Z</time>
      </trkpt>
      <trkpt lat="48.41709" lon="-4.78694">
        <ele>43.9</ele>
        <time>2020-06-09T11:08:29Z</time>
      </trkpt>
      <trkpt lat="48.41711" lon="-4.78693">
        <ele>44</ele>
        <time>2020-06-09T11:08:30Z</time>
      </trkpt>
      <trkpt lat="48.41714" lon="-4.78692">
        <ele>44</ele>
        <time>2020-06-09T11:08:31Z</time>
      </trkpt>
      <trkpt lat="48.41717" lon="-4.78691">
        <ele>43.9</ele>
        <time>2020-06-09T11:08:32Z</time>
      </trkpt>
      <trkpt lat="48.41721" lon="-4.78689">
        <ele>43.9</ele>
        <time>2020-06-09T11:08:33Z</time>
      </trkpt>
      <trkpt lat="48.41722" lon="-4.78688">
        <ele>43.9</ele>
        <time>2020-06-09T11:08:34Z</time>
      </trkpt>
      <trkpt lat="48.41723" lon="-4.78686">
        <ele>43.9</ele>
        <time>2020-06-09T11:08:35Z</time>
      </trkpt>
      <trkpt lat="48.41725" lon="-4.78686">
        <ele>43.8</ele>
        <time>2020-06-09T11:08:36Z</time>
      </trkpt>
      <trkpt lat="48.41728" lon="-4.78685">
        <ele>43.8</ele>
        <time>2020-06-09T11:08:37Z</time>
      </trkpt>
      <trkpt lat="48.41729" lon="-4.78684">
        <ele>43.7</ele>
        <time>2020-06-09T11:08:38Z</time>
      </trkpt>
      <trkpt lat="48.41732" lon="-4.78682">
        <ele>43.6</ele>
        <time>2020-06-09T11:08:39Z</time>
      </trkpt>
      <trkpt lat="48.41736" lon="-4.78681">
        <ele>43.5</ele>
        <time>2020-06-09T11:08:40Z</time>
      </trkpt>
      <trkpt lat="48.41738" lon="-4.7868">
        <ele>43.4</ele>
        <time>2020-06-09T11:08:41Z</time>
      </trkpt>
      <trkpt lat="48.41741" lon="-4.78678">
        <ele>43.2</ele>
        <time>2020-06-09T11:08:42Z</time>
      </trkpt>
      <trkpt lat="48.41744" lon="-4.78677">
        <ele>43.1</ele>
        <time>2020-06-09T11:08:43Z</time>
      </trkpt>
      <trkpt lat="48.41749" lon="-4.78675">
        <ele>42.8</ele>
        <time>2020-06-09T11:08:44Z</time>
      </trkpt>
      <trkpt lat="48.41753" lon="-4.78674">
        <ele>42.5</ele>
        <time>2020-06-09T11:08:45Z</time>
      </trkpt>
      <trkpt lat="48.41758" lon="-4.78673">
        <ele>42.2</ele>
        <time>2020-06-09T11:08:46Z</time>
      </trkpt>
      <trkpt lat="48.41763" lon="-4.78674">
        <ele>41.8</ele>
        <time>2020-06-09T11:08:47Z</time>
      </trkpt>
      <trkpt lat="48.41768" lon="-4.78675">
        <ele>41.7</ele>
        <time>2020-06-09T11:08:48Z</time>
      </trkpt>
      <trkpt lat="48.41774" lon="-4.78676">
        <ele>41</ele>
        <time>2020-06-09T11:08:49Z</time>
      </trkpt>
      <trkpt lat="48.41779" lon="-4.78677">
        <ele>40.4</ele>
        <time>2020-06-09T11:08:50Z</time>
      </trkpt>
      <trkpt lat="48.41785" lon="-4.78677">
        <ele>39.8</ele>
        <time>2020-06-09T11:08:51Z</time>
      </trkpt>
      <trkpt lat="48.4179" lon="-4.78679">
        <ele>39.2</ele>
        <time>2020-06-09T11:08:52Z</time>
      </trkpt>
      <trkpt lat="48.41796" lon="-4.78682">
        <ele>38.5</ele>
        <time>2020-06-09T11:08:53Z</time>
      </trkpt>
      <trkpt lat="48.41803" lon="-4.78684">
        <ele>37.8</ele>
        <time>2020-06-09T11:08:54Z</time>
      </trkpt>
      <trkpt lat="48.4181" lon="-4.78687">
        <ele>37</ele>
        <time>2020-06-09T11:08:55Z</time>
      </trkpt>
      <trkpt lat="48.41817" lon="-4.7869">
        <ele>36.2</ele>
        <time>2020-06-09T11:08:56Z</time>
      </trkpt>
      <trkpt lat="48.41823" lon="-4.78693">
        <ele>35.5</ele>
        <time>2020-06-09T11:08:57Z</time>
      </trkpt>
      <trkpt lat="48.41828" lon="-4.78695">
        <ele>34.9</ele>
        <time>2020-06-09T11:08:58Z</time>
      </trkpt>
      <trkpt lat="48.41832" lon="-4.78696">
        <ele>34.5</ele>
        <time>2020-06-09T11:08:59Z</time>
      </trkpt>
      <trkpt lat="48.41837" lon="-4.78698">
        <ele>33.7</ele>
        <time>2020-06-09T11:09:00Z</time>
      </trkpt>
      <trkpt lat="48.41841" lon="-4.78699">
        <ele>33.3</ele>
        <time>2020-06-09T11:09:01Z</time>
      </trkpt>
      <trkpt lat="48.41846" lon="-4.78701">
        <ele>32.8</ele>
        <time>2020-06-09T11:09:02Z</time>
      </trkpt>
      <trkpt lat="48.41852" lon="-4.78703">
        <ele>32.2</ele>
        <time>2020-06-09T11:09:03Z</time>
      </trkpt>
      <trkpt lat="48.41859" lon="-4.78705">
        <ele>31.6</ele>
        <time>2020-06-09T11:09:04Z</time>
      </trkpt>
      <trkpt lat="48.41865" lon="-4.78708">
        <ele>31.1</ele>
        <time>2020-06-09T11:09:05Z</time>
      </trkpt>
      <trkpt lat="48.41872" lon="-4.7871">
        <ele>30.5</ele>
        <time>2020-06-09T11:09:06Z</time>
      </trkpt>
      <trkpt lat="48.41879" lon="-4.78712">
        <ele>29.9</ele>
        <time>2020-06-09T11:09:07Z</time>
      </trkpt>
      <trkpt lat="48.41887" lon="-4.78714">
        <ele>29.2</ele>
        <time>2020-06-09T11:09:08Z</time>
      </trkpt>
      <trkpt lat="48.41896" lon="-4.78716">
        <ele>27.6</ele>
        <time>2020-06-09T11:09:09Z</time>
      </trkpt>
      <trkpt lat="48.41905" lon="-4.78719">
        <ele>26.9</ele>
        <time>2020-06-09T11:09:10Z</time>
      </trkpt>
      <trkpt lat="48.41915" lon="-4.78721">
        <ele>26.1</ele>
        <time>2020-06-09T11:09:11Z</time>
      </trkpt>
      <trkpt lat="48.41924" lon="-4.78722">
        <ele>25.4</ele>
        <time>2020-06-09T11:09:12Z</time>
      </trkpt>
      <trkpt lat="48.41935" lon="-4.78723">
        <ele>24.7</ele>
        <time>2020-06-09T11:09:13Z</time>
      </trkpt>
      <trkpt lat="48.41945" lon="-4.78724">
        <ele>24.2</ele>
        <time>2020-06-09T11:09:14Z</time>
      </trkpt>
      <trkpt lat="48.41955" lon="-4.78724">
        <ele>23.7</ele>
        <time>2020-06-09T11:09:15Z</time>
      </trkpt>
      <trkpt lat="48.41964" lon="-4.78725">
        <ele>23.2</ele>
        <time>2020-06-09T11:09:16Z</time>
      </trkpt>
      <trkpt lat="48.41974" lon="-4.78727">
        <ele>22.7</ele>
        <time>2020-06-09T11:09:17Z</time>
      </trkpt>
      <trkpt lat="48.41983" lon="-4.78728">
        <ele>22.2</ele>
        <time>2020-06-09T11:09:18Z</time>
      </trkpt>
      <trkpt lat="48.41993" lon="-4.78729">
        <ele>21.7</ele>
        <time>2020-06-09T11:09:19Z</time>
      </trkpt>
      <trkpt lat="48.42002" lon="-4.78729">
        <ele>21.2</ele>
        <time>2020-06-09T11:09:20Z</time>
      </trkpt>
      <trkpt lat="48.4201" lon="-4.7873">
        <ele>20.8</ele>
        <time>2020-06-09T11:09:21Z</time>
      </trkpt>
      <trkpt lat="48.42019" lon="-4.7873">
        <ele>20.5</ele>
        <time>2020-06-09T11:09:22Z</time>
      </trkpt>
      <trkpt lat="48.42027" lon="-4.78729">
        <ele>20.1</ele>
        <time>2020-06-09T11:09:23Z</time>
      </trkpt>
      <trkpt lat="48.42035" lon="-4.78729">
        <ele>19.8</ele>
        <time>2020-06-09T11:09:24Z</time>
      </trkpt>
      <trkpt lat="48.42043" lon="-4.78728">
        <ele>19.5</ele>
        <time>2020-06-09T11:09:25Z</time>
      </trkpt>
      <trkpt lat="48.4205" lon="-4.78728">
        <ele>19.2</ele>
        <time>2020-06-09T11:09:26Z</time>
      </trkpt>
      <trkpt lat="48.42058" lon="-4.78728">
        <ele>18.9</ele>
        <time>2020-06-09T11:09:27Z</time>
      </trkpt>
      <trkpt lat="48.42065" lon="-4.78728">
        <ele>18.6</ele>
        <time>2020-06-09T11:09:28Z</time>
      </trkpt>
      <trkpt lat="48.42073" lon="-4.78728">
        <ele>18.3</ele>
        <time>2020-06-09T11:09:29Z</time>
      </trkpt>
      <trkpt lat="48.4208" lon="-4.78727">
        <ele>18.1</ele>
        <time>2020-06-09T11:09:30Z</time>
      </trkpt>
      <trkpt lat="48.42088" lon="-4.78727">
        <ele>17.8</ele>
        <time>2020-06-09T11:09:31Z</time>
      </trkpt>
      <trkpt lat="48.42095" lon="-4.78728">
        <ele>17.6</ele>
        <time>2020-06-09T11:09:32Z</time>
      </trkpt>
      <trkpt lat="48.42103" lon="-4.78727">
        <ele>17.3</ele>
        <time>2020-06-09T11:09:33Z</time>
      </trkpt>
      <trkpt lat="48.4211" lon="-4.78727">
        <ele>17.1</ele>
        <time>2020-06-09T11:09:34Z</time>
      </trkpt>
      <trkpt lat="48.42117" lon="-4.78726">
        <ele>16.8</ele>
        <time>2020-06-09T11:09:35Z</time>
      </trkpt>
      <trkpt lat="48.42125" lon="-4.78726">
        <ele>16.6</ele>
        <time>2020-06-09T11:09:36Z</time>
      </trkpt>
      <trkpt lat="48.42132" lon="-4.78725">
        <ele>16.3</ele>
        <time>2020-06-09T11:09:37Z</time>
      </trkpt>
      <trkpt lat="48.4214" lon="-4.78725">
        <ele>16.1</ele>
        <time>2020-06-09T11:09:38Z</time>
      </trkpt>
      <trkpt lat="48.42147" lon="-4.78725">
        <ele>15.9</ele>
        <time>2020-06-09T11:09:39Z</time>
      </trkpt>
      <trkpt lat="48.42154" lon="-4.78726">
        <ele>15.8</ele>
        <time>2020-06-09T11:09:40Z</time>
      </trkpt>
      <trkpt lat="48.4216" lon="-4.78726">
        <ele>15.8</ele>
        <time>2020-06-09T11:09:41Z</time>
      </trkpt>
      <trkpt lat="48.42166" lon="-4.78727">
        <ele>15.8</ele>
        <time>2020-06-09T11:09:42Z</time>
      </trkpt>
      <trkpt lat="48.42171" lon="-4.78726">
        <ele>15.8</ele>
        <time>2020-06-09T11:09:43Z</time>
      </trkpt>
      <trkpt lat="48.42176" lon="-4.78726">
        <ele>15.9</ele>
        <time>2020-06-09T11:09:44Z</time>
      </trkpt>
      <trkpt lat="48.42182" lon="-4.78726">
        <ele>16</ele>
        <time>2020-06-09T11:09:45Z</time>
      </trkpt>
      <trkpt lat="48.42188" lon="-4.78727">
        <ele>16</ele>
        <time>2020-06-09T11:09:46Z</time>
      </trkpt>
      <trkpt lat="48.42193" lon="-4.78727">
        <ele>16.1</ele>
        <time>2020-06-09T11:09:47Z</time>
      </trkpt>
      <trkpt lat="48.42198" lon="-4.78726">
        <ele>16.1</ele>
        <time>2020-06-09T11:09:48Z</time>
      </trkpt>
      <trkpt lat="48.42202" lon="-4.78722">
        <ele>16.1</ele>
        <time>2020-06-09T11:09:49Z</time>
      </trkpt>
      <trkpt lat="48.42202" lon="-4.78717">
        <ele>16.4</ele>
        <time>2020-06-09T11:09:50Z</time>
      </trkpt>
      <trkpt lat="48.42202" lon="-4.78712">
        <ele>16.6</ele>
        <time>2020-06-09T11:09:51Z</time>
      </trkpt>
      <trkpt lat="48.42201" lon="-4.78707">
        <ele>16.7</ele>
        <time>2020-06-09T11:09:52Z</time>
      </trkpt>
      <trkpt lat="48.422" lon="-4.78704">
        <ele>16.9</ele>
        <time>2020-06-09T11:09:53Z</time>
      </trkpt>
      <trkpt lat="48.42198" lon="-4.78698">
        <ele>17.1</ele>
        <time>2020-06-09T11:09:54Z</time>
      </trkpt>
      <trkpt lat="48.42198" lon="-4.78697">
        <ele>17.1</ele>
        <time>2020-06-09T11:09:55Z</time>
      </trkpt>
      <trkpt lat="48.42195" lon="-4.78695">
        <ele>17.3</ele>
        <time>2020-06-09T11:09:56Z</time>
      </trkpt>
      <trkpt lat="48.42193" lon="-4.7869">
        <ele>17.4</ele>
        <time>2020-06-09T11:09:57Z</time>
      </trkpt>
      <trkpt lat="48.42193" lon="-4.78689">
        <ele>17.5</ele>
        <time>2020-06-09T11:09:58Z</time>
      </trkpt>
      <trkpt lat="48.42191" lon="-4.78686">
        <ele>17.6</ele>
        <time>2020-06-09T11:09:59Z</time>
      </trkpt>
      <trkpt lat="48.42191" lon="-4.78681">
        <ele>17.8</ele>
        <time>2020-06-09T11:10:00Z</time>
      </trkpt>
      <trkpt lat="48.42191" lon="-4.78679">
        <ele>17.8</ele>
        <time>2020-06-09T11:10:01Z</time>
      </trkpt>
      <trkpt lat="48.4219" lon="-4.78675">
        <ele>18</ele>
        <time>2020-06-09T11:10:02Z</time>
      </trkpt>
      <trkpt lat="48.4219" lon="-4.78673">
        <ele>18</ele>
        <time>2020-06-09T11:10:03Z</time>
      </trkpt>
      <trkpt lat="48.4219" lon="-4.78669">
        <ele>18.1</ele>
        <time>2020-06-09T11:10:04Z</time>
      </trkpt>
      <trkpt lat="48.4219" lon="-4.78667">
        <ele>18.2</ele>
        <time>2020-06-09T11:10:05Z</time>
      </trkpt>
      <trkpt lat="48.4219" lon="-4.78662">
        <ele>18.3</ele>
        <time>2020-06-09T11:10:06Z</time>
      </trkpt>
      <trkpt lat="48.42189" lon="-4.78661">
        <ele>18.5</ele>
        <time>2020-06-09T11:10:07Z</time>
      </trkpt>
      <trkpt lat="48.4219" lon="-4.78657">
        <ele>18.7</ele>
        <time>2020-06-09T11:10:08Z</time>
      </trkpt>
      <trkpt lat="48.4219" lon="-4.78655">
        <ele>18.8</ele>
        <time>2020-06-09T11:10:09Z</time>
      </trkpt>
      <trkpt lat="48.42191" lon="-4.78651">
        <ele>18.9</ele>
        <time>2020-06-09T11:10:10Z</time>
      </trkpt>
      <trkpt lat="48.42191" lon="-4.78649">
        <ele>19</ele>
        <time>2020-06-09T11:10:11Z</time>
      </trkpt>
      <trkpt lat="48.42191" lon="-4.78644">
        <ele>19.3</ele>
        <time>2020-06-09T11:10:12Z</time>
      </trkpt>
      <trkpt lat="48.42191" lon="-4.78643">
        <ele>19.3</ele>
        <time>2020-06-09T11:10:13Z</time>
      </trkpt>
      <trkpt lat="48.42192" lon="-4.78638">
        <ele>19.5</ele>
        <time>2020-06-09T11:10:14Z</time>
      </trkpt>
      <trkpt lat="48.42192" lon="-4.78637">
        <ele>19.5</ele>
        <time>2020-06-09T11:10:15Z</time>
      </trkpt>
      <trkpt lat="48.42193" lon="-4.78632">
        <ele>19.7</ele>
        <time>2020-06-09T11:10:16Z</time>
      </trkpt>
      <trkpt lat="48.42193" lon="-4.78631">
        <ele>19.8</ele>
        <time>2020-06-09T11:10:17Z</time>
      </trkpt>
      <trkpt lat="48.42194" lon="-4.78627">
        <ele>19.9</ele>
        <time>2020-06-09T11:10:18Z</time>
      </trkpt>
      <trkpt lat="48.42195" lon="-4.78625">
        <ele>20</ele>
        <time>2020-06-09T11:10:19Z</time>
      </trkpt>
      <trkpt lat="48.42196" lon="-4.78621">
        <ele>20.1</ele>
        <time>2020-06-09T11:10:20Z</time>
      </trkpt>
      <trkpt lat="48.42199" lon="-4.78619">
        <ele>20.9</ele>
        <time>2020-06-09T11:10:21Z</time>
      </trkpt>
      <trkpt lat="48.422" lon="-4.78618">
        <ele>21</ele>
        <time>2020-06-09T11:10:22Z</time>
      </trkpt>
      <trkpt lat="48.42202" lon="-4.78614">
        <ele>21.2</ele>
        <time>2020-06-09T11:10:23Z</time>
      </trkpt>
      <trkpt lat="48.42203" lon="-4.78614">
        <ele>21.2</ele>
        <time>2020-06-09T11:10:24Z</time>
      </trkpt>
      <trkpt lat="48.42207" lon="-4.78612">
        <ele>21.4</ele>
        <time>2020-06-09T11:10:25Z</time>
      </trkpt>
      <trkpt lat="48.42208" lon="-4.78611">
        <ele>21.5</ele>
        <time>2020-06-09T11:10:26Z</time>
      </trkpt>
      <trkpt lat="48.42212" lon="-4.78611">
        <ele>21.6</ele>
        <time>2020-06-09T11:10:27Z</time>
      </trkpt>
      <trkpt lat="48.42213" lon="-4.78611">
        <ele>21.7</ele>
        <time>2020-06-09T11:10:28Z</time>
      </trkpt>
      <trkpt lat="48.42217" lon="-4.78611">
        <ele>21.8</ele>
        <time>2020-06-09T11:10:29Z</time>
      </trkpt>
      <trkpt lat="48.42218" lon="-4.78611">
        <ele>21.9</ele>
        <time>2020-06-09T11:10:30Z</time>
      </trkpt>
      <trkpt lat="48.42221" lon="-4.78611">
        <ele>22</ele>
        <time>2020-06-09T11:10:31Z</time>
      </trkpt>
      <trkpt lat="48.42223" lon="-4.78611">
        <ele>22</ele>
        <time>2020-06-09T11:10:32Z</time>
      </trkpt>
      <trkpt lat="48.42226" lon="-4.7861">
        <ele>22.2</ele>
        <time>2020-06-09T11:10:33Z</time>
      </trkpt>
      <trkpt lat="48.42227" lon="-4.7861">
        <ele>22.2</ele>
        <time>2020-06-09T11:10:34Z</time>
      </trkpt>
      <trkpt lat="48.42231" lon="-4.7861">
        <ele>22.4</ele>
        <time>2020-06-09T11:10:35Z</time>
      </trkpt>
      <trkpt lat="48.42233" lon="-4.78609">
        <ele>22.4</ele>
        <time>2020-06-09T11:10:36Z</time>
      </trkpt>
      <trkpt lat="48.42235" lon="-4.78609">
        <ele>22.5</ele>
        <time>2020-06-09T11:10:37Z</time>
      </trkpt>
      <trkpt lat="48.42238" lon="-4.78609">
        <ele>22.6</ele>
        <time>2020-06-09T11:10:38Z</time>
      </trkpt>
      <trkpt lat="48.42241" lon="-4.78609">
        <ele>22.7</ele>
        <time>2020-06-09T11:10:39Z</time>
      </trkpt>
      <trkpt lat="48.42244" lon="-4.78608">
        <ele>22.8</ele>
        <time>2020-06-09T11:10:40Z</time>
      </trkpt>
      <trkpt lat="48.42247" lon="-4.78608">
        <ele>22.9</ele>
        <time>2020-06-09T11:10:41Z</time>
      </trkpt>
      <trkpt lat="48.4225" lon="-4.78608">
        <ele>23</ele>
        <time>2020-06-09T11:10:42Z</time>
      </trkpt>
      <trkpt lat="48.42252" lon="-4.78608">
        <ele>23.1</ele>
        <time>2020-06-09T11:10:43Z</time>
      </trkpt>
      <trkpt lat="48.42255" lon="-4.78609">
        <ele>23.2</ele>
        <time>2020-06-09T11:10:44Z</time>
      </trkpt>
      <trkpt lat="48.42257" lon="-4.78609">
        <ele>23.2</ele>
        <time>2020-06-09T11:10:45Z</time>
      </trkpt>
      <trkpt lat="48.42261" lon="-4.78609">
        <ele>23.3</ele>
        <time>2020-06-09T11:10:46Z</time>
      </trkpt>
      <trkpt lat="48.42262" lon="-4.78609">
        <ele>23.3</ele>
        <time>2020-06-09T11:10:47Z</time>
      </trkpt>
      <trkpt lat="48.42266" lon="-4.78609">
        <ele>23.4</ele>
        <time>2020-06-09T11:10:48Z</time>
      </trkpt>
      <trkpt lat="48.42267" lon="-4.78609">
        <ele>23.4</ele>
        <time>2020-06-09T11:10:49Z</time>
      </trkpt>
      <trkpt lat="48.42271" lon="-4.78609">
        <ele>23.4</ele>
        <time>2020-06-09T11:10:51Z</time>
      </trkpt>
      <trkpt lat="48.42272" lon="-4.78609">
        <ele>23.4</ele>
        <time>2020-06-09T11:10:52Z</time>
      </trkpt>
      <trkpt lat="48.42276" lon="-4.7861">
        <ele>23.4</ele>
        <time>2020-06-09T11:10:53Z</time>
      </trkpt>
      <trkpt lat="48.42277" lon="-4.78611">
        <ele>23.4</ele>
        <time>2020-06-09T11:10:54Z</time>
      </trkpt>
      <trkpt lat="48.42281" lon="-4.78611">
        <ele>23.4</ele>
        <time>2020-06-09T11:10:55Z</time>
      </trkpt>
      <trkpt lat="48.42282" lon="-4.7861">
        <ele>23.4</ele>
        <time>2020-06-09T11:10:56Z</time>
      </trkpt>
      <trkpt lat="48.42285" lon="-4.78609">
        <ele>23.4</ele>
        <time>2020-06-09T11:10:57Z</time>
      </trkpt>
      <trkpt lat="48.42288" lon="-4.78609">
        <ele>23.3</ele>
        <time>2020-06-09T11:10:58Z</time>
      </trkpt>
      <trkpt lat="48.42291" lon="-4.78609">
        <ele>23.3</ele>
        <time>2020-06-09T11:10:59Z</time>
      </trkpt>
      <trkpt lat="48.42294" lon="-4.78609">
        <ele>23.3</ele>
        <time>2020-06-09T11:11:00Z</time>
      </trkpt>
      <trkpt lat="48.42298" lon="-4.78608">
        <ele>23.2</ele>
        <time>2020-06-09T11:11:01Z</time>
      </trkpt>
      <trkpt lat="48.42302" lon="-4.78609">
        <ele>23.1</ele>
        <time>2020-06-09T11:11:02Z</time>
      </trkpt>
      <trkpt lat="48.42305" lon="-4.78609">
        <ele>23.1</ele>
        <time>2020-06-09T11:11:03Z</time>
      </trkpt>
      <trkpt lat="48.42309" lon="-4.7861">
        <ele>23</ele>
        <time>2020-06-09T11:11:04Z</time>
      </trkpt>
      <trkpt lat="48.42313" lon="-4.7861">
        <ele>22.9</ele>
        <time>2020-06-09T11:11:05Z</time>
      </trkpt>
      <trkpt lat="48.42316" lon="-4.7861">
        <ele>22.9</ele>
        <time>2020-06-09T11:11:06Z</time>
      </trkpt>
      <trkpt lat="48.4232" lon="-4.78609">
        <ele>22.8</ele>
        <time>2020-06-09T11:11:07Z</time>
      </trkpt>
      <trkpt lat="48.42323" lon="-4.78608">
        <ele>22.8</ele>
        <time>2020-06-09T11:11:08Z</time>
      </trkpt>
      <trkpt lat="48.42326" lon="-4.78607">
        <ele>22.7</ele>
        <time>2020-06-09T11:11:09Z</time>
      </trkpt>
      <trkpt lat="48.42328" lon="-4.78607">
        <ele>22.7</ele>
        <time>2020-06-09T11:11:10Z</time>
      </trkpt>
      <trkpt lat="48.42332" lon="-4.78608">
        <ele>22.6</ele>
        <time>2020-06-09T11:11:11Z</time>
      </trkpt>
      <trkpt lat="48.42335" lon="-4.7861">
        <ele>22.6</ele>
        <time>2020-06-09T11:11:12Z</time>
      </trkpt>
      <trkpt lat="48.42338" lon="-4.78611">
        <ele>22.5</ele>
        <time>2020-06-09T11:11:13Z</time>
      </trkpt>
      <trkpt lat="48.42341" lon="-4.78612">
        <ele>22.4</ele>
        <time>2020-06-09T11:11:14Z</time>
      </trkpt>
      <trkpt lat="48.42344" lon="-4.78612">
        <ele>22.3</ele>
        <time>2020-06-09T11:11:15Z</time>
      </trkpt>
      <trkpt lat="48.42347" lon="-4.78614">
        <ele>22.2</ele>
        <time>2020-06-09T11:11:16Z</time>
      </trkpt>
      <trkpt lat="48.4235" lon="-4.78614">
        <ele>22.2</ele>
        <time>2020-06-09T11:11:17Z</time>
      </trkpt>
      <trkpt lat="48.42353" lon="-4.78615">
        <ele>22.1</ele>
        <time>2020-06-09T11:11:18Z</time>
      </trkpt>
      <trkpt lat="48.42356" lon="-4.78615">
        <ele>22</ele>
        <time>2020-06-09T11:11:19Z</time>
      </trkpt>
      <trkpt lat="48.42359" lon="-4.78616">
        <ele>21.8</ele>
        <time>2020-06-09T11:11:20Z</time>
      </trkpt>
      <trkpt lat="48.42362" lon="-4.78616">
        <ele>21.7</ele>
        <time>2020-06-09T11:11:21Z</time>
      </trkpt>
      <trkpt lat="48.42365" lon="-4.78617">
        <ele>21.6</ele>
        <time>2020-06-09T11:11:22Z</time>
      </trkpt>
      <trkpt lat="48.42368" lon="-4.78617">
        <ele>21.5</ele>
        <time>2020-06-09T11:11:23Z</time>
      </trkpt>
      <trkpt lat="48.42372" lon="-4.78618">
        <ele>21.4</ele>
        <time>2020-06-09T11:11:24Z</time>
      </trkpt>
      <trkpt lat="48.42375" lon="-4.78619">
        <ele>21.3</ele>
        <time>2020-06-09T11:11:25Z</time>
      </trkpt>
      <trkpt lat="48.42379" lon="-4.7862">
        <ele>21.1</ele>
        <time>2020-06-09T11:11:26Z</time>
      </trkpt>
      <trkpt lat="48.42382" lon="-4.7862">
        <ele>21</ele>
        <time>2020-06-09T11:11:27Z</time>
      </trkpt>
      <trkpt lat="48.42386" lon="-4.78619">
        <ele>20.9</ele>
        <time>2020-06-09T11:11:28Z</time>
      </trkpt>
      <trkpt lat="48.4239" lon="-4.78618">
        <ele>20.7</ele>
        <time>2020-06-09T11:11:29Z</time>
      </trkpt>
      <trkpt lat="48.42395" lon="-4.78619">
        <ele>20.6</ele>
        <time>2020-06-09T11:11:30Z</time>
      </trkpt>
      <trkpt lat="48.42399" lon="-4.78619">
        <ele>20.4</ele>
        <time>2020-06-09T11:11:31Z</time>
      </trkpt>
      <trkpt lat="48.42404" lon="-4.7862">
        <ele>20.3</ele>
        <time>2020-06-09T11:11:32Z</time>
      </trkpt>
      <trkpt lat="48.42408" lon="-4.7862">
        <ele>20.1</ele>
        <time>2020-06-09T11:11:33Z</time>
      </trkpt>
      <trkpt lat="48.42413" lon="-4.78622">
        <ele>20</ele>
        <time>2020-06-09T11:11:34Z</time>
      </trkpt>
      <trkpt lat="48.42417" lon="-4.78624">
        <ele>19.8</ele>
        <time>2020-06-09T11:11:35Z</time>
      </trkpt>
      <trkpt lat="48.42422" lon="-4.78625">
        <ele>19.6</ele>
        <time>2020-06-09T11:11:36Z</time>
      </trkpt>
      <trkpt lat="48.42427" lon="-4.78626">
        <ele>19.5</ele>
        <time>2020-06-09T11:11:37Z</time>
      </trkpt>
      <trkpt lat="48.42432" lon="-4.78627">
        <ele>19.3</ele>
        <time>2020-06-09T11:11:38Z</time>
      </trkpt>
      <trkpt lat="48.42436" lon="-4.78628">
        <ele>19.2</ele>
        <time>2020-06-09T11:11:39Z</time>
      </trkpt>
      <trkpt lat="48.4244" lon="-4.7863">
        <ele>19.1</ele>
        <time>2020-06-09T11:11:40Z</time>
      </trkpt>
      <trkpt lat="48.42443" lon="-4.7863">
        <ele>19</ele>
        <time>2020-06-09T11:11:41Z</time>
      </trkpt>
      <trkpt lat="48.42447" lon="-4.78632">
        <ele>18.9</ele>
        <time>2020-06-09T11:11:42Z</time>
      </trkpt>
      <trkpt lat="48.4245" lon="-4.78634">
        <ele>18.8</ele>
        <time>2020-06-09T11:11:43Z</time>
      </trkpt>
      <trkpt lat="48.42453" lon="-4.78636">
        <ele>18.8</ele>
        <time>2020-06-09T11:11:44Z</time>
      </trkpt>
      <trkpt lat="48.42456" lon="-4.78638">
        <ele>18.8</ele>
        <time>2020-06-09T11:11:45Z</time>
      </trkpt>
      <trkpt lat="48.42459" lon="-4.78639">
        <ele>18.7</ele>
        <time>2020-06-09T11:11:46Z</time>
      </trkpt>
      <trkpt lat="48.42462" lon="-4.78639">
        <ele>18.7</ele>
        <time>2020-06-09T11:11:47Z</time>
      </trkpt>
      <trkpt lat="48.42463" lon="-4.7864">
        <ele>18.7</ele>
        <time>2020-06-09T11:11:48Z</time>
      </trkpt>
      <trkpt lat="48.42466" lon="-4.78639">
        <ele>18.6</ele>
        <time>2020-06-09T11:11:49Z</time>
      </trkpt>
      <trkpt lat="48.42467" lon="-4.78639">
        <ele>18.6</ele>
        <time>2020-06-09T11:11:50Z</time>
      </trkpt>
      <trkpt lat="48.42471" lon="-4.7864">
        <ele>18.6</ele>
        <time>2020-06-09T11:11:51Z</time>
      </trkpt>
      <trkpt lat="48.42472" lon="-4.7864">
        <ele>18.6</ele>
        <time>2020-06-09T11:11:52Z</time>
      </trkpt>
      <trkpt lat="48.42476" lon="-4.78641">
        <ele>18.5</ele>
        <time>2020-06-09T11:11:53Z</time>
      </trkpt>
      <trkpt lat="48.42477" lon="-4.78642">
        <ele>18.5</ele>
        <time>2020-06-09T11:11:54Z</time>
      </trkpt>
      <trkpt lat="48.42481" lon="-4.78642">
        <ele>18.5</ele>
        <time>2020-06-09T11:11:55Z</time>
      </trkpt>
      <trkpt lat="48.42482" lon="-4.78642">
        <ele>18.5</ele>
        <time>2020-06-09T11:11:56Z</time>
      </trkpt>
      <trkpt lat="48.42486" lon="-4.78642">
        <ele>18.5</ele>
        <time>2020-06-09T11:11:57Z</time>
      </trkpt>
      <trkpt lat="48.42488" lon="-4.78642">
        <ele>18.4</ele>
        <time>2020-06-09T11:11:58Z</time>
      </trkpt>
      <trkpt lat="48.42492" lon="-4.78642">
        <ele>18.4</ele>
        <time>2020-06-09T11:11:59Z</time>
      </trkpt>
      <trkpt lat="48.42493" lon="-4.78642">
        <ele>18.4</ele>
        <time>2020-06-09T11:12:00Z</time>
      </trkpt>
      <trkpt lat="48.42496" lon="-4.78641">
        <ele>18.4</ele>
        <time>2020-06-09T11:12:01Z</time>
      </trkpt>
      <trkpt lat="48.425" lon="-4.78642">
        <ele>18.4</ele>
        <time>2020-06-09T11:12:02Z</time>
      </trkpt>
      <trkpt lat="48.42501" lon="-4.78642">
        <ele>18.4</ele>
        <time>2020-06-09T11:12:03Z</time>
      </trkpt>
      <trkpt lat="48.42504" lon="-4.78642">
        <ele>18.4</ele>
        <time>2020-06-09T11:12:04Z</time>
      </trkpt>
      <trkpt lat="48.42507" lon="-4.78642">
        <ele>18.4</ele>
        <time>2020-06-09T11:12:05Z</time>
      </trkpt>
      <trkpt lat="48.4251" lon="-4.78642">
        <ele>18.4</ele>
        <time>2020-06-09T11:12:06Z</time>
      </trkpt>
      <trkpt lat="48.42512" lon="-4.78642">
        <ele>18.4</ele>
        <time>2020-06-09T11:12:07Z</time>
      </trkpt>
      <trkpt lat="48.42516" lon="-4.78641">
        <ele>18.4</ele>
        <time>2020-06-09T11:12:08Z</time>
      </trkpt>
      <trkpt lat="48.42518" lon="-4.78641">
        <ele>18.4</ele>
        <time>2020-06-09T11:12:09Z</time>
      </trkpt>
      <trkpt lat="48.42522" lon="-4.7864">
        <ele>18.4</ele>
        <time>2020-06-09T11:12:10Z</time>
      </trkpt>
      <trkpt lat="48.42523" lon="-4.78641">
        <ele>18.4</ele>
        <time>2020-06-09T11:12:11Z</time>
      </trkpt>
      <trkpt lat="48.42526" lon="-4.78642">
        <ele>18.5</ele>
        <time>2020-06-09T11:12:12Z</time>
      </trkpt>
      <trkpt lat="48.42528" lon="-4.78642">
        <ele>18.5</ele>
        <time>2020-06-09T11:12:13Z</time>
      </trkpt>
      <trkpt lat="48.42531" lon="-4.78641">
        <ele>18.5</ele>
        <time>2020-06-09T11:12:14Z</time>
      </trkpt>
      <trkpt lat="48.42533" lon="-4.7864">
        <ele>18.5</ele>
        <time>2020-06-09T11:12:15Z</time>
      </trkpt>
      <trkpt lat="48.42536" lon="-4.7864">
        <ele>18.5</ele>
        <time>2020-06-09T11:12:16Z</time>
      </trkpt>
      <trkpt lat="48.42539" lon="-4.78641">
        <ele>18.6</ele>
        <time>2020-06-09T11:12:17Z</time>
      </trkpt>
      <trkpt lat="48.42541" lon="-4.78641">
        <ele>18.6</ele>
        <time>2020-06-09T11:12:18Z</time>
      </trkpt>
      <trkpt lat="48.42543" lon="-4.78642">
        <ele>18.6</ele>
        <time>2020-06-09T11:12:19Z</time>
      </trkpt>
      <trkpt lat="48.42546" lon="-4.78642">
        <ele>18.6</ele>
        <time>2020-06-09T11:12:20Z</time>
      </trkpt>
      <trkpt lat="48.42549" lon="-4.78642">
        <ele>18.6</ele>
        <time>2020-06-09T11:12:21Z</time>
      </trkpt>
      <trkpt lat="48.42552" lon="-4.78641">
        <ele>18.5</ele>
        <time>2020-06-09T11:12:22Z</time>
      </trkpt>
      <trkpt lat="48.42556" lon="-4.78642">
        <ele>18.5</ele>
        <time>2020-06-09T11:12:23Z</time>
      </trkpt>
      <trkpt lat="48.42559" lon="-4.78641">
        <ele>18.5</ele>
        <time>2020-06-09T11:12:24Z</time>
      </trkpt>
      <trkpt lat="48.42563" lon="-4.7864">
        <ele>18.5</ele>
        <time>2020-06-09T11:12:25Z</time>
      </trkpt>
      <trkpt lat="48.42566" lon="-4.78639">
        <ele>18.5</ele>
        <time>2020-06-09T11:12:26Z</time>
      </trkpt>
      <trkpt lat="48.42569" lon="-4.7864">
        <ele>18.5</ele>
        <time>2020-06-09T11:12:27Z</time>
      </trkpt>
      <trkpt lat="48.42572" lon="-4.78639">
        <ele>18.5</ele>
        <time>2020-06-09T11:12:28Z</time>
      </trkpt>
      <trkpt lat="48.42575" lon="-4.78639">
        <ele>18.5</ele>
        <time>2020-06-09T11:12:29Z</time>
      </trkpt>
      <trkpt lat="48.42577" lon="-4.78639">
        <ele>18.5</ele>
        <time>2020-06-09T11:12:30Z</time>
      </trkpt>
      <trkpt lat="48.4258" lon="-4.7864">
        <ele>18.5</ele>
        <time>2020-06-09T11:12:31Z</time>
      </trkpt>
      <trkpt lat="48.42583" lon="-4.7864">
        <ele>18.6</ele>
        <time>2020-06-09T11:12:32Z</time>
      </trkpt>
      <trkpt lat="48.42586" lon="-4.78639">
        <ele>18.6</ele>
        <time>2020-06-09T11:12:33Z</time>
      </trkpt>
      <trkpt lat="48.42589" lon="-4.78637">
        <ele>18.6</ele>
        <time>2020-06-09T11:12:34Z</time>
      </trkpt>
      <trkpt lat="48.42591" lon="-4.78638">
        <ele>18.6</ele>
        <time>2020-06-09T11:12:35Z</time>
      </trkpt>
      <trkpt lat="48.42594" lon="-4.78638">
        <ele>18.6</ele>
        <time>2020-06-09T11:12:36Z</time>
      </trkpt>
      <trkpt lat="48.42597" lon="-4.78637">
        <ele>18.6</ele>
        <time>2020-06-09T11:12:37Z</time>
      </trkpt>
      <trkpt lat="48.426" lon="-4.78638">
        <ele>18.6</ele>
        <time>2020-06-09T11:12:38Z</time>
      </trkpt>
      <trkpt lat="48.42603" lon="-4.78638">
        <ele>18.6</ele>
        <time>2020-06-09T11:12:39Z</time>
      </trkpt>
      <trkpt lat="48.42606" lon="-4.78638">
        <ele>18.6</ele>
        <time>2020-06-09T11:12:40Z</time>
      </trkpt>
      <trkpt lat="48.42609" lon="-4.78638">
        <ele>18.6</ele>
        <time>2020-06-09T11:12:41Z</time>
      </trkpt>
      <trkpt lat="48.42612" lon="-4.78638">
        <ele>18.7</ele>
        <time>2020-06-09T11:12:42Z</time>
      </trkpt>
      <trkpt lat="48.42615" lon="-4.78638">
        <ele>18.7</ele>
        <time>2020-06-09T11:12:43Z</time>
      </trkpt>
      <trkpt lat="48.42618" lon="-4.78638">
        <ele>18.7</ele>
        <time>2020-06-09T11:12:44Z</time>
      </trkpt>
      <trkpt lat="48.42622" lon="-4.78637">
        <ele>18.7</ele>
        <time>2020-06-09T11:12:45Z</time>
      </trkpt>
      <trkpt lat="48.42625" lon="-4.78638">
        <ele>18.7</ele>
        <time>2020-06-09T11:12:46Z</time>
      </trkpt>
      <trkpt lat="48.42628" lon="-4.78638">
        <ele>18.7</ele>
        <time>2020-06-09T11:12:47Z</time>
      </trkpt>
      <trkpt lat="48.42631" lon="-4.78638">
        <ele>18.8</ele>
        <time>2020-06-09T11:12:48Z</time>
      </trkpt>
      <trkpt lat="48.42634" lon="-4.78638">
        <ele>18.8</ele>
        <time>2020-06-09T11:12:49Z</time>
      </trkpt>
      <trkpt lat="48.42637" lon="-4.78639">
        <ele>18.9</ele>
        <time>2020-06-09T11:12:50Z</time>
      </trkpt>
      <trkpt lat="48.4264" lon="-4.78638">
        <ele>18.9</ele>
        <time>2020-06-09T11:12:51Z</time>
      </trkpt>
      <trkpt lat="48.42643" lon="-4.78638">
        <ele>19</ele>
        <time>2020-06-09T11:12:52Z</time>
      </trkpt>
      <trkpt lat="48.42647" lon="-4.78637">
        <ele>19.1</ele>
        <time>2020-06-09T11:12:53Z</time>
      </trkpt>
      <trkpt lat="48.42648" lon="-4.78637">
        <ele>19.1</ele>
        <time>2020-06-09T11:12:54Z</time>
      </trkpt>
      <trkpt lat="48.42651" lon="-4.78635">
        <ele>19.2</ele>
        <time>2020-06-09T11:12:55Z</time>
      </trkpt>
      <trkpt lat="48.42653" lon="-4.78634">
        <ele>19.3</ele>
        <time>2020-06-09T11:12:56Z</time>
      </trkpt>
      <trkpt lat="48.42656" lon="-4.78634">
        <ele>19.4</ele>
        <time>2020-06-09T11:12:57Z</time>
      </trkpt>
      <trkpt lat="48.42657" lon="-4.78633">
        <ele>19.4</ele>
        <time>2020-06-09T11:12:58Z</time>
      </trkpt>
      <trkpt lat="48.4266" lon="-4.78633">
        <ele>19.5</ele>
        <time>2020-06-09T11:12:59Z</time>
      </trkpt>
      <trkpt lat="48.42661" lon="-4.78632">
        <ele>19.5</ele>
        <time>2020-06-09T11:13:00Z</time>
      </trkpt>
      <trkpt lat="48.42664" lon="-4.7863">
        <ele>19.6</ele>
        <time>2020-06-09T11:13:01Z</time>
      </trkpt>
      <trkpt lat="48.42665" lon="-4.78629">
        <ele>19.7</ele>
        <time>2020-06-09T11:13:02Z</time>
      </trkpt>
      <trkpt lat="48.42669" lon="-4.78627">
        <ele>19.8</ele>
        <time>2020-06-09T11:13:03Z</time>
      </trkpt>
      <trkpt lat="48.4267" lon="-4.78627">
        <ele>19.8</ele>
        <time>2020-06-09T11:13:04Z</time>
      </trkpt>
      <trkpt lat="48.42674" lon="-4.78625">
        <ele>19.9</ele>
        <time>2020-06-09T11:13:05Z</time>
      </trkpt>
      <trkpt lat="48.42675" lon="-4.78624">
        <ele>19.9</ele>
        <time>2020-06-09T11:13:06Z</time>
      </trkpt>
      <trkpt lat="48.42678" lon="-4.78622">
        <ele>20</ele>
        <time>2020-06-09T11:13:07Z</time>
      </trkpt>
      <trkpt lat="48.42679" lon="-4.78622">
        <ele>20</ele>
        <time>2020-06-09T11:13:08Z</time>
      </trkpt>
      <trkpt lat="48.42683" lon="-4.78619">
        <ele>20</ele>
        <time>2020-06-09T11:13:09Z</time>
      </trkpt>
      <trkpt lat="48.42684" lon="-4.78619">
        <ele>20</ele>
        <time>2020-06-09T11:13:10Z</time>
      </trkpt>
      <trkpt lat="48.42686" lon="-4.78618">
        <ele>20</ele>
        <time>2020-06-09T11:13:11Z</time>
      </trkpt>
      <trkpt lat="48.4269" lon="-4.78617">
        <ele>20</ele>
        <time>2020-06-09T11:13:12Z</time>
      </trkpt>
      <trkpt lat="48.42692" lon="-4.78617">
        <ele>20</ele>
        <time>2020-06-09T11:13:13Z</time>
      </trkpt>
      <trkpt lat="48.42696" lon="-4.78616">
        <ele>19.9</ele>
        <time>2020-06-09T11:13:14Z</time>
      </trkpt>
      <trkpt lat="48.42697" lon="-4.78616">
        <ele>19.9</ele>
        <time>2020-06-09T11:13:15Z</time>
      </trkpt>
      <trkpt lat="48.42701" lon="-4.78614">
        <ele>19.8</ele>
        <time>2020-06-09T11:13:16Z</time>
      </trkpt>
      <trkpt lat="48.42704" lon="-4.78613">
        <ele>19.8</ele>
        <time>2020-06-09T11:13:17Z</time>
      </trkpt>
      <trkpt lat="48.42708" lon="-4.78612">
        <ele>19.8</ele>
        <time>2020-06-09T11:13:18Z</time>
      </trkpt>
      <trkpt lat="48.42712" lon="-4.78611">
        <ele>19.7</ele>
        <time>2020-06-09T11:13:19Z</time>
      </trkpt>
      <trkpt lat="48.42717" lon="-4.78611">
        <ele>19.6</ele>
        <time>2020-06-09T11:13:20Z</time>
      </trkpt>
      <trkpt lat="48.42722" lon="-4.7861">
        <ele>19.4</ele>
        <time>2020-06-09T11:13:21Z</time>
      </trkpt>
      <trkpt lat="48.42727" lon="-4.78609">
        <ele>19.3</ele>
        <time>2020-06-09T11:13:22Z</time>
      </trkpt>
      <trkpt lat="48.42733" lon="-4.78608">
        <ele>19.1</ele>
        <time>2020-06-09T11:13:23Z</time>
      </trkpt>
      <trkpt lat="48.42737" lon="-4.78606">
        <ele>19</ele>
        <time>2020-06-09T11:13:24Z</time>
      </trkpt>
      <trkpt lat="48.42743" lon="-4.78605">
        <ele>18.8</ele>
        <time>2020-06-09T11:13:25Z</time>
      </trkpt>
      <trkpt lat="48.42749" lon="-4.78603">
        <ele>18.7</ele>
        <time>2020-06-09T11:13:26Z</time>
      </trkpt>
      <trkpt lat="48.42754" lon="-4.78602">
        <ele>18.6</ele>
        <time>2020-06-09T11:13:27Z</time>
      </trkpt>
      <trkpt lat="48.4276" lon="-4.78601">
        <ele>18.5</ele>
        <time>2020-06-09T11:13:28Z</time>
      </trkpt>
      <trkpt lat="48.42765" lon="-4.78599">
        <ele>18.4</ele>
        <time>2020-06-09T11:13:29Z</time>
      </trkpt>
      <trkpt lat="48.4277" lon="-4.78598">
        <ele>18.3</ele>
        <time>2020-06-09T11:13:30Z</time>
      </trkpt>
      <trkpt lat="48.42775" lon="-4.78597">
        <ele>18.2</ele>
        <time>2020-06-09T11:13:31Z</time>
      </trkpt>
      <trkpt lat="48.4278" lon="-4.78596">
        <ele>18.2</ele>
        <time>2020-06-09T11:13:32Z</time>
      </trkpt>
      <trkpt lat="48.42785" lon="-4.78594">
        <ele>18.2</ele>
        <time>2020-06-09T11:13:33Z</time>
      </trkpt>
      <trkpt lat="48.4279" lon="-4.78593">
        <ele>18.2</ele>
        <time>2020-06-09T11:13:34Z</time>
      </trkpt>
      <trkpt lat="48.42795" lon="-4.78592">
        <ele>18.2</ele>
        <time>2020-06-09T11:13:35Z</time>
      </trkpt>
      <trkpt lat="48.42799" lon="-4.78592">
        <ele>18.2</ele>
        <time>2020-06-09T11:13:36Z</time>
      </trkpt>
      <trkpt lat="48.42804" lon="-4.78591">
        <ele>18.2</ele>
        <time>2020-06-09T11:13:37Z</time>
      </trkpt>
      <trkpt lat="48.42809" lon="-4.7859">
        <ele>18.2</ele>
        <time>2020-06-09T11:13:38Z</time>
      </trkpt>
      <trkpt lat="48.42813" lon="-4.7859">
        <ele>18.2</ele>
        <time>2020-06-09T11:13:39Z</time>
      </trkpt>
      <trkpt lat="48.42817" lon="-4.78588">
        <ele>18.3</ele>
        <time>2020-06-09T11:13:40Z</time>
      </trkpt>
      <trkpt lat="48.42822" lon="-4.78587">
        <ele>18.3</ele>
        <time>2020-06-09T11:13:41Z</time>
      </trkpt>
      <trkpt lat="48.42826" lon="-4.78587">
        <ele>18.3</ele>
        <time>2020-06-09T11:13:42Z</time>
      </trkpt>
      <trkpt lat="48.4283" lon="-4.78586">
        <ele>18.4</ele>
        <time>2020-06-09T11:13:43Z</time>
      </trkpt>
      <trkpt lat="48.42833" lon="-4.78585">
        <ele>18.4</ele>
        <time>2020-06-09T11:13:44Z</time>
      </trkpt>
      <trkpt lat="48.42837" lon="-4.78584">
        <ele>18.5</ele>
        <time>2020-06-09T11:13:45Z</time>
      </trkpt>
      <trkpt lat="48.42842" lon="-4.78583">
        <ele>18.6</ele>
        <time>2020-06-09T11:13:46Z</time>
      </trkpt>
      <trkpt lat="48.42845" lon="-4.78582">
        <ele>18.7</ele>
        <time>2020-06-09T11:13:47Z</time>
      </trkpt>
      <trkpt lat="48.42849" lon="-4.78581">
        <ele>18.8</ele>
        <time>2020-06-09T11:13:48Z</time>
      </trkpt>
      <trkpt lat="48.42853" lon="-4.7858">
        <ele>18.9</ele>
        <time>2020-06-09T11:13:49Z</time>
      </trkpt>
      <trkpt lat="48.42856" lon="-4.78579">
        <ele>19</ele>
        <time>2020-06-09T11:13:50Z</time>
      </trkpt>
      <trkpt lat="48.4286" lon="-4.78576">
        <ele>19.1</ele>
        <time>2020-06-09T11:13:51Z</time>
      </trkpt>
      <trkpt lat="48.42863" lon="-4.78574">
        <ele>19.2</ele>
        <time>2020-06-09T11:13:52Z</time>
      </trkpt>
      <trkpt lat="48.42867" lon="-4.78572">
        <ele>19.4</ele>
        <time>2020-06-09T11:13:53Z</time>
      </trkpt>
      <trkpt lat="48.42869" lon="-4.7857">
        <ele>19.5</ele>
        <time>2020-06-09T11:13:54Z</time>
      </trkpt>
      <trkpt lat="48.42872" lon="-4.78569">
        <ele>19.6</ele>
        <time>2020-06-09T11:13:55Z</time>
      </trkpt>
      <trkpt lat="48.42875" lon="-4.78567">
        <ele>19.8</ele>
        <time>2020-06-09T11:13:56Z</time>
      </trkpt>
      <trkpt lat="48.42877" lon="-4.78564">
        <ele>19.9</ele>
        <time>2020-06-09T11:13:57Z</time>
      </trkpt>
      <trkpt lat="48.4288" lon="-4.7856">
        <ele>20</ele>
        <time>2020-06-09T11:13:58Z</time>
      </trkpt>
      <trkpt lat="48.42881" lon="-4.78559">
        <ele>20.1</ele>
        <time>2020-06-09T11:13:59Z</time>
      </trkpt>
      <trkpt lat="48.42883" lon="-4.78554">
        <ele>20.2</ele>
        <time>2020-06-09T11:14:00Z</time>
      </trkpt>
      <trkpt lat="48.42884" lon="-4.78553">
        <ele>20.2</ele>
        <time>2020-06-09T11:14:01Z</time>
      </trkpt>
      <trkpt lat="48.42885" lon="-4.78549">
        <ele>20.3</ele>
        <time>2020-06-09T11:14:02Z</time>
      </trkpt>
      <trkpt lat="48.42886" lon="-4.78547">
        <ele>20.3</ele>
        <time>2020-06-09T11:14:03Z</time>
      </trkpt>
      <trkpt lat="48.42888" lon="-4.78542">
        <ele>20.3</ele>
        <time>2020-06-09T11:14:04Z</time>
      </trkpt>
      <trkpt lat="48.42888" lon="-4.7854">
        <ele>20.3</ele>
        <time>2020-06-09T11:14:05Z</time>
      </trkpt>
      <trkpt lat="48.42889" lon="-4.78535">
        <ele>20.3</ele>
        <time>2020-06-09T11:14:06Z</time>
      </trkpt>
      <trkpt lat="48.42889" lon="-4.7853">
        <ele>20.2</ele>
        <time>2020-06-09T11:14:07Z</time>
      </trkpt>
      <trkpt lat="48.42889" lon="-4.78524">
        <ele>20.1</ele>
        <time>2020-06-09T11:14:08Z</time>
      </trkpt>
      <trkpt lat="48.42888" lon="-4.78517">
        <ele>20</ele>
        <time>2020-06-09T11:14:09Z</time>
      </trkpt>
      <trkpt lat="48.42887" lon="-4.7851">
        <ele>19.8</ele>
        <time>2020-06-09T11:14:10Z</time>
      </trkpt>
      <trkpt lat="48.42887" lon="-4.78501">
        <ele>19.6</ele>
        <time>2020-06-09T11:14:11Z</time>
      </trkpt>
      <trkpt lat="48.42888" lon="-4.78493">
        <ele>19.4</ele>
        <time>2020-06-09T11:14:12Z</time>
      </trkpt>
      <trkpt lat="48.42887" lon="-4.78485">
        <ele>19.2</ele>
        <time>2020-06-09T11:14:13Z</time>
      </trkpt>
      <trkpt lat="48.42887" lon="-4.78478">
        <ele>19</ele>
        <time>2020-06-09T11:14:14Z</time>
      </trkpt>
      <trkpt lat="48.42887" lon="-4.78471">
        <ele>18.8</ele>
        <time>2020-06-09T11:14:15Z</time>
      </trkpt>
      <trkpt lat="48.42886" lon="-4.78464">
        <ele>18.7</ele>
        <time>2020-06-09T11:14:16Z</time>
      </trkpt>
      <trkpt lat="48.42885" lon="-4.78458">
        <ele>18.5</ele>
        <time>2020-06-09T11:14:17Z</time>
      </trkpt>
      <trkpt lat="48.42883" lon="-4.78451">
        <ele>18.4</ele>
        <time>2020-06-09T11:14:18Z</time>
      </trkpt>
      <trkpt lat="48.4288" lon="-4.78444">
        <ele>18.2</ele>
        <time>2020-06-09T11:14:19Z</time>
      </trkpt>
      <trkpt lat="48.42879" lon="-4.78435">
        <ele>18.1</ele>
        <time>2020-06-09T11:14:20Z</time>
      </trkpt>
      <trkpt lat="48.42878" lon="-4.78428">
        <ele>18.1</ele>
        <time>2020-06-09T11:14:21Z</time>
      </trkpt>
      <trkpt lat="48.42877" lon="-4.7842">
        <ele>18</ele>
        <time>2020-06-09T11:14:22Z</time>
      </trkpt>
      <trkpt lat="48.42873" lon="-4.78415">
        <ele>18</ele>
        <time>2020-06-09T11:14:23Z</time>
      </trkpt>
      <trkpt lat="48.42871" lon="-4.78409">
        <ele>18</ele>
        <time>2020-06-09T11:14:24Z</time>
      </trkpt>
      <trkpt lat="48.4287" lon="-4.78403">
        <ele>17.9</ele>
        <time>2020-06-09T11:14:25Z</time>
      </trkpt>
      <trkpt lat="48.42868" lon="-4.78397">
        <ele>17.9</ele>
        <time>2020-06-09T11:14:26Z</time>
      </trkpt>
      <trkpt lat="48.42865" lon="-4.78391">
        <ele>17.8</ele>
        <time>2020-06-09T11:14:27Z</time>
      </trkpt>
      <trkpt lat="48.42863" lon="-4.78385">
        <ele>17.7</ele>
        <time>2020-06-09T11:14:28Z</time>
      </trkpt>
      <trkpt lat="48.42862" lon="-4.78379">
        <ele>17.6</ele>
        <time>2020-06-09T11:14:29Z</time>
      </trkpt>
      <trkpt lat="48.4286" lon="-4.78373">
        <ele>17.6</ele>
        <time>2020-06-09T11:14:30Z</time>
      </trkpt>
      <trkpt lat="48.42856" lon="-4.78362">
        <ele>17.4</ele>
        <time>2020-06-09T11:14:31Z</time>
      </trkpt>
      <trkpt lat="48.42853" lon="-4.78355">
        <ele>17.3</ele>
        <time>2020-06-09T11:14:32Z</time>
      </trkpt>
      <trkpt lat="48.4285" lon="-4.78351">
        <ele>17.2</ele>
        <time>2020-06-09T11:14:33Z</time>
      </trkpt>
      <trkpt lat="48.42847" lon="-4.78344">
        <ele>17.1</ele>
        <time>2020-06-09T11:14:34Z</time>
      </trkpt>
      <trkpt lat="48.42843" lon="-4.78333">
        <ele>17</ele>
        <time>2020-06-09T11:14:36Z</time>
      </trkpt>
      <trkpt lat="48.42839" lon="-4.78328">
        <ele>16.9</ele>
        <time>2020-06-09T11:14:37Z</time>
      </trkpt>
      <trkpt lat="48.42836" lon="-4.78323">
        <ele>16.9</ele>
        <time>2020-06-09T11:14:38Z</time>
      </trkpt>
      <trkpt lat="48.42834" lon="-4.78318">
        <ele>16.8</ele>
        <time>2020-06-09T11:14:39Z</time>
      </trkpt>
      <trkpt lat="48.42831" lon="-4.78315">
        <ele>16.8</ele>
        <time>2020-06-09T11:14:40Z</time>
      </trkpt>
      <trkpt lat="48.42828" lon="-4.7831">
        <ele>16.8</ele>
        <time>2020-06-09T11:14:41Z</time>
      </trkpt>
      <trkpt lat="48.42826" lon="-4.78306">
        <ele>16.8</ele>
        <time>2020-06-09T11:14:42Z</time>
      </trkpt>
      <trkpt lat="48.42824" lon="-4.78302">
        <ele>16.8</ele>
        <time>2020-06-09T11:14:43Z</time>
      </trkpt>
      <trkpt lat="48.42821" lon="-4.78297">
        <ele>16.8</ele>
        <time>2020-06-09T11:14:44Z</time>
      </trkpt>
      <trkpt lat="48.42819" lon="-4.78293">
        <ele>16.9</ele>
        <time>2020-06-09T11:14:45Z</time>
      </trkpt>
      <trkpt lat="48.42816" lon="-4.78289">
        <ele>16.9</ele>
        <time>2020-06-09T11:14:46Z</time>
      </trkpt>
      <trkpt lat="48.42814" lon="-4.78285">
        <ele>17</ele>
        <time>2020-06-09T11:14:47Z</time>
      </trkpt>
      <trkpt lat="48.42811" lon="-4.78281">
        <ele>17.1</ele>
        <time>2020-06-09T11:14:48Z</time>
      </trkpt>
      <trkpt lat="48.42808" lon="-4.78278">
        <ele>17.2</ele>
        <time>2020-06-09T11:14:49Z</time>
      </trkpt>
      <trkpt lat="48.42806" lon="-4.78275">
        <ele>17.2</ele>
        <time>2020-06-09T11:14:50Z</time>
      </trkpt>
      <trkpt lat="48.42803" lon="-4.78272">
        <ele>17.4</ele>
        <time>2020-06-09T11:14:51Z</time>
      </trkpt>
      <trkpt lat="48.42799" lon="-4.7827">
        <ele>17.5</ele>
        <time>2020-06-09T11:14:52Z</time>
      </trkpt>
      <trkpt lat="48.42797" lon="-4.78269">
        <ele>17.5</ele>
        <time>2020-06-09T11:14:53Z</time>
      </trkpt>
      <trkpt lat="48.42795" lon="-4.78266">
        <ele>17.6</ele>
        <time>2020-06-09T11:14:54Z</time>
      </trkpt>
      <trkpt lat="48.42792" lon="-4.78262">
        <ele>17.8</ele>
        <time>2020-06-09T11:14:55Z</time>
      </trkpt>
      <trkpt lat="48.42791" lon="-4.78261">
        <ele>17.9</ele>
        <time>2020-06-09T11:14:56Z</time>
      </trkpt>
      <trkpt lat="48.42788" lon="-4.78257">
        <ele>18</ele>
        <time>2020-06-09T11:14:57Z</time>
      </trkpt>
      <trkpt lat="48.42786" lon="-4.78256">
        <ele>18.1</ele>
        <time>2020-06-09T11:14:58Z</time>
      </trkpt>
      <trkpt lat="48.42783" lon="-4.78252">
        <ele>18.3</ele>
        <time>2020-06-09T11:14:59Z</time>
      </trkpt>
      <trkpt lat="48.42782" lon="-4.78251">
        <ele>18.3</ele>
        <time>2020-06-09T11:15:00Z</time>
      </trkpt>
      <trkpt lat="48.42779" lon="-4.78248">
        <ele>18.5</ele>
        <time>2020-06-09T11:15:01Z</time>
      </trkpt>
      <trkpt lat="48.42778" lon="-4.78247">
        <ele>18.5</ele>
        <time>2020-06-09T11:15:02Z</time>
      </trkpt>
      <trkpt lat="48.42777" lon="-4.78245">
        <ele>18.6</ele>
        <time>2020-06-09T11:15:03Z</time>
      </trkpt>
      <trkpt lat="48.42777" lon="-4.78244">
        <ele>18.7</ele>
        <time>2020-06-09T11:15:04Z</time>
      </trkpt>
      <trkpt lat="48.42776" lon="-4.78244">
        <ele>18.7</ele>
        <time>2020-06-09T11:15:05Z</time>
      </trkpt>
      <trkpt lat="48.42773" lon="-4.78241">
        <ele>18.9</ele>
        <time>2020-06-09T11:15:06Z</time>
      </trkpt>
      <trkpt lat="48.42772" lon="-4.7824">
        <ele>18.9</ele>
        <time>2020-06-09T11:15:07Z</time>
      </trkpt>
      <trkpt lat="48.4277" lon="-4.78236">
        <ele>19.1</ele>
        <time>2020-06-09T11:15:08Z</time>
      </trkpt>
      <trkpt lat="48.42769" lon="-4.78235">
        <ele>19.1</ele>
        <time>2020-06-09T11:15:09Z</time>
      </trkpt>
      <trkpt lat="48.42766" lon="-4.78231">
        <ele>19.3</ele>
        <time>2020-06-09T11:15:10Z</time>
      </trkpt>
      <trkpt lat="48.42765" lon="-4.7823">
        <ele>19.4</ele>
        <time>2020-06-09T11:15:11Z</time>
      </trkpt>
      <trkpt lat="48.42763" lon="-4.78226">
        <ele>19.6</ele>
        <time>2020-06-09T11:15:12Z</time>
      </trkpt>
      <trkpt lat="48.42762" lon="-4.78225">
        <ele>19.7</ele>
        <time>2020-06-09T11:15:13Z</time>
      </trkpt>
      <trkpt lat="48.42759" lon="-4.7822">
        <ele>19.9</ele>
        <time>2020-06-09T11:15:14Z</time>
      </trkpt>
      <trkpt lat="48.42758" lon="-4.78219">
        <ele>20</ele>
        <time>2020-06-09T11:15:15Z</time>
      </trkpt>
      <trkpt lat="48.42755" lon="-4.78216">
        <ele>20.2</ele>
        <time>2020-06-09T11:15:16Z</time>
      </trkpt>
      <trkpt lat="48.42753" lon="-4.78213">
        <ele>20.4</ele>
        <time>2020-06-09T11:15:17Z</time>
      </trkpt>
      <trkpt lat="48.4275" lon="-4.78209">
        <ele>20.8</ele>
        <time>2020-06-09T11:15:18Z</time>
      </trkpt>
      <trkpt lat="48.42749" lon="-4.78208">
        <ele>20.9</ele>
        <time>2020-06-09T11:15:19Z</time>
      </trkpt>
      <trkpt lat="48.42747" lon="-4.78203">
        <ele>21.2</ele>
        <time>2020-06-09T11:15:20Z</time>
      </trkpt>
      <trkpt lat="48.42747" lon="-4.78201">
        <ele>21.3</ele>
        <time>2020-06-09T11:15:21Z</time>
      </trkpt>
      <trkpt lat="48.42745" lon="-4.78198">
        <ele>21.5</ele>
        <time>2020-06-09T11:15:22Z</time>
      </trkpt>
      <trkpt lat="48.42744" lon="-4.78196">
        <ele>21.6</ele>
        <time>2020-06-09T11:15:23Z</time>
      </trkpt>
      <trkpt lat="48.42743" lon="-4.78192">
        <ele>21.9</ele>
        <time>2020-06-09T11:15:24Z</time>
      </trkpt>
      <trkpt lat="48.42742" lon="-4.7819">
        <ele>22</ele>
        <time>2020-06-09T11:15:25Z</time>
      </trkpt>
      <trkpt lat="48.42741" lon="-4.78186">
        <ele>22.3</ele>
        <time>2020-06-09T11:15:26Z</time>
      </trkpt>
      <trkpt lat="48.4274" lon="-4.78182">
        <ele>22.6</ele>
        <time>2020-06-09T11:15:27Z</time>
      </trkpt>
      <trkpt lat="48.42739" lon="-4.78181">
        <ele>22.7</ele>
        <time>2020-06-09T11:15:28Z</time>
      </trkpt>
      <trkpt lat="48.42738" lon="-4.78177">
        <ele>22.9</ele>
        <time>2020-06-09T11:15:29Z</time>
      </trkpt>
      <trkpt lat="48.42737" lon="-4.78172">
        <ele>23.2</ele>
        <time>2020-06-09T11:15:30Z</time>
      </trkpt>
      <trkpt lat="48.42737" lon="-4.7817">
        <ele>23.3</ele>
        <time>2020-06-09T11:15:31Z</time>
      </trkpt>
      <trkpt lat="48.42735" lon="-4.78165">
        <ele>23.6</ele>
        <time>2020-06-09T11:15:32Z</time>
      </trkpt>
      <trkpt lat="48.42735" lon="-4.78163">
        <ele>23.6</ele>
        <time>2020-06-09T11:15:33Z</time>
      </trkpt>
      <trkpt lat="48.42734" lon="-4.78157">
        <ele>24.1</ele>
        <time>2020-06-09T11:15:34Z</time>
      </trkpt>
      <trkpt lat="48.42734" lon="-4.78155">
        <ele>24.2</ele>
        <time>2020-06-09T11:15:35Z</time>
      </trkpt>
      <trkpt lat="48.42733" lon="-4.78151">
        <ele>24.5</ele>
        <time>2020-06-09T11:15:36Z</time>
      </trkpt>
      <trkpt lat="48.42733" lon="-4.78149">
        <ele>24.5</ele>
        <time>2020-06-09T11:15:37Z</time>
      </trkpt>
      <trkpt lat="48.42732" lon="-4.78144">
        <ele>24.9</ele>
        <time>2020-06-09T11:15:38Z</time>
      </trkpt>
      <trkpt lat="48.42732" lon="-4.78142">
        <ele>25</ele>
        <time>2020-06-09T11:15:39Z</time>
      </trkpt>
      <trkpt lat="48.42731" lon="-4.78138">
        <ele>25.2</ele>
        <time>2020-06-09T11:15:40Z</time>
      </trkpt>
      <trkpt lat="48.42731" lon="-4.78136">
        <ele>25.3</ele>
        <time>2020-06-09T11:15:41Z</time>
      </trkpt>
      <trkpt lat="48.4273" lon="-4.78132">
        <ele>25.6</ele>
        <time>2020-06-09T11:15:42Z</time>
      </trkpt>
      <trkpt lat="48.42731" lon="-4.78129">
        <ele>25.7</ele>
        <time>2020-06-09T11:15:43Z</time>
      </trkpt>
      <trkpt lat="48.4273" lon="-4.78127">
        <ele>25.9</ele>
        <time>2020-06-09T11:15:44Z</time>
      </trkpt>
      <trkpt lat="48.4273" lon="-4.78124">
        <ele>26</ele>
        <time>2020-06-09T11:15:45Z</time>
      </trkpt>
      <trkpt lat="48.42729" lon="-4.78119">
        <ele>26.3</ele>
        <time>2020-06-09T11:15:46Z</time>
      </trkpt>
      <trkpt lat="48.42728" lon="-4.78117">
        <ele>26.4</ele>
        <time>2020-06-09T11:15:47Z</time>
      </trkpt>
      <trkpt lat="48.42727" lon="-4.78113">
        <ele>26.7</ele>
        <time>2020-06-09T11:15:48Z</time>
      </trkpt>
      <trkpt lat="48.42727" lon="-4.78108">
        <ele>26.9</ele>
        <time>2020-06-09T11:15:49Z</time>
      </trkpt>
      <trkpt lat="48.42727" lon="-4.78106">
        <ele>27</ele>
        <time>2020-06-09T11:15:50Z</time>
      </trkpt>
      <trkpt lat="48.42726" lon="-4.78101">
        <ele>27.3</ele>
        <time>2020-06-09T11:15:51Z</time>
      </trkpt>
      <trkpt lat="48.42726" lon="-4.78099">
        <ele>27.4</ele>
        <time>2020-06-09T11:15:52Z</time>
      </trkpt>
      <trkpt lat="48.42724" lon="-4.78095">
        <ele>27.6</ele>
        <time>2020-06-09T11:15:53Z</time>
      </trkpt>
      <trkpt lat="48.42724" lon="-4.78093">
        <ele>27.7</ele>
        <time>2020-06-09T11:15:54Z</time>
      </trkpt>
      <trkpt lat="48.42723" lon="-4.7809">
        <ele>27.9</ele>
        <time>2020-06-09T11:15:55Z</time>
      </trkpt>
      <trkpt lat="48.42722" lon="-4.78088">
        <ele>28</ele>
        <time>2020-06-09T11:15:56Z</time>
      </trkpt>
      <trkpt lat="48.42722" lon="-4.78083">
        <ele>28.2</ele>
        <time>2020-06-09T11:15:57Z</time>
      </trkpt>
      <trkpt lat="48.42721" lon="-4.78081">
        <ele>28.3</ele>
        <time>2020-06-09T11:15:58Z</time>
      </trkpt>
      <trkpt lat="48.4272" lon="-4.78076">
        <ele>28.6</ele>
        <time>2020-06-09T11:15:59Z</time>
      </trkpt>
      <trkpt lat="48.42719" lon="-4.78074">
        <ele>28.7</ele>
        <time>2020-06-09T11:16:00Z</time>
      </trkpt>
      <trkpt lat="48.42718" lon="-4.78069">
        <ele>28.9</ele>
        <time>2020-06-09T11:16:01Z</time>
      </trkpt>
      <trkpt lat="48.42717" lon="-4.78067">
        <ele>29</ele>
        <time>2020-06-09T11:16:02Z</time>
      </trkpt>
      <trkpt lat="48.42716" lon="-4.78063">
        <ele>29.2</ele>
        <time>2020-06-09T11:16:03Z</time>
      </trkpt>
      <trkpt lat="48.42716" lon="-4.78061">
        <ele>29.3</ele>
        <time>2020-06-09T11:16:04Z</time>
      </trkpt>
      <trkpt lat="48.42714" lon="-4.78057">
        <ele>29.6</ele>
        <time>2020-06-09T11:16:05Z</time>
      </trkpt>
      <trkpt lat="48.42714" lon="-4.78055">
        <ele>29.7</ele>
        <time>2020-06-09T11:16:06Z</time>
      </trkpt>
      <trkpt lat="48.42713" lon="-4.78051">
        <ele>29.9</ele>
        <time>2020-06-09T11:16:07Z</time>
      </trkpt>
      <trkpt lat="48.42712" lon="-4.7805">
        <ele>30</ele>
        <time>2020-06-09T11:16:08Z</time>
      </trkpt>
      <trkpt lat="48.42711" lon="-4.78045">
        <ele>30.2</ele>
        <time>2020-06-09T11:16:09Z</time>
      </trkpt>
      <trkpt lat="48.42711" lon="-4.78043">
        <ele>30.3</ele>
        <time>2020-06-09T11:16:10Z</time>
      </trkpt>
      <trkpt lat="48.4271" lon="-4.78038">
        <ele>30.6</ele>
        <time>2020-06-09T11:16:11Z</time>
      </trkpt>
      <trkpt lat="48.42709" lon="-4.78036">
        <ele>30.7</ele>
        <time>2020-06-09T11:16:12Z</time>
      </trkpt>
      <trkpt lat="48.42709" lon="-4.78032">
        <ele>31</ele>
        <time>2020-06-09T11:16:13Z</time>
      </trkpt>
      <trkpt lat="48.42707" lon="-4.78026">
        <ele>31.3</ele>
        <time>2020-06-09T11:16:14Z</time>
      </trkpt>
      <trkpt lat="48.42707" lon="-4.78025">
        <ele>31.5</ele>
        <time>2020-06-09T11:16:15Z</time>
      </trkpt>
      <trkpt lat="48.42706" lon="-4.7802">
        <ele>31.7</ele>
        <time>2020-06-09T11:16:16Z</time>
      </trkpt>
      <trkpt lat="48.42706" lon="-4.78015">
        <ele>32</ele>
        <time>2020-06-09T11:16:17Z</time>
      </trkpt>
      <trkpt lat="48.42706" lon="-4.78014">
        <ele>32.1</ele>
        <time>2020-06-09T11:16:18Z</time>
      </trkpt>
      <trkpt lat="48.42707" lon="-4.78009">
        <ele>32.5</ele>
        <time>2020-06-09T11:16:19Z</time>
      </trkpt>
      <trkpt lat="48.42708" lon="-4.78008">
        <ele>32.7</ele>
        <time>2020-06-09T11:16:20Z</time>
      </trkpt>
      <trkpt lat="48.42709" lon="-4.78005">
        <ele>32.8</ele>
        <time>2020-06-09T11:16:21Z</time>
      </trkpt>
      <trkpt lat="48.4271" lon="-4.78004">
        <ele>32.8</ele>
        <time>2020-06-09T11:16:22Z</time>
      </trkpt>
      <trkpt lat="48.42714" lon="-4.78001">
        <ele>32.9</ele>
        <time>2020-06-09T11:16:23Z</time>
      </trkpt>
      <trkpt lat="48.42715" lon="-4.77999">
        <ele>32.9</ele>
        <time>2020-06-09T11:16:24Z</time>
      </trkpt>
      <trkpt lat="48.42718" lon="-4.77998">
        <ele>33</ele>
        <time>2020-06-09T11:16:25Z</time>
      </trkpt>
      <trkpt lat="48.42719" lon="-4.77997">
        <ele>33</ele>
        <time>2020-06-09T11:16:26Z</time>
      </trkpt>
      <trkpt lat="48.42723" lon="-4.77995">
        <ele>33.1</ele>
        <time>2020-06-09T11:16:27Z</time>
      </trkpt>
      <trkpt lat="48.42724" lon="-4.77994">
        <ele>33.1</ele>
        <time>2020-06-09T11:16:28Z</time>
      </trkpt>
      <trkpt lat="48.42726" lon="-4.77992">
        <ele>33.1</ele>
        <time>2020-06-09T11:16:29Z</time>
      </trkpt>
      <trkpt lat="48.42729" lon="-4.7799">
        <ele>33.2</ele>
        <time>2020-06-09T11:16:30Z</time>
      </trkpt>
      <trkpt lat="48.42732" lon="-4.77988">
        <ele>33.2</ele>
        <time>2020-06-09T11:16:31Z</time>
      </trkpt>
      <trkpt lat="48.42735" lon="-4.77987">
        <ele>33.2</ele>
        <time>2020-06-09T11:16:32Z</time>
      </trkpt>
      <trkpt lat="48.42738" lon="-4.77986">
        <ele>33.3</ele>
        <time>2020-06-09T11:16:33Z</time>
      </trkpt>
      <trkpt lat="48.4274" lon="-4.77985">
        <ele>33.3</ele>
        <time>2020-06-09T11:16:34Z</time>
      </trkpt>
      <trkpt lat="48.42741" lon="-4.77984">
        <ele>33.3</ele>
        <time>2020-06-09T11:16:35Z</time>
      </trkpt>
      <trkpt lat="48.42743" lon="-4.77983">
        <ele>33.3</ele>
        <time>2020-06-09T11:16:36Z</time>
      </trkpt>
      <trkpt lat="48.42746" lon="-4.77981">
        <ele>33.3</ele>
        <time>2020-06-09T11:16:37Z</time>
      </trkpt>
      <trkpt lat="48.42747" lon="-4.7798">
        <ele>33.4</ele>
        <time>2020-06-09T11:16:38Z</time>
      </trkpt>
      <trkpt lat="48.42749" lon="-4.77978">
        <ele>33.3</ele>
        <time>2020-06-09T11:16:39Z</time>
      </trkpt>
      <trkpt lat="48.4275" lon="-4.77977">
        <ele>33.3</ele>
        <time>2020-06-09T11:16:40Z</time>
      </trkpt>
      <trkpt lat="48.42753" lon="-4.77974">
        <ele>33.3</ele>
        <time>2020-06-09T11:16:41Z</time>
      </trkpt>
      <trkpt lat="48.42754" lon="-4.77973">
        <ele>33.3</ele>
        <time>2020-06-09T11:16:42Z</time>
      </trkpt>
      <trkpt lat="48.42757" lon="-4.7797">
        <ele>33.3</ele>
        <time>2020-06-09T11:16:43Z</time>
      </trkpt>
      <trkpt lat="48.42759" lon="-4.77968">
        <ele>33.3</ele>
        <time>2020-06-09T11:16:44Z</time>
      </trkpt>
      <trkpt lat="48.42762" lon="-4.77966">
        <ele>33.3</ele>
        <time>2020-06-09T11:16:45Z</time>
      </trkpt>
      <trkpt lat="48.42766" lon="-4.77963">
        <ele>33.3</ele>
        <time>2020-06-09T11:16:46Z</time>
      </trkpt>
      <trkpt lat="48.4277" lon="-4.7796">
        <ele>33.3</ele>
        <time>2020-06-09T11:16:47Z</time>
      </trkpt>
      <trkpt lat="48.42773" lon="-4.77957">
        <ele>33.3</ele>
        <time>2020-06-09T11:16:48Z</time>
      </trkpt>
      <trkpt lat="48.42776" lon="-4.77956">
        <ele>33.3</ele>
        <time>2020-06-09T11:16:49Z</time>
      </trkpt>
      <trkpt lat="48.4278" lon="-4.77954">
        <ele>33.3</ele>
        <time>2020-06-09T11:16:50Z</time>
      </trkpt>
      <trkpt lat="48.42784" lon="-4.77951">
        <ele>33.3</ele>
        <time>2020-06-09T11:16:51Z</time>
      </trkpt>
      <trkpt lat="48.42787" lon="-4.77949">
        <ele>33.3</ele>
        <time>2020-06-09T11:16:52Z</time>
      </trkpt>
      <trkpt lat="48.42791" lon="-4.77947">
        <ele>33.3</ele>
        <time>2020-06-09T11:16:53Z</time>
      </trkpt>
      <trkpt lat="48.42794" lon="-4.77945">
        <ele>33.3</ele>
        <time>2020-06-09T11:16:54Z</time>
      </trkpt>
      <trkpt lat="48.42797" lon="-4.77944">
        <ele>33.4</ele>
        <time>2020-06-09T11:16:55Z</time>
      </trkpt>
      <trkpt lat="48.428" lon="-4.77944">
        <ele>33.4</ele>
        <time>2020-06-09T11:16:56Z</time>
      </trkpt>
      <trkpt lat="48.42803" lon="-4.77944">
        <ele>33.4</ele>
        <time>2020-06-09T11:16:57Z</time>
      </trkpt>
      <trkpt lat="48.42807" lon="-4.77944">
        <ele>33.4</ele>
        <time>2020-06-09T11:16:58Z</time>
      </trkpt>
      <trkpt lat="48.42811" lon="-4.77943">
        <ele>33.4</ele>
        <time>2020-06-09T11:16:59Z</time>
      </trkpt>
      <trkpt lat="48.42815" lon="-4.77943">
        <ele>33.4</ele>
        <time>2020-06-09T11:17:00Z</time>
      </trkpt>
      <trkpt lat="48.42818" lon="-4.77941">
        <ele>33.4</ele>
        <time>2020-06-09T11:17:01Z</time>
      </trkpt>
      <trkpt lat="48.42821" lon="-4.7794">
        <ele>33.4</ele>
        <time>2020-06-09T11:17:02Z</time>
      </trkpt>
      <trkpt lat="48.42824" lon="-4.77938">
        <ele>33.4</ele>
        <time>2020-06-09T11:17:04Z</time>
      </trkpt>
      <trkpt lat="48.42826" lon="-4.77937">
        <ele>33.4</ele>
        <time>2020-06-09T11:17:05Z</time>
      </trkpt>
      <trkpt lat="48.42829" lon="-4.77937">
        <ele>33.4</ele>
        <time>2020-06-09T11:17:06Z</time>
      </trkpt>
      <trkpt lat="48.42831" lon="-4.77937">
        <ele>33.4</ele>
        <time>2020-06-09T11:17:07Z</time>
      </trkpt>
      <trkpt lat="48.42834" lon="-4.77938">
        <ele>33.4</ele>
        <time>2020-06-09T11:17:08Z</time>
      </trkpt>
      <trkpt lat="48.42836" lon="-4.77938">
        <ele>33.4</ele>
        <time>2020-06-09T11:17:09Z</time>
      </trkpt>
      <trkpt lat="48.4284" lon="-4.77937">
        <ele>33.5</ele>
        <time>2020-06-09T11:17:10Z</time>
      </trkpt>
      <trkpt lat="48.42842" lon="-4.77937">
        <ele>33.5</ele>
        <time>2020-06-09T11:17:11Z</time>
      </trkpt>
      <trkpt lat="48.42845" lon="-4.77936">
        <ele>33.5</ele>
        <time>2020-06-09T11:17:12Z</time>
      </trkpt>
      <trkpt lat="48.42849" lon="-4.77936">
        <ele>33.5</ele>
        <time>2020-06-09T11:17:13Z</time>
      </trkpt>
      <trkpt lat="48.42852" lon="-4.77935">
        <ele>33.5</ele>
        <time>2020-06-09T11:17:14Z</time>
      </trkpt>
      <trkpt lat="48.42855" lon="-4.77935">
        <ele>33.4</ele>
        <time>2020-06-09T11:17:15Z</time>
      </trkpt>
      <trkpt lat="48.42859" lon="-4.77933">
        <ele>33.4</ele>
        <time>2020-06-09T11:17:16Z</time>
      </trkpt>
      <trkpt lat="48.4286" lon="-4.77932">
        <ele>33.4</ele>
        <time>2020-06-09T11:17:17Z</time>
      </trkpt>
      <trkpt lat="48.42863" lon="-4.77932">
        <ele>33.4</ele>
        <time>2020-06-09T11:17:18Z</time>
      </trkpt>
      <trkpt lat="48.42866" lon="-4.77932">
        <ele>33.3</ele>
        <time>2020-06-09T11:17:19Z</time>
      </trkpt>
      <trkpt lat="48.42869" lon="-4.77931">
        <ele>33.2</ele>
        <time>2020-06-09T11:17:20Z</time>
      </trkpt>
      <trkpt lat="48.42872" lon="-4.77933">
        <ele>32.9</ele>
        <time>2020-06-09T11:17:21Z</time>
      </trkpt>
      <trkpt lat="48.42873" lon="-4.77934">
        <ele>32.8</ele>
        <time>2020-06-09T11:17:22Z</time>
      </trkpt>
      <trkpt lat="48.42875" lon="-4.77937">
        <ele>32.4</ele>
        <time>2020-06-09T11:17:23Z</time>
      </trkpt>
      <trkpt lat="48.42877" lon="-4.77942">
        <ele>32</ele>
        <time>2020-06-09T11:17:24Z</time>
      </trkpt>
      <trkpt lat="48.42879" lon="-4.77948">
        <ele>31.6</ele>
        <time>2020-06-09T11:17:25Z</time>
      </trkpt>
      <trkpt lat="48.4288" lon="-4.77954">
        <ele>31.1</ele>
        <time>2020-06-09T11:17:26Z</time>
      </trkpt>
      <trkpt lat="48.42882" lon="-4.77961">
        <ele>30.4</ele>
        <time>2020-06-09T11:17:27Z</time>
      </trkpt>
      <trkpt lat="48.42884" lon="-4.77969">
        <ele>29.7</ele>
        <time>2020-06-09T11:17:28Z</time>
      </trkpt>
      <trkpt lat="48.42886" lon="-4.77978">
        <ele>28.9</ele>
        <time>2020-06-09T11:17:29Z</time>
      </trkpt>
      <trkpt lat="48.42889" lon="-4.77987">
        <ele>28.1</ele>
        <time>2020-06-09T11:17:30Z</time>
      </trkpt>
      <trkpt lat="48.42892" lon="-4.77999">
        <ele>27.2</ele>
        <time>2020-06-09T11:17:31Z</time>
      </trkpt>
      <trkpt lat="48.42896" lon="-4.78011">
        <ele>26.2</ele>
        <time>2020-06-09T11:17:32Z</time>
      </trkpt>
      <trkpt lat="48.429" lon="-4.78023">
        <ele>25.2</ele>
        <time>2020-06-09T11:17:33Z</time>
      </trkpt>
      <trkpt lat="48.42905" lon="-4.78036">
        <ele>24.2</ele>
        <time>2020-06-09T11:17:34Z</time>
      </trkpt>
      <trkpt lat="48.4291" lon="-4.78049">
        <ele>23.3</ele>
        <time>2020-06-09T11:17:35Z</time>
      </trkpt>
      <trkpt lat="48.42914" lon="-4.78063">
        <ele>22.4</ele>
        <time>2020-06-09T11:17:36Z</time>
      </trkpt>
      <trkpt lat="48.42919" lon="-4.78076">
        <ele>21.8</ele>
        <time>2020-06-09T11:17:37Z</time>
      </trkpt>
      <trkpt lat="48.42924" lon="-4.78089">
        <ele>21.2</ele>
        <time>2020-06-09T11:17:38Z</time>
      </trkpt>
      <trkpt lat="48.42928" lon="-4.781">
        <ele>21.6</ele>
        <time>2020-06-09T11:17:39Z</time>
      </trkpt>
      <trkpt lat="48.42931" lon="-4.78112">
        <ele>20.9</ele>
        <time>2020-06-09T11:17:40Z</time>
      </trkpt>
      <trkpt lat="48.42935" lon="-4.78123">
        <ele>20.2</ele>
        <time>2020-06-09T11:17:41Z</time>
      </trkpt>
      <trkpt lat="48.42937" lon="-4.78135">
        <ele>19.6</ele>
        <time>2020-06-09T11:17:42Z</time>
      </trkpt>
      <trkpt lat="48.4294" lon="-4.78147">
        <ele>18.9</ele>
        <time>2020-06-09T11:17:43Z</time>
      </trkpt>
      <trkpt lat="48.42942" lon="-4.78159">
        <ele>18.1</ele>
        <time>2020-06-09T11:17:44Z</time>
      </trkpt>
      <trkpt lat="48.42944" lon="-4.78171">
        <ele>17.4</ele>
        <time>2020-06-09T11:17:45Z</time>
      </trkpt>
      <trkpt lat="48.42947" lon="-4.78183">
        <ele>16.6</ele>
        <time>2020-06-09T11:17:46Z</time>
      </trkpt>
      <trkpt lat="48.4295" lon="-4.78195">
        <ele>15.7</ele>
        <time>2020-06-09T11:17:47Z</time>
      </trkpt>
      <trkpt lat="48.42953" lon="-4.78207">
        <ele>14.7</ele>
        <time>2020-06-09T11:17:48Z</time>
      </trkpt>
      <trkpt lat="48.42956" lon="-4.7822">
        <ele>13.7</ele>
        <time>2020-06-09T11:17:49Z</time>
      </trkpt>
      <trkpt lat="48.4296" lon="-4.78232">
        <ele>12.7</ele>
        <time>2020-06-09T11:17:50Z</time>
      </trkpt>
      <trkpt lat="48.42964" lon="-4.78245">
        <ele>11.6</ele>
        <time>2020-06-09T11:17:51Z</time>
      </trkpt>
      <trkpt lat="48.42968" lon="-4.78257">
        <ele>10.6</ele>
        <time>2020-06-09T11:17:52Z</time>
      </trkpt>
      <trkpt lat="48.42972" lon="-4.78269">
        <ele>9.6</ele>
        <time>2020-06-09T11:17:53Z</time>
      </trkpt>
      <trkpt lat="48.42976" lon="-4.78281">
        <ele>8.6</ele>
        <time>2020-06-09T11:17:54Z</time>
      </trkpt>
      <trkpt lat="48.42981" lon="-4.78293">
        <ele>7.7</ele>
        <time>2020-06-09T11:17:55Z</time>
      </trkpt>
      <trkpt lat="48.42987" lon="-4.78305">
        <ele>7</ele>
        <time>2020-06-09T11:17:56Z</time>
      </trkpt>
      <trkpt lat="48.42994" lon="-4.78315">
        <ele>6.5</ele>
        <time>2020-06-09T11:17:57Z</time>
      </trkpt>
      <trkpt lat="48.43002" lon="-4.78323">
        <ele>6.2</ele>
        <time>2020-06-09T11:17:58Z</time>
      </trkpt>
      <trkpt lat="48.4301" lon="-4.7833">
        <ele>6.2</ele>
        <time>2020-06-09T11:17:59Z</time>
      </trkpt>
      <trkpt lat="48.43019" lon="-4.78336">
        <ele>6.3</ele>
        <time>2020-06-09T11:18:00Z</time>
      </trkpt>
      <trkpt lat="48.43026" lon="-4.78342">
        <ele>6.5</ele>
        <time>2020-06-09T11:18:01Z</time>
      </trkpt>
      <trkpt lat="48.43034" lon="-4.78344">
        <ele>6.8</ele>
        <time>2020-06-09T11:18:02Z</time>
      </trkpt>
      <trkpt lat="48.4304" lon="-4.78346">
        <ele>7</ele>
        <time>2020-06-09T11:18:03Z</time>
      </trkpt>
      <trkpt lat="48.43051" lon="-4.78351">
        <ele>7.6</ele>
        <time>2020-06-09T11:18:04Z</time>
      </trkpt>
      <trkpt lat="48.43056" lon="-4.78354">
        <ele>7.8</ele>
        <time>2020-06-09T11:18:05Z</time>
      </trkpt>
      <trkpt lat="48.43061" lon="-4.78358">
        <ele>8</ele>
        <time>2020-06-09T11:18:06Z</time>
      </trkpt>
      <trkpt lat="48.43066" lon="-4.7836">
        <ele>8.2</ele>
        <time>2020-06-09T11:18:07Z</time>
      </trkpt>
      <trkpt lat="48.43071" lon="-4.78362">
        <ele>8.4</ele>
        <time>2020-06-09T11:18:08Z</time>
      </trkpt>
      <trkpt lat="48.43076" lon="-4.78363">
        <ele>8.7</ele>
        <time>2020-06-09T11:18:09Z</time>
      </trkpt>
      <trkpt lat="48.43081" lon="-4.78364">
        <ele>8.9</ele>
        <time>2020-06-09T11:18:10Z</time>
      </trkpt>
      <trkpt lat="48.43086" lon="-4.78365">
        <ele>9.2</ele>
        <time>2020-06-09T11:18:11Z</time>
      </trkpt>
      <trkpt lat="48.4309" lon="-4.78367">
        <ele>9.4</ele>
        <time>2020-06-09T11:18:12Z</time>
      </trkpt>
      <trkpt lat="48.43095" lon="-4.78368">
        <ele>9.6</ele>
        <time>2020-06-09T11:18:13Z</time>
      </trkpt>
      <trkpt lat="48.43099" lon="-4.78369">
        <ele>9.8</ele>
        <time>2020-06-09T11:18:14Z</time>
      </trkpt>
      <trkpt lat="48.43103" lon="-4.7837">
        <ele>10.1</ele>
        <time>2020-06-09T11:18:15Z</time>
      </trkpt>
      <trkpt lat="48.43106" lon="-4.7837">
        <ele>10.3</ele>
        <time>2020-06-09T11:18:16Z</time>
      </trkpt>
      <trkpt lat="48.4311" lon="-4.7837">
        <ele>10.4</ele>
        <time>2020-06-09T11:18:17Z</time>
      </trkpt>
      <trkpt lat="48.43113" lon="-4.7837">
        <ele>10.6</ele>
        <time>2020-06-09T11:18:18Z</time>
      </trkpt>
      <trkpt lat="48.43116" lon="-4.78369">
        <ele>10.8</ele>
        <time>2020-06-09T11:18:19Z</time>
      </trkpt>
      <trkpt lat="48.4312" lon="-4.78369">
        <ele>11</ele>
        <time>2020-06-09T11:18:20Z</time>
      </trkpt>
      <trkpt lat="48.43123" lon="-4.78368">
        <ele>11.2</ele>
        <time>2020-06-09T11:18:21Z</time>
      </trkpt>
      <trkpt lat="48.43127" lon="-4.78368">
        <ele>11.4</ele>
        <time>2020-06-09T11:18:22Z</time>
      </trkpt>
      <trkpt lat="48.4313" lon="-4.78369">
        <ele>11.5</ele>
        <time>2020-06-09T11:18:23Z</time>
      </trkpt>
      <trkpt lat="48.43133" lon="-4.7837">
        <ele>11.7</ele>
        <time>2020-06-09T11:18:24Z</time>
      </trkpt>
      <trkpt lat="48.43137" lon="-4.7837">
        <ele>11.8</ele>
        <time>2020-06-09T11:18:25Z</time>
      </trkpt>
      <trkpt lat="48.43138" lon="-4.7837">
        <ele>11.9</ele>
        <time>2020-06-09T11:18:26Z</time>
      </trkpt>
      <trkpt lat="48.43141" lon="-4.7837">
        <ele>12</ele>
        <time>2020-06-09T11:18:27Z</time>
      </trkpt>
      <trkpt lat="48.43144" lon="-4.7837">
        <ele>12.1</ele>
        <time>2020-06-09T11:18:28Z</time>
      </trkpt>
      <trkpt lat="48.43147" lon="-4.7837">
        <ele>12.2</ele>
        <time>2020-06-09T11:18:29Z</time>
      </trkpt>
      <trkpt lat="48.4315" lon="-4.78371">
        <ele>12.2</ele>
        <time>2020-06-09T11:18:30Z</time>
      </trkpt>
      <trkpt lat="48.43153" lon="-4.78372">
        <ele>12.3</ele>
        <time>2020-06-09T11:18:31Z</time>
      </trkpt>
      <trkpt lat="48.43156" lon="-4.78374">
        <ele>12.4</ele>
        <time>2020-06-09T11:18:32Z</time>
      </trkpt>
      <trkpt lat="48.4316" lon="-4.78375">
        <ele>12.5</ele>
        <time>2020-06-09T11:18:33Z</time>
      </trkpt>
      <trkpt lat="48.43163" lon="-4.78375">
        <ele>12.6</ele>
        <time>2020-06-09T11:18:34Z</time>
      </trkpt>
      <trkpt lat="48.43167" lon="-4.78375">
        <ele>12.6</ele>
        <time>2020-06-09T11:18:35Z</time>
      </trkpt>
      <trkpt lat="48.43171" lon="-4.78377">
        <ele>12.7</ele>
        <time>2020-06-09T11:18:36Z</time>
      </trkpt>
      <trkpt lat="48.43174" lon="-4.78377">
        <ele>12.7</ele>
        <time>2020-06-09T11:18:37Z</time>
      </trkpt>
      <trkpt lat="48.43178" lon="-4.78377">
        <ele>12.8</ele>
        <time>2020-06-09T11:18:38Z</time>
      </trkpt>
      <trkpt lat="48.43182" lon="-4.78377">
        <ele>12.8</ele>
        <time>2020-06-09T11:18:39Z</time>
      </trkpt>
      <trkpt lat="48.43186" lon="-4.78377">
        <ele>12.9</ele>
        <time>2020-06-09T11:18:40Z</time>
      </trkpt>
      <trkpt lat="48.4319" lon="-4.78376">
        <ele>12.9</ele>
        <time>2020-06-09T11:18:41Z</time>
      </trkpt>
      <trkpt lat="48.43194" lon="-4.78377">
        <ele>12.9</ele>
        <time>2020-06-09T11:18:42Z</time>
      </trkpt>
      <trkpt lat="48.43198" lon="-4.78377">
        <ele>12.9</ele>
        <time>2020-06-09T11:18:43Z</time>
      </trkpt>
      <trkpt lat="48.43202" lon="-4.78377">
        <ele>12.9</ele>
        <time>2020-06-09T11:18:44Z</time>
      </trkpt>
      <trkpt lat="48.43207" lon="-4.78377">
        <ele>12.9</ele>
        <time>2020-06-09T11:18:45Z</time>
      </trkpt>
      <trkpt lat="48.43212" lon="-4.78377">
        <ele>13</ele>
        <time>2020-06-09T11:18:46Z</time>
      </trkpt>
      <trkpt lat="48.43216" lon="-4.78377">
        <ele>13.1</ele>
        <time>2020-06-09T11:18:47Z</time>
      </trkpt>
      <trkpt lat="48.43221" lon="-4.78378">
        <ele>13.1</ele>
        <time>2020-06-09T11:18:48Z</time>
      </trkpt>
      <trkpt lat="48.43225" lon="-4.78379">
        <ele>13.2</ele>
        <time>2020-06-09T11:18:49Z</time>
      </trkpt>
      <trkpt lat="48.4323" lon="-4.7838">
        <ele>13.3</ele>
        <time>2020-06-09T11:18:50Z</time>
      </trkpt>
      <trkpt lat="48.43234" lon="-4.78381">
        <ele>13.4</ele>
        <time>2020-06-09T11:18:51Z</time>
      </trkpt>
      <trkpt lat="48.43238" lon="-4.78383">
        <ele>13.4</ele>
        <time>2020-06-09T11:18:52Z</time>
      </trkpt>
      <trkpt lat="48.43242" lon="-4.78385">
        <ele>13.5</ele>
        <time>2020-06-09T11:18:53Z</time>
      </trkpt>
      <trkpt lat="48.43246" lon="-4.78387">
        <ele>13.6</ele>
        <time>2020-06-09T11:18:54Z</time>
      </trkpt>
      <trkpt lat="48.43249" lon="-4.78389">
        <ele>13.7</ele>
        <time>2020-06-09T11:18:55Z</time>
      </trkpt>
      <trkpt lat="48.43253" lon="-4.78391">
        <ele>13.8</ele>
        <time>2020-06-09T11:18:56Z</time>
      </trkpt>
      <trkpt lat="48.43257" lon="-4.78393">
        <ele>13.9</ele>
        <time>2020-06-09T11:18:57Z</time>
      </trkpt>
      <trkpt lat="48.4326" lon="-4.78396">
        <ele>14</ele>
        <time>2020-06-09T11:18:58Z</time>
      </trkpt>
      <trkpt lat="48.43264" lon="-4.78397">
        <ele>14.1</ele>
        <time>2020-06-09T11:18:59Z</time>
      </trkpt>
      <trkpt lat="48.43267" lon="-4.78399">
        <ele>14.2</ele>
        <time>2020-06-09T11:19:00Z</time>
      </trkpt>
      <trkpt lat="48.4327" lon="-4.78401">
        <ele>14.3</ele>
        <time>2020-06-09T11:19:01Z</time>
      </trkpt>
      <trkpt lat="48.43273" lon="-4.78404">
        <ele>14.4</ele>
        <time>2020-06-09T11:19:02Z</time>
      </trkpt>
      <trkpt lat="48.43276" lon="-4.78406">
        <ele>14.5</ele>
        <time>2020-06-09T11:19:03Z</time>
      </trkpt>
      <trkpt lat="48.43279" lon="-4.78408">
        <ele>14.6</ele>
        <time>2020-06-09T11:19:04Z</time>
      </trkpt>
      <trkpt lat="48.43282" lon="-4.78411">
        <ele>14.7</ele>
        <time>2020-06-09T11:19:05Z</time>
      </trkpt>
      <trkpt lat="48.43285" lon="-4.78412">
        <ele>14.7</ele>
        <time>2020-06-09T11:19:06Z</time>
      </trkpt>
      <trkpt lat="48.43288" lon="-4.78414">
        <ele>14.8</ele>
        <time>2020-06-09T11:19:07Z</time>
      </trkpt>
      <trkpt lat="48.43292" lon="-4.78416">
        <ele>14.9</ele>
        <time>2020-06-09T11:19:08Z</time>
      </trkpt>
      <trkpt lat="48.43294" lon="-4.78419">
        <ele>14.9</ele>
        <time>2020-06-09T11:19:09Z</time>
      </trkpt>
      <trkpt lat="48.43297" lon="-4.78421">
        <ele>15</ele>
        <time>2020-06-09T11:19:10Z</time>
      </trkpt>
      <trkpt lat="48.433" lon="-4.78424">
        <ele>15</ele>
        <time>2020-06-09T11:19:11Z</time>
      </trkpt>
      <trkpt lat="48.43303" lon="-4.78425">
        <ele>15</ele>
        <time>2020-06-09T11:19:12Z</time>
      </trkpt>
      <trkpt lat="48.43306" lon="-4.78427">
        <ele>15</ele>
        <time>2020-06-09T11:19:13Z</time>
      </trkpt>
      <trkpt lat="48.43309" lon="-4.78429">
        <ele>15</ele>
        <time>2020-06-09T11:19:14Z</time>
      </trkpt>
      <trkpt lat="48.43312" lon="-4.78431">
        <ele>15</ele>
        <time>2020-06-09T11:19:15Z</time>
      </trkpt>
      <trkpt lat="48.43315" lon="-4.78433">
        <ele>15</ele>
        <time>2020-06-09T11:19:16Z</time>
      </trkpt>
      <trkpt lat="48.43318" lon="-4.78434">
        <ele>15</ele>
        <time>2020-06-09T11:19:17Z</time>
      </trkpt>
      <trkpt lat="48.43321" lon="-4.78436">
        <ele>15</ele>
        <time>2020-06-09T11:19:18Z</time>
      </trkpt>
      <trkpt lat="48.43324" lon="-4.78438">
        <ele>15</ele>
        <time>2020-06-09T11:19:19Z</time>
      </trkpt>
      <trkpt lat="48.43326" lon="-4.78441">
        <ele>15</ele>
        <time>2020-06-09T11:19:20Z</time>
      </trkpt>
      <trkpt lat="48.43329" lon="-4.78444">
        <ele>14.9</ele>
        <time>2020-06-09T11:19:21Z</time>
      </trkpt>
      <trkpt lat="48.43331" lon="-4.78447">
        <ele>14.9</ele>
        <time>2020-06-09T11:19:22Z</time>
      </trkpt>
      <trkpt lat="48.43333" lon="-4.78449">
        <ele>14.8</ele>
        <time>2020-06-09T11:19:23Z</time>
      </trkpt>
      <trkpt lat="48.43336" lon="-4.78451">
        <ele>14.8</ele>
        <time>2020-06-09T11:19:24Z</time>
      </trkpt>
      <trkpt lat="48.43339" lon="-4.78453">
        <ele>14.7</ele>
        <time>2020-06-09T11:19:25Z</time>
      </trkpt>
      <trkpt lat="48.43342" lon="-4.78456">
        <ele>14.6</ele>
        <time>2020-06-09T11:19:26Z</time>
      </trkpt>
      <trkpt lat="48.43345" lon="-4.78459">
        <ele>14.5</ele>
        <time>2020-06-09T11:19:27Z</time>
      </trkpt>
      <trkpt lat="48.43348" lon="-4.78462">
        <ele>14.4</ele>
        <time>2020-06-09T11:19:28Z</time>
      </trkpt>
      <trkpt lat="48.43352" lon="-4.78465">
        <ele>14.3</ele>
        <time>2020-06-09T11:19:29Z</time>
      </trkpt>
      <trkpt lat="48.43356" lon="-4.78468">
        <ele>14.1</ele>
        <time>2020-06-09T11:19:30Z</time>
      </trkpt>
      <trkpt lat="48.43361" lon="-4.78471">
        <ele>13.9</ele>
        <time>2020-06-09T11:19:31Z</time>
      </trkpt>
      <trkpt lat="48.43366" lon="-4.78474">
        <ele>13.8</ele>
        <time>2020-06-09T11:19:32Z</time>
      </trkpt>
      <trkpt lat="48.43371" lon="-4.78477">
        <ele>13.6</ele>
        <time>2020-06-09T11:19:33Z</time>
      </trkpt>
      <trkpt lat="48.43376" lon="-4.78481">
        <ele>13.4</ele>
        <time>2020-06-09T11:19:34Z</time>
      </trkpt>
      <trkpt lat="48.43382" lon="-4.78484">
        <ele>13.2</ele>
        <time>2020-06-09T11:19:35Z</time>
      </trkpt>
      <trkpt lat="48.43387" lon="-4.78488">
        <ele>13.1</ele>
        <time>2020-06-09T11:19:36Z</time>
      </trkpt>
      <trkpt lat="48.43392" lon="-4.78491">
        <ele>13.1</ele>
        <time>2020-06-09T11:19:37Z</time>
      </trkpt>
      <trkpt lat="48.43396" lon="-4.78494">
        <ele>13.2</ele>
        <time>2020-06-09T11:19:38Z</time>
      </trkpt>
      <trkpt lat="48.43399" lon="-4.78495">
        <ele>13.3</ele>
        <time>2020-06-09T11:19:39Z</time>
      </trkpt>
      <trkpt lat="48.43403" lon="-4.78497">
        <ele>13.4</ele>
        <time>2020-06-09T11:19:40Z</time>
      </trkpt>
      <trkpt lat="48.43406" lon="-4.78499">
        <ele>13.5</ele>
        <time>2020-06-09T11:19:41Z</time>
      </trkpt>
      <trkpt lat="48.43408" lon="-4.78502">
        <ele>13.6</ele>
        <time>2020-06-09T11:19:42Z</time>
      </trkpt>
      <trkpt lat="48.43411" lon="-4.78505">
        <ele>13.8</ele>
        <time>2020-06-09T11:19:43Z</time>
      </trkpt>
      <trkpt lat="48.43414" lon="-4.78508">
        <ele>13.9</ele>
        <time>2020-06-09T11:19:44Z</time>
      </trkpt>
      <trkpt lat="48.43416" lon="-4.7851">
        <ele>13.9</ele>
        <time>2020-06-09T11:19:45Z</time>
      </trkpt>
      <trkpt lat="48.43419" lon="-4.78511">
        <ele>14</ele>
        <time>2020-06-09T11:19:46Z</time>
      </trkpt>
      <trkpt lat="48.43422" lon="-4.78513">
        <ele>14.1</ele>
        <time>2020-06-09T11:19:47Z</time>
      </trkpt>
      <trkpt lat="48.43425" lon="-4.78515">
        <ele>14.2</ele>
        <time>2020-06-09T11:19:48Z</time>
      </trkpt>
      <trkpt lat="48.43427" lon="-4.78517">
        <ele>14.3</ele>
        <time>2020-06-09T11:19:49Z</time>
      </trkpt>
      <trkpt lat="48.4343" lon="-4.78518">
        <ele>14.3</ele>
        <time>2020-06-09T11:19:50Z</time>
      </trkpt>
      <trkpt lat="48.43433" lon="-4.78519">
        <ele>14.4</ele>
        <time>2020-06-09T11:19:51Z</time>
      </trkpt>
      <trkpt lat="48.43436" lon="-4.78519">
        <ele>14.5</ele>
        <time>2020-06-09T11:19:52Z</time>
      </trkpt>
      <trkpt lat="48.43439" lon="-4.78519">
        <ele>14.5</ele>
        <time>2020-06-09T11:19:53Z</time>
      </trkpt>
      <trkpt lat="48.43442" lon="-4.78519">
        <ele>14.6</ele>
        <time>2020-06-09T11:19:54Z</time>
      </trkpt>
      <trkpt lat="48.43444" lon="-4.7852">
        <ele>14.6</ele>
        <time>2020-06-09T11:19:55Z</time>
      </trkpt>
      <trkpt lat="48.43447" lon="-4.7852">
        <ele>14.6</ele>
        <time>2020-06-09T11:19:56Z</time>
      </trkpt>
      <trkpt lat="48.4345" lon="-4.7852">
        <ele>14.7</ele>
        <time>2020-06-09T11:19:57Z</time>
      </trkpt>
      <trkpt lat="48.43453" lon="-4.7852">
        <ele>14.7</ele>
        <time>2020-06-09T11:19:58Z</time>
      </trkpt>
      <trkpt lat="48.43456" lon="-4.78519">
        <ele>14.7</ele>
        <time>2020-06-09T11:19:59Z</time>
      </trkpt>
      <trkpt lat="48.43459" lon="-4.78519">
        <ele>14.7</ele>
        <time>2020-06-09T11:20:00Z</time>
      </trkpt>
      <trkpt lat="48.43463" lon="-4.7852">
        <ele>14.7</ele>
        <time>2020-06-09T11:20:01Z</time>
      </trkpt>
      <trkpt lat="48.43466" lon="-4.78519">
        <ele>14.7</ele>
        <time>2020-06-09T11:20:02Z</time>
      </trkpt>
      <trkpt lat="48.43469" lon="-4.78519">
        <ele>14.7</ele>
        <time>2020-06-09T11:20:03Z</time>
      </trkpt>
      <trkpt lat="48.43472" lon="-4.78517">
        <ele>14.8</ele>
        <time>2020-06-09T11:20:04Z</time>
      </trkpt>
      <trkpt lat="48.43475" lon="-4.78516">
        <ele>14.8</ele>
        <time>2020-06-09T11:20:05Z</time>
      </trkpt>
      <trkpt lat="48.43478" lon="-4.78515">
        <ele>14.8</ele>
        <time>2020-06-09T11:20:06Z</time>
      </trkpt>
      <trkpt lat="48.43482" lon="-4.78513">
        <ele>14.8</ele>
        <time>2020-06-09T11:20:07Z</time>
      </trkpt>
      <trkpt lat="48.43485" lon="-4.78512">
        <ele>14.8</ele>
        <time>2020-06-09T11:20:08Z</time>
      </trkpt>
      <trkpt lat="48.43489" lon="-4.78511">
        <ele>14.8</ele>
        <time>2020-06-09T11:20:09Z</time>
      </trkpt>
      <trkpt lat="48.43492" lon="-4.78508">
        <ele>14.8</ele>
        <time>2020-06-09T11:20:10Z</time>
      </trkpt>
      <trkpt lat="48.43496" lon="-4.78506">
        <ele>14.8</ele>
        <time>2020-06-09T11:20:11Z</time>
      </trkpt>
      <trkpt lat="48.43499" lon="-4.78504">
        <ele>14.8</ele>
        <time>2020-06-09T11:20:12Z</time>
      </trkpt>
      <trkpt lat="48.43502" lon="-4.78501">
        <ele>14.7</ele>
        <time>2020-06-09T11:20:13Z</time>
      </trkpt>
      <trkpt lat="48.43506" lon="-4.78498">
        <ele>14.7</ele>
        <time>2020-06-09T11:20:14Z</time>
      </trkpt>
      <trkpt lat="48.43509" lon="-4.78496">
        <ele>14.7</ele>
        <time>2020-06-09T11:20:15Z</time>
      </trkpt>
      <trkpt lat="48.43512" lon="-4.78493">
        <ele>14.6</ele>
        <time>2020-06-09T11:20:16Z</time>
      </trkpt>
      <trkpt lat="48.43516" lon="-4.7849">
        <ele>14.6</ele>
        <time>2020-06-09T11:20:17Z</time>
      </trkpt>
      <trkpt lat="48.43519" lon="-4.78487">
        <ele>14.5</ele>
        <time>2020-06-09T11:20:18Z</time>
      </trkpt>
      <trkpt lat="48.43522" lon="-4.78484">
        <ele>14.5</ele>
        <time>2020-06-09T11:20:19Z</time>
      </trkpt>
      <trkpt lat="48.43525" lon="-4.78481">
        <ele>14.4</ele>
        <time>2020-06-09T11:20:20Z</time>
      </trkpt>
      <trkpt lat="48.43529" lon="-4.78478">
        <ele>14.3</ele>
        <time>2020-06-09T11:20:21Z</time>
      </trkpt>
      <trkpt lat="48.43532" lon="-4.78475">
        <ele>14.2</ele>
        <time>2020-06-09T11:20:22Z</time>
      </trkpt>
      <trkpt lat="48.43536" lon="-4.78472">
        <ele>14.2</ele>
        <time>2020-06-09T11:20:23Z</time>
      </trkpt>
      <trkpt lat="48.4354" lon="-4.7847">
        <ele>14.1</ele>
        <time>2020-06-09T11:20:24Z</time>
      </trkpt>
      <trkpt lat="48.43543" lon="-4.78468">
        <ele>14.1</ele>
        <time>2020-06-09T11:20:25Z</time>
      </trkpt>
      <trkpt lat="48.43547" lon="-4.78466">
        <ele>14</ele>
        <time>2020-06-09T11:20:26Z</time>
      </trkpt>
      <trkpt lat="48.43551" lon="-4.78463">
        <ele>13.9</ele>
        <time>2020-06-09T11:20:27Z</time>
      </trkpt>
      <trkpt lat="48.43554" lon="-4.7846">
        <ele>13.8</ele>
        <time>2020-06-09T11:20:28Z</time>
      </trkpt>
      <trkpt lat="48.43558" lon="-4.78456">
        <ele>13.7</ele>
        <time>2020-06-09T11:20:29Z</time>
      </trkpt>
      <trkpt lat="48.43561" lon="-4.78451">
        <ele>13.7</ele>
        <time>2020-06-09T11:20:30Z</time>
      </trkpt>
      <trkpt lat="48.43566" lon="-4.78449">
        <ele>13.6</ele>
        <time>2020-06-09T11:20:31Z</time>
      </trkpt>
      <trkpt lat="48.4357" lon="-4.78445">
        <ele>13.6</ele>
        <time>2020-06-09T11:20:32Z</time>
      </trkpt>
      <trkpt lat="48.43573" lon="-4.78442">
        <ele>13.6</ele>
        <time>2020-06-09T11:20:33Z</time>
      </trkpt>
      <trkpt lat="48.43577" lon="-4.78439">
        <ele>13.6</ele>
        <time>2020-06-09T11:20:34Z</time>
      </trkpt>
      <trkpt lat="48.43581" lon="-4.78436">
        <ele>13.6</ele>
        <time>2020-06-09T11:20:35Z</time>
      </trkpt>
      <trkpt lat="48.43585" lon="-4.78433">
        <ele>13.6</ele>
        <time>2020-06-09T11:20:36Z</time>
      </trkpt>
      <trkpt lat="48.43589" lon="-4.78431">
        <ele>13.7</ele>
        <time>2020-06-09T11:20:37Z</time>
      </trkpt>
      <trkpt lat="48.43592" lon="-4.78428">
        <ele>13.7</ele>
        <time>2020-06-09T11:20:38Z</time>
      </trkpt>
      <trkpt lat="48.43596" lon="-4.78427">
        <ele>13.7</ele>
        <time>2020-06-09T11:20:39Z</time>
      </trkpt>
      <trkpt lat="48.43599" lon="-4.78425">
        <ele>13.8</ele>
        <time>2020-06-09T11:20:40Z</time>
      </trkpt>
      <trkpt lat="48.43603" lon="-4.78423">
        <ele>13.8</ele>
        <time>2020-06-09T11:20:41Z</time>
      </trkpt>
      <trkpt lat="48.43606" lon="-4.7842">
        <ele>13.8</ele>
        <time>2020-06-09T11:20:42Z</time>
      </trkpt>
      <trkpt lat="48.43609" lon="-4.78418">
        <ele>13.7</ele>
        <time>2020-06-09T11:20:43Z</time>
      </trkpt>
      <trkpt lat="48.43613" lon="-4.78416">
        <ele>13.7</ele>
        <time>2020-06-09T11:20:44Z</time>
      </trkpt>
      <trkpt lat="48.43616" lon="-4.78413">
        <ele>13.7</ele>
        <time>2020-06-09T11:20:45Z</time>
      </trkpt>
      <trkpt lat="48.4362" lon="-4.78411">
        <ele>13.6</ele>
        <time>2020-06-09T11:20:46Z</time>
      </trkpt>
      <trkpt lat="48.43623" lon="-4.78409">
        <ele>13.6</ele>
        <time>2020-06-09T11:20:47Z</time>
      </trkpt>
      <trkpt lat="48.43627" lon="-4.78407">
        <ele>13.5</ele>
        <time>2020-06-09T11:20:48Z</time>
      </trkpt>
      <trkpt lat="48.4363" lon="-4.78404">
        <ele>13.4</ele>
        <time>2020-06-09T11:20:49Z</time>
      </trkpt>
      <trkpt lat="48.43634" lon="-4.784">
        <ele>13.4</ele>
        <time>2020-06-09T11:20:50Z</time>
      </trkpt>
      <trkpt lat="48.43637" lon="-4.78397">
        <ele>13.3</ele>
        <time>2020-06-09T11:20:51Z</time>
      </trkpt>
      <trkpt lat="48.43641" lon="-4.78395">
        <ele>13.3</ele>
        <time>2020-06-09T11:20:52Z</time>
      </trkpt>
      <trkpt lat="48.43644" lon="-4.78392">
        <ele>13.2</ele>
        <time>2020-06-09T11:20:53Z</time>
      </trkpt>
      <trkpt lat="48.43647" lon="-4.78389">
        <ele>13.2</ele>
        <time>2020-06-09T11:20:54Z</time>
      </trkpt>
      <trkpt lat="48.43651" lon="-4.78386">
        <ele>13.1</ele>
        <time>2020-06-09T11:20:55Z</time>
      </trkpt>
      <trkpt lat="48.43654" lon="-4.78383">
        <ele>13.1</ele>
        <time>2020-06-09T11:20:56Z</time>
      </trkpt>
      <trkpt lat="48.43657" lon="-4.78379">
        <ele>13</ele>
        <time>2020-06-09T11:20:57Z</time>
      </trkpt>
      <trkpt lat="48.4366" lon="-4.78376">
        <ele>13</ele>
        <time>2020-06-09T11:20:58Z</time>
      </trkpt>
      <trkpt lat="48.43663" lon="-4.78372">
        <ele>12.9</ele>
        <time>2020-06-09T11:20:59Z</time>
      </trkpt>
      <trkpt lat="48.43666" lon="-4.78369">
        <ele>12.9</ele>
        <time>2020-06-09T11:21:00Z</time>
      </trkpt>
      <trkpt lat="48.4367" lon="-4.78365">
        <ele>12.8</ele>
        <time>2020-06-09T11:21:01Z</time>
      </trkpt>
      <trkpt lat="48.43673" lon="-4.78362">
        <ele>12.7</ele>
        <time>2020-06-09T11:21:02Z</time>
      </trkpt>
      <trkpt lat="48.43676" lon="-4.78358">
        <ele>12.6</ele>
        <time>2020-06-09T11:21:03Z</time>
      </trkpt>
      <trkpt lat="48.43678" lon="-4.78353">
        <ele>12.6</ele>
        <time>2020-06-09T11:21:04Z</time>
      </trkpt>
      <trkpt lat="48.43678" lon="-4.78346">
        <ele>12.7</ele>
        <time>2020-06-09T11:21:05Z</time>
      </trkpt>
      <trkpt lat="48.43679" lon="-4.78341">
        <ele>12.7</ele>
        <time>2020-06-09T11:21:06Z</time>
      </trkpt>
      <trkpt lat="48.4368" lon="-4.78335">
        <ele>12.7</ele>
        <time>2020-06-09T11:21:07Z</time>
      </trkpt>
      <trkpt lat="48.43681" lon="-4.7833">
        <ele>12.7</ele>
        <time>2020-06-09T11:21:08Z</time>
      </trkpt>
      <trkpt lat="48.43682" lon="-4.78324">
        <ele>12.7</ele>
        <time>2020-06-09T11:21:09Z</time>
      </trkpt>
      <trkpt lat="48.43683" lon="-4.78318">
        <ele>12.6</ele>
        <time>2020-06-09T11:21:10Z</time>
      </trkpt>
      <trkpt lat="48.43682" lon="-4.78312">
        <ele>12.6</ele>
        <time>2020-06-09T11:21:11Z</time>
      </trkpt>
      <trkpt lat="48.43682" lon="-4.78306">
        <ele>12.6</ele>
        <time>2020-06-09T11:21:12Z</time>
      </trkpt>
      <trkpt lat="48.43682" lon="-4.783">
        <ele>12.6</ele>
        <time>2020-06-09T11:21:13Z</time>
      </trkpt>
      <trkpt lat="48.43682" lon="-4.78294">
        <ele>12.5</ele>
        <time>2020-06-09T11:21:14Z</time>
      </trkpt>
      <trkpt lat="48.43682" lon="-4.78288">
        <ele>12.5</ele>
        <time>2020-06-09T11:21:15Z</time>
      </trkpt>
      <trkpt lat="48.43683" lon="-4.78283">
        <ele>12.4</ele>
        <time>2020-06-09T11:21:16Z</time>
      </trkpt>
      <trkpt lat="48.43682" lon="-4.78277">
        <ele>12.4</ele>
        <time>2020-06-09T11:21:17Z</time>
      </trkpt>
      <trkpt lat="48.43682" lon="-4.78272">
        <ele>12.4</ele>
        <time>2020-06-09T11:21:18Z</time>
      </trkpt>
      <trkpt lat="48.43682" lon="-4.78267">
        <ele>12.3</ele>
        <time>2020-06-09T11:21:19Z</time>
      </trkpt>
      <trkpt lat="48.43683" lon="-4.78262">
        <ele>12.3</ele>
        <time>2020-06-09T11:21:20Z</time>
      </trkpt>
      <trkpt lat="48.43683" lon="-4.78256">
        <ele>12.2</ele>
        <time>2020-06-09T11:21:21Z</time>
      </trkpt>
      <trkpt lat="48.43683" lon="-4.78251">
        <ele>12.2</ele>
        <time>2020-06-09T11:21:22Z</time>
      </trkpt>
      <trkpt lat="48.43683" lon="-4.78245">
        <ele>12.2</ele>
        <time>2020-06-09T11:21:23Z</time>
      </trkpt>
      <trkpt lat="48.43683" lon="-4.78239">
        <ele>12.1</ele>
        <time>2020-06-09T11:21:24Z</time>
      </trkpt>
      <trkpt lat="48.43683" lon="-4.78233">
        <ele>12.1</ele>
        <time>2020-06-09T11:21:25Z</time>
      </trkpt>
      <trkpt lat="48.43683" lon="-4.78227">
        <ele>12</ele>
        <time>2020-06-09T11:21:26Z</time>
      </trkpt>
      <trkpt lat="48.43684" lon="-4.78221">
        <ele>12</ele>
        <time>2020-06-09T11:21:27Z</time>
      </trkpt>
      <trkpt lat="48.43684" lon="-4.78215">
        <ele>11.9</ele>
        <time>2020-06-09T11:21:28Z</time>
      </trkpt>
      <trkpt lat="48.43684" lon="-4.78208">
        <ele>11.9</ele>
        <time>2020-06-09T11:21:29Z</time>
      </trkpt>
      <trkpt lat="48.43683" lon="-4.78202">
        <ele>11.9</ele>
        <time>2020-06-09T11:21:30Z</time>
      </trkpt>
      <trkpt lat="48.43683" lon="-4.78197">
        <ele>11.8</ele>
        <time>2020-06-09T11:21:31Z</time>
      </trkpt>
      <trkpt lat="48.43683" lon="-4.78191">
        <ele>11.8</ele>
        <time>2020-06-09T11:21:32Z</time>
      </trkpt>
      <trkpt lat="48.43683" lon="-4.78185">
        <ele>11.7</ele>
        <time>2020-06-09T11:21:33Z</time>
      </trkpt>
      <trkpt lat="48.43683" lon="-4.78178">
        <ele>11.7</ele>
        <time>2020-06-09T11:21:34Z</time>
      </trkpt>
      <trkpt lat="48.43684" lon="-4.78172">
        <ele>11.6</ele>
        <time>2020-06-09T11:21:35Z</time>
      </trkpt>
      <trkpt lat="48.43684" lon="-4.78165">
        <ele>11.6</ele>
        <time>2020-06-09T11:21:36Z</time>
      </trkpt>
      <trkpt lat="48.43684" lon="-4.78159">
        <ele>11.6</ele>
        <time>2020-06-09T11:21:37Z</time>
      </trkpt>
      <trkpt lat="48.43684" lon="-4.78153">
        <ele>11.5</ele>
        <time>2020-06-09T11:21:38Z</time>
      </trkpt>
      <trkpt lat="48.43684" lon="-4.78147">
        <ele>11.5</ele>
        <time>2020-06-09T11:21:39Z</time>
      </trkpt>
      <trkpt lat="48.43684" lon="-4.78141">
        <ele>11.5</ele>
        <time>2020-06-09T11:21:40Z</time>
      </trkpt>
      <trkpt lat="48.43684" lon="-4.78135">
        <ele>11.5</ele>
        <time>2020-06-09T11:21:41Z</time>
      </trkpt>
      <trkpt lat="48.43685" lon="-4.78129">
        <ele>11.5</ele>
        <time>2020-06-09T11:21:42Z</time>
      </trkpt>
      <trkpt lat="48.43685" lon="-4.78123">
        <ele>11.4</ele>
        <time>2020-06-09T11:21:43Z</time>
      </trkpt>
      <trkpt lat="48.43684" lon="-4.78117">
        <ele>11.4</ele>
        <time>2020-06-09T11:21:44Z</time>
      </trkpt>
      <trkpt lat="48.43683" lon="-4.7811">
        <ele>11.3</ele>
        <time>2020-06-09T11:21:45Z</time>
      </trkpt>
      <trkpt lat="48.43683" lon="-4.78104">
        <ele>11.3</ele>
        <time>2020-06-09T11:21:46Z</time>
      </trkpt>
      <trkpt lat="48.43682" lon="-4.78098">
        <ele>11.2</ele>
        <time>2020-06-09T11:21:47Z</time>
      </trkpt>
      <trkpt lat="48.43682" lon="-4.78091">
        <ele>11.1</ele>
        <time>2020-06-09T11:21:48Z</time>
      </trkpt>
      <trkpt lat="48.43682" lon="-4.78085">
        <ele>11.1</ele>
        <time>2020-06-09T11:21:49Z</time>
      </trkpt>
      <trkpt lat="48.43682" lon="-4.78079">
        <ele>11</ele>
        <time>2020-06-09T11:21:50Z</time>
      </trkpt>
      <trkpt lat="48.43682" lon="-4.78073">
        <ele>11</ele>
        <time>2020-06-09T11:21:51Z</time>
      </trkpt>
      <trkpt lat="48.43682" lon="-4.78067">
        <ele>10.9</ele>
        <time>2020-06-09T11:21:52Z</time>
      </trkpt>
      <trkpt lat="48.43683" lon="-4.78061">
        <ele>10.9</ele>
        <time>2020-06-09T11:21:53Z</time>
      </trkpt>
      <trkpt lat="48.43684" lon="-4.78055">
        <ele>10.8</ele>
        <time>2020-06-09T11:21:54Z</time>
      </trkpt>
      <trkpt lat="48.43685" lon="-4.78049">
        <ele>10.8</ele>
        <time>2020-06-09T11:21:55Z</time>
      </trkpt>
      <trkpt lat="48.43686" lon="-4.78044">
        <ele>10.7</ele>
        <time>2020-06-09T11:21:56Z</time>
      </trkpt>
      <trkpt lat="48.43688" lon="-4.78039">
        <ele>10.7</ele>
        <time>2020-06-09T11:21:57Z</time>
      </trkpt>
      <trkpt lat="48.4369" lon="-4.78035">
        <ele>10.6</ele>
        <time>2020-06-09T11:21:58Z</time>
      </trkpt>
      <trkpt lat="48.43693" lon="-4.7803">
        <ele>10.6</ele>
        <time>2020-06-09T11:21:59Z</time>
      </trkpt>
      <trkpt lat="48.43696" lon="-4.78027">
        <ele>10.6</ele>
        <time>2020-06-09T11:22:00Z</time>
      </trkpt>
      <trkpt lat="48.43699" lon="-4.78024">
        <ele>10.5</ele>
        <time>2020-06-09T11:22:01Z</time>
      </trkpt>
      <trkpt lat="48.43701" lon="-4.78022">
        <ele>10.5</ele>
        <time>2020-06-09T11:22:02Z</time>
      </trkpt>
      <trkpt lat="48.43703" lon="-4.78019">
        <ele>10.5</ele>
        <time>2020-06-09T11:22:03Z</time>
      </trkpt>
      <trkpt lat="48.43706" lon="-4.78015">
        <ele>10.5</ele>
        <time>2020-06-09T11:22:04Z</time>
      </trkpt>
      <trkpt lat="48.43707" lon="-4.78014">
        <ele>10.4</ele>
        <time>2020-06-09T11:22:05Z</time>
      </trkpt>
      <trkpt lat="48.43709" lon="-4.78014">
        <ele>10.4</ele>
        <time>2020-06-09T11:22:06Z</time>
      </trkpt>
      <trkpt lat="48.4371" lon="-4.78014">
        <ele>10.3</ele>
        <time>2020-06-09T11:22:07Z</time>
      </trkpt>
      <trkpt lat="48.43711" lon="-4.78015">
        <ele>10.3</ele>
        <time>2020-06-09T11:22:08Z</time>
      </trkpt>
      <trkpt lat="48.43713" lon="-4.78017">
        <ele>10.2</ele>
        <time>2020-06-09T11:22:09Z</time>
      </trkpt>
      <trkpt lat="48.43714" lon="-4.78019">
        <ele>10.2</ele>
        <time>2020-06-09T11:22:10Z</time>
      </trkpt>
      <trkpt lat="48.43714" lon="-4.78024">
        <ele>10.1</ele>
        <time>2020-06-09T11:22:11Z</time>
      </trkpt>
      <trkpt lat="48.43715" lon="-4.78026">
        <ele>10</ele>
        <time>2020-06-09T11:22:12Z</time>
      </trkpt>
      <trkpt lat="48.43715" lon="-4.7803">
        <ele>9.9</ele>
        <time>2020-06-09T11:22:13Z</time>
      </trkpt>
      <trkpt lat="48.43716" lon="-4.78032">
        <ele>9.9</ele>
        <time>2020-06-09T11:22:14Z</time>
      </trkpt>
      <trkpt lat="48.43716" lon="-4.78036">
        <ele>9.8</ele>
        <time>2020-06-09T11:22:15Z</time>
      </trkpt>
      <trkpt lat="48.43717" lon="-4.78038">
        <ele>9.7</ele>
        <time>2020-06-09T11:22:16Z</time>
      </trkpt>
      <trkpt lat="48.43718" lon="-4.78043">
        <ele>9.6</ele>
        <time>2020-06-09T11:22:17Z</time>
      </trkpt>
      <trkpt lat="48.43718" lon="-4.78045">
        <ele>9.6</ele>
        <time>2020-06-09T11:22:18Z</time>
      </trkpt>
      <trkpt lat="48.43719" lon="-4.78049">
        <ele>9.5</ele>
        <time>2020-06-09T11:22:19Z</time>
      </trkpt>
      <trkpt lat="48.43721" lon="-4.78053">
        <ele>9.4</ele>
        <time>2020-06-09T11:22:20Z</time>
      </trkpt>
      <trkpt lat="48.43723" lon="-4.78056">
        <ele>9.4</ele>
        <time>2020-06-09T11:22:21Z</time>
      </trkpt>
      <trkpt lat="48.43724" lon="-4.7806">
        <ele>9.3</ele>
        <time>2020-06-09T11:22:22Z</time>
      </trkpt>
      <trkpt lat="48.43726" lon="-4.78064">
        <ele>9.2</ele>
        <time>2020-06-09T11:22:23Z</time>
      </trkpt>
      <trkpt lat="48.43726" lon="-4.78069">
        <ele>9.2</ele>
        <time>2020-06-09T11:22:24Z</time>
      </trkpt>
      <trkpt lat="48.43727" lon="-4.78073">
        <ele>9.1</ele>
        <time>2020-06-09T11:22:25Z</time>
      </trkpt>
      <trkpt lat="48.43728" lon="-4.78078">
        <ele>9.1</ele>
        <time>2020-06-09T11:22:26Z</time>
      </trkpt>
      <trkpt lat="48.43729" lon="-4.78083">
        <ele>9.1</ele>
        <time>2020-06-09T11:22:27Z</time>
      </trkpt>
      <trkpt lat="48.4373" lon="-4.78088">
        <ele>9</ele>
        <time>2020-06-09T11:22:28Z</time>
      </trkpt>
      <trkpt lat="48.4373" lon="-4.78092">
        <ele>9</ele>
        <time>2020-06-09T11:22:29Z</time>
      </trkpt>
      <trkpt lat="48.43733" lon="-4.78096">
        <ele>8.9</ele>
        <time>2020-06-09T11:22:30Z</time>
      </trkpt>
      <trkpt lat="48.43735" lon="-4.781">
        <ele>8.9</ele>
        <time>2020-06-09T11:22:31Z</time>
      </trkpt>
      <trkpt lat="48.43736" lon="-4.78104">
        <ele>8.8</ele>
        <time>2020-06-09T11:22:32Z</time>
      </trkpt>
      <trkpt lat="48.43737" lon="-4.78108">
        <ele>8.8</ele>
        <time>2020-06-09T11:22:33Z</time>
      </trkpt>
      <trkpt lat="48.43739" lon="-4.78113">
        <ele>8.7</ele>
        <time>2020-06-09T11:22:34Z</time>
      </trkpt>
      <trkpt lat="48.43742" lon="-4.78117">
        <ele>8.6</ele>
        <time>2020-06-09T11:22:35Z</time>
      </trkpt>
      <trkpt lat="48.43745" lon="-4.7812">
        <ele>8.5</ele>
        <time>2020-06-09T11:22:36Z</time>
      </trkpt>
      <trkpt lat="48.43749" lon="-4.78123">
        <ele>8.4</ele>
        <time>2020-06-09T11:22:37Z</time>
      </trkpt>
      <trkpt lat="48.43751" lon="-4.78127">
        <ele>8.3</ele>
        <time>2020-06-09T11:22:38Z</time>
      </trkpt>
      <trkpt lat="48.43754" lon="-4.78131">
        <ele>8.2</ele>
        <time>2020-06-09T11:22:39Z</time>
      </trkpt>
      <trkpt lat="48.43757" lon="-4.78135">
        <ele>8.1</ele>
        <time>2020-06-09T11:22:40Z</time>
      </trkpt>
      <trkpt lat="48.4376" lon="-4.78138">
        <ele>8</ele>
        <time>2020-06-09T11:22:41Z</time>
      </trkpt>
      <trkpt lat="48.43762" lon="-4.78141">
        <ele>7.9</ele>
        <time>2020-06-09T11:22:42Z</time>
      </trkpt>
      <trkpt lat="48.43765" lon="-4.78143">
        <ele>7.8</ele>
        <time>2020-06-09T11:22:43Z</time>
      </trkpt>
      <trkpt lat="48.43769" lon="-4.78145">
        <ele>7.7</ele>
        <time>2020-06-09T11:22:44Z</time>
      </trkpt>
      <trkpt lat="48.43772" lon="-4.78145">
        <ele>7.6</ele>
        <time>2020-06-09T11:22:45Z</time>
      </trkpt>
      <trkpt lat="48.43776" lon="-4.78145">
        <ele>7.5</ele>
        <time>2020-06-09T11:22:46Z</time>
      </trkpt>
      <trkpt lat="48.4378" lon="-4.78145">
        <ele>7.4</ele>
        <time>2020-06-09T11:22:47Z</time>
      </trkpt>
      <trkpt lat="48.43784" lon="-4.78145">
        <ele>7.3</ele>
        <time>2020-06-09T11:22:48Z</time>
      </trkpt>
      <trkpt lat="48.43787" lon="-4.78145">
        <ele>7.2</ele>
        <time>2020-06-09T11:22:49Z</time>
      </trkpt>
      <trkpt lat="48.43791" lon="-4.78145">
        <ele>7.1</ele>
        <time>2020-06-09T11:22:50Z</time>
      </trkpt>
      <trkpt lat="48.43794" lon="-4.78143">
        <ele>7</ele>
        <time>2020-06-09T11:22:51Z</time>
      </trkpt>
      <trkpt lat="48.43798" lon="-4.78142">
        <ele>7</ele>
        <time>2020-06-09T11:22:52Z</time>
      </trkpt>
      <trkpt lat="48.43801" lon="-4.78139">
        <ele>6.9</ele>
        <time>2020-06-09T11:22:53Z</time>
      </trkpt>
      <trkpt lat="48.43804" lon="-4.78137">
        <ele>6.8</ele>
        <time>2020-06-09T11:22:54Z</time>
      </trkpt>
      <trkpt lat="48.43807" lon="-4.78134">
        <ele>6.8</ele>
        <time>2020-06-09T11:22:55Z</time>
      </trkpt>
      <trkpt lat="48.4381" lon="-4.78132">
        <ele>6.7</ele>
        <time>2020-06-09T11:22:56Z</time>
      </trkpt>
      <trkpt lat="48.43813" lon="-4.78129">
        <ele>6.7</ele>
        <time>2020-06-09T11:22:57Z</time>
      </trkpt>
      <trkpt lat="48.43816" lon="-4.78125">
        <ele>6.6</ele>
        <time>2020-06-09T11:22:58Z</time>
      </trkpt>
      <trkpt lat="48.43818" lon="-4.78121">
        <ele>6.6</ele>
        <time>2020-06-09T11:22:59Z</time>
      </trkpt>
      <trkpt lat="48.4382" lon="-4.78116">
        <ele>6.5</ele>
        <time>2020-06-09T11:23:00Z</time>
      </trkpt>
      <trkpt lat="48.43821" lon="-4.78112">
        <ele>6.5</ele>
        <time>2020-06-09T11:23:01Z</time>
      </trkpt>
      <trkpt lat="48.43823" lon="-4.78107">
        <ele>6.4</ele>
        <time>2020-06-09T11:23:02Z</time>
      </trkpt>
      <trkpt lat="48.43825" lon="-4.78102">
        <ele>6.4</ele>
        <time>2020-06-09T11:23:03Z</time>
      </trkpt>
      <trkpt lat="48.43827" lon="-4.78097">
        <ele>6.3</ele>
        <time>2020-06-09T11:23:04Z</time>
      </trkpt>
      <trkpt lat="48.43829" lon="-4.78092">
        <ele>6.3</ele>
        <time>2020-06-09T11:23:05Z</time>
      </trkpt>
      <trkpt lat="48.4383" lon="-4.78087">
        <ele>6.2</ele>
        <time>2020-06-09T11:23:06Z</time>
      </trkpt>
      <trkpt lat="48.43831" lon="-4.78081">
        <ele>6.2</ele>
        <time>2020-06-09T11:23:07Z</time>
      </trkpt>
      <trkpt lat="48.43833" lon="-4.78076">
        <ele>6.2</ele>
        <time>2020-06-09T11:23:08Z</time>
      </trkpt>
      <trkpt lat="48.43834" lon="-4.78069">
        <ele>6.2</ele>
        <time>2020-06-09T11:23:09Z</time>
      </trkpt>
      <trkpt lat="48.43835" lon="-4.78063">
        <ele>6.3</ele>
        <time>2020-06-09T11:23:10Z</time>
      </trkpt>
      <trkpt lat="48.43837" lon="-4.78057">
        <ele>6.3</ele>
        <time>2020-06-09T11:23:11Z</time>
      </trkpt>
      <trkpt lat="48.43838" lon="-4.78051">
        <ele>6.3</ele>
        <time>2020-06-09T11:23:12Z</time>
      </trkpt>
      <trkpt lat="48.43839" lon="-4.78045">
        <ele>6.4</ele>
        <time>2020-06-09T11:23:13Z</time>
      </trkpt>
      <trkpt lat="48.4384" lon="-4.78039">
        <ele>6.4</ele>
        <time>2020-06-09T11:23:14Z</time>
      </trkpt>
      <trkpt lat="48.4384" lon="-4.78034">
        <ele>6.5</ele>
        <time>2020-06-09T11:23:15Z</time>
      </trkpt>
      <trkpt lat="48.4384" lon="-4.78028">
        <ele>6.6</ele>
        <time>2020-06-09T11:23:16Z</time>
      </trkpt>
      <trkpt lat="48.4384" lon="-4.78023">
        <ele>6.7</ele>
        <time>2020-06-09T11:23:17Z</time>
      </trkpt>
      <trkpt lat="48.4384" lon="-4.78017">
        <ele>6.7</ele>
        <time>2020-06-09T11:23:18Z</time>
      </trkpt>
      <trkpt lat="48.4384" lon="-4.78011">
        <ele>6.8</ele>
        <time>2020-06-09T11:23:19Z</time>
      </trkpt>
      <trkpt lat="48.43841" lon="-4.78006">
        <ele>6.9</ele>
        <time>2020-06-09T11:23:20Z</time>
      </trkpt>
      <trkpt lat="48.43842" lon="-4.78">
        <ele>7</ele>
        <time>2020-06-09T11:23:21Z</time>
      </trkpt>
      <trkpt lat="48.43844" lon="-4.77995">
        <ele>7.1</ele>
        <time>2020-06-09T11:23:22Z</time>
      </trkpt>
      <trkpt lat="48.43845" lon="-4.7799">
        <ele>7.2</ele>
        <time>2020-06-09T11:23:23Z</time>
      </trkpt>
      <trkpt lat="48.43846" lon="-4.77984">
        <ele>7.3</ele>
        <time>2020-06-09T11:23:24Z</time>
      </trkpt>
      <trkpt lat="48.43848" lon="-4.77979">
        <ele>7.4</ele>
        <time>2020-06-09T11:23:25Z</time>
      </trkpt>
      <trkpt lat="48.43849" lon="-4.77974">
        <ele>7.5</ele>
        <time>2020-06-09T11:23:26Z</time>
      </trkpt>
      <trkpt lat="48.4385" lon="-4.77969">
        <ele>7.6</ele>
        <time>2020-06-09T11:23:27Z</time>
      </trkpt>
      <trkpt lat="48.43852" lon="-4.77965">
        <ele>7.6</ele>
        <time>2020-06-09T11:23:28Z</time>
      </trkpt>
      <trkpt lat="48.43853" lon="-4.77961">
        <ele>7.7</ele>
        <time>2020-06-09T11:23:29Z</time>
      </trkpt>
      <trkpt lat="48.43855" lon="-4.77957">
        <ele>7.8</ele>
        <time>2020-06-09T11:23:30Z</time>
      </trkpt>
      <trkpt lat="48.43858" lon="-4.77954">
        <ele>7.9</ele>
        <time>2020-06-09T11:23:31Z</time>
      </trkpt>
      <trkpt lat="48.43861" lon="-4.77951">
        <ele>8</ele>
        <time>2020-06-09T11:23:32Z</time>
      </trkpt>
      <trkpt lat="48.43864" lon="-4.77947">
        <ele>8.1</ele>
        <time>2020-06-09T11:23:33Z</time>
      </trkpt>
      <trkpt lat="48.43866" lon="-4.77943">
        <ele>8.2</ele>
        <time>2020-06-09T11:23:34Z</time>
      </trkpt>
      <trkpt lat="48.43869" lon="-4.7794">
        <ele>8.3</ele>
        <time>2020-06-09T11:23:35Z</time>
      </trkpt>
      <trkpt lat="48.43871" lon="-4.77936">
        <ele>8.3</ele>
        <time>2020-06-09T11:23:36Z</time>
      </trkpt>
      <trkpt lat="48.43874" lon="-4.77933">
        <ele>8.4</ele>
        <time>2020-06-09T11:23:37Z</time>
      </trkpt>
      <trkpt lat="48.43877" lon="-4.7793">
        <ele>8.5</ele>
        <time>2020-06-09T11:23:38Z</time>
      </trkpt>
      <trkpt lat="48.4388" lon="-4.77927">
        <ele>8.6</ele>
        <time>2020-06-09T11:23:39Z</time>
      </trkpt>
      <trkpt lat="48.43883" lon="-4.77924">
        <ele>8.8</ele>
        <time>2020-06-09T11:23:40Z</time>
      </trkpt>
      <trkpt lat="48.43886" lon="-4.77921">
        <ele>8.9</ele>
        <time>2020-06-09T11:23:41Z</time>
      </trkpt>
      <trkpt lat="48.43889" lon="-4.77919">
        <ele>9</ele>
        <time>2020-06-09T11:23:42Z</time>
      </trkpt>
      <trkpt lat="48.43892" lon="-4.77917">
        <ele>9.2</ele>
        <time>2020-06-09T11:23:43Z</time>
      </trkpt>
      <trkpt lat="48.43895" lon="-4.77914">
        <ele>9.3</ele>
        <time>2020-06-09T11:23:44Z</time>
      </trkpt>
      <trkpt lat="48.43898" lon="-4.77912">
        <ele>9.4</ele>
        <time>2020-06-09T11:23:45Z</time>
      </trkpt>
      <trkpt lat="48.43901" lon="-4.7791">
        <ele>9.5</ele>
        <time>2020-06-09T11:23:46Z</time>
      </trkpt>
      <trkpt lat="48.43904" lon="-4.77908">
        <ele>9.7</ele>
        <time>2020-06-09T11:23:47Z</time>
      </trkpt>
      <trkpt lat="48.43907" lon="-4.77905">
        <ele>9.8</ele>
        <time>2020-06-09T11:23:48Z</time>
      </trkpt>
      <trkpt lat="48.4391" lon="-4.77901">
        <ele>9.9</ele>
        <time>2020-06-09T11:23:49Z</time>
      </trkpt>
      <trkpt lat="48.43912" lon="-4.77897">
        <ele>10.1</ele>
        <time>2020-06-09T11:23:50Z</time>
      </trkpt>
      <trkpt lat="48.43915" lon="-4.77894">
        <ele>10.2</ele>
        <time>2020-06-09T11:23:51Z</time>
      </trkpt>
      <trkpt lat="48.43918" lon="-4.7789">
        <ele>10.3</ele>
        <time>2020-06-09T11:23:52Z</time>
      </trkpt>
      <trkpt lat="48.43921" lon="-4.77888">
        <ele>10.4</ele>
        <time>2020-06-09T11:23:53Z</time>
      </trkpt>
      <trkpt lat="48.43924" lon="-4.77884">
        <ele>10.5</ele>
        <time>2020-06-09T11:23:54Z</time>
      </trkpt>
      <trkpt lat="48.43927" lon="-4.77881">
        <ele>10.5</ele>
        <time>2020-06-09T11:23:55Z</time>
      </trkpt>
      <trkpt lat="48.43929" lon="-4.77877">
        <ele>10.5</ele>
        <time>2020-06-09T11:23:56Z</time>
      </trkpt>
      <trkpt lat="48.43932" lon="-4.77874">
        <ele>10.7</ele>
        <time>2020-06-09T11:23:57Z</time>
      </trkpt>
      <trkpt lat="48.43935" lon="-4.77871">
        <ele>10.8</ele>
        <time>2020-06-09T11:23:58Z</time>
      </trkpt>
      <trkpt lat="48.43938" lon="-4.77869">
        <ele>11</ele>
        <time>2020-06-09T11:23:59Z</time>
      </trkpt>
      <trkpt lat="48.43941" lon="-4.77868">
        <ele>11.1</ele>
        <time>2020-06-09T11:24:00Z</time>
      </trkpt>
      <trkpt lat="48.43944" lon="-4.77868">
        <ele>11.2</ele>
        <time>2020-06-09T11:24:01Z</time>
      </trkpt>
      <trkpt lat="48.43947" lon="-4.77865">
        <ele>11.4</ele>
        <time>2020-06-09T11:24:02Z</time>
      </trkpt>
      <trkpt lat="48.4395" lon="-4.77863">
        <ele>11.6</ele>
        <time>2020-06-09T11:24:03Z</time>
      </trkpt>
      <trkpt lat="48.43953" lon="-4.77861">
        <ele>11.7</ele>
        <time>2020-06-09T11:24:04Z</time>
      </trkpt>
      <trkpt lat="48.43956" lon="-4.77858">
        <ele>11.9</ele>
        <time>2020-06-09T11:24:05Z</time>
      </trkpt>
      <trkpt lat="48.43958" lon="-4.77856">
        <ele>12</ele>
        <time>2020-06-09T11:24:06Z</time>
      </trkpt>
      <trkpt lat="48.43961" lon="-4.77854">
        <ele>12.1</ele>
        <time>2020-06-09T11:24:07Z</time>
      </trkpt>
      <trkpt lat="48.43963" lon="-4.77852">
        <ele>12.3</ele>
        <time>2020-06-09T11:24:08Z</time>
      </trkpt>
      <trkpt lat="48.43966" lon="-4.7785">
        <ele>12.4</ele>
        <time>2020-06-09T11:24:09Z</time>
      </trkpt>
      <trkpt lat="48.43969" lon="-4.77849">
        <ele>12.6</ele>
        <time>2020-06-09T11:24:10Z</time>
      </trkpt>
      <trkpt lat="48.43971" lon="-4.77847">
        <ele>12.7</ele>
        <time>2020-06-09T11:24:11Z</time>
      </trkpt>
      <trkpt lat="48.43974" lon="-4.77844">
        <ele>12.8</ele>
        <time>2020-06-09T11:24:12Z</time>
      </trkpt>
      <trkpt lat="48.43975" lon="-4.77843">
        <ele>12.9</ele>
        <time>2020-06-09T11:24:13Z</time>
      </trkpt>
      <trkpt lat="48.43979" lon="-4.7784">
        <ele>13</ele>
        <time>2020-06-09T11:24:14Z</time>
      </trkpt>
      <trkpt lat="48.4398" lon="-4.77839">
        <ele>13.1</ele>
        <time>2020-06-09T11:24:15Z</time>
      </trkpt>
      <trkpt lat="48.43982" lon="-4.77837">
        <ele>13.2</ele>
        <time>2020-06-09T11:24:16Z</time>
      </trkpt>
      <trkpt lat="48.43984" lon="-4.77834">
        <ele>13.3</ele>
        <time>2020-06-09T11:24:17Z</time>
      </trkpt>
      <trkpt lat="48.43986" lon="-4.77831">
        <ele>13.4</ele>
        <time>2020-06-09T11:24:18Z</time>
      </trkpt>
      <trkpt lat="48.43989" lon="-4.77831">
        <ele>13.5</ele>
        <time>2020-06-09T11:24:19Z</time>
      </trkpt>
      <trkpt lat="48.43992" lon="-4.77829">
        <ele>13.6</ele>
        <time>2020-06-09T11:24:20Z</time>
      </trkpt>
      <trkpt lat="48.43995" lon="-4.77825">
        <ele>13.7</ele>
        <time>2020-06-09T11:24:21Z</time>
      </trkpt>
      <trkpt lat="48.43996" lon="-4.77824">
        <ele>13.7</ele>
        <time>2020-06-09T11:24:22Z</time>
      </trkpt>
      <trkpt lat="48.43999" lon="-4.77821">
        <ele>13.8</ele>
        <time>2020-06-09T11:24:23Z</time>
      </trkpt>
      <trkpt lat="48.44001" lon="-4.77818">
        <ele>13.9</ele>
        <time>2020-06-09T11:24:24Z</time>
      </trkpt>
      <trkpt lat="48.44003" lon="-4.77816">
        <ele>14</ele>
        <time>2020-06-09T11:24:25Z</time>
      </trkpt>
      <trkpt lat="48.44006" lon="-4.77814">
        <ele>14</ele>
        <time>2020-06-09T11:24:26Z</time>
      </trkpt>
      <trkpt lat="48.44009" lon="-4.77812">
        <ele>14.1</ele>
        <time>2020-06-09T11:24:27Z</time>
      </trkpt>
      <trkpt lat="48.44011" lon="-4.77809">
        <ele>14.1</ele>
        <time>2020-06-09T11:24:28Z</time>
      </trkpt>
      <trkpt lat="48.44014" lon="-4.77805">
        <ele>14.2</ele>
        <time>2020-06-09T11:24:29Z</time>
      </trkpt>
      <trkpt lat="48.44015" lon="-4.77803">
        <ele>14.2</ele>
        <time>2020-06-09T11:24:30Z</time>
      </trkpt>
      <trkpt lat="48.44018" lon="-4.77801">
        <ele>14.3</ele>
        <time>2020-06-09T11:24:31Z</time>
      </trkpt>
      <trkpt lat="48.44021" lon="-4.778">
        <ele>14.3</ele>
        <time>2020-06-09T11:24:32Z</time>
      </trkpt>
      <trkpt lat="48.44024" lon="-4.77799">
        <ele>14.4</ele>
        <time>2020-06-09T11:24:33Z</time>
      </trkpt>
      <trkpt lat="48.44027" lon="-4.77798">
        <ele>14.4</ele>
        <time>2020-06-09T11:24:34Z</time>
      </trkpt>
      <trkpt lat="48.4403" lon="-4.77796">
        <ele>14.5</ele>
        <time>2020-06-09T11:24:35Z</time>
      </trkpt>
      <trkpt lat="48.44032" lon="-4.77794">
        <ele>14.5</ele>
        <time>2020-06-09T11:24:36Z</time>
      </trkpt>
      <trkpt lat="48.44035" lon="-4.77793">
        <ele>14.6</ele>
        <time>2020-06-09T11:24:37Z</time>
      </trkpt>
      <trkpt lat="48.44038" lon="-4.77792">
        <ele>14.6</ele>
        <time>2020-06-09T11:24:38Z</time>
      </trkpt>
      <trkpt lat="48.44041" lon="-4.7779">
        <ele>14.6</ele>
        <time>2020-06-09T11:24:39Z</time>
      </trkpt>
      <trkpt lat="48.44044" lon="-4.77788">
        <ele>14.7</ele>
        <time>2020-06-09T11:24:40Z</time>
      </trkpt>
      <trkpt lat="48.44046" lon="-4.77787">
        <ele>14.7</ele>
        <time>2020-06-09T11:24:41Z</time>
      </trkpt>
      <trkpt lat="48.44049" lon="-4.77785">
        <ele>14.7</ele>
        <time>2020-06-09T11:24:42Z</time>
      </trkpt>
      <trkpt lat="48.44052" lon="-4.77784">
        <ele>14.8</ele>
        <time>2020-06-09T11:24:43Z</time>
      </trkpt>
      <trkpt lat="48.44055" lon="-4.77784">
        <ele>14.8</ele>
        <time>2020-06-09T11:24:44Z</time>
      </trkpt>
      <trkpt lat="48.44058" lon="-4.77783">
        <ele>14.8</ele>
        <time>2020-06-09T11:24:45Z</time>
      </trkpt>
      <trkpt lat="48.44061" lon="-4.77782">
        <ele>14.8</ele>
        <time>2020-06-09T11:24:46Z</time>
      </trkpt>
      <trkpt lat="48.44064" lon="-4.77781">
        <ele>14.9</ele>
        <time>2020-06-09T11:24:47Z</time>
      </trkpt>
      <trkpt lat="48.44067" lon="-4.7778">
        <ele>14.9</ele>
        <time>2020-06-09T11:24:48Z</time>
      </trkpt>
      <trkpt lat="48.44069" lon="-4.77778">
        <ele>14.9</ele>
        <time>2020-06-09T11:24:49Z</time>
      </trkpt>
      <trkpt lat="48.44072" lon="-4.77777">
        <ele>14.9</ele>
        <time>2020-06-09T11:24:50Z</time>
      </trkpt>
      <trkpt lat="48.44075" lon="-4.77777">
        <ele>14.9</ele>
        <time>2020-06-09T11:24:51Z</time>
      </trkpt>
      <trkpt lat="48.44078" lon="-4.77776">
        <ele>15</ele>
        <time>2020-06-09T11:24:52Z</time>
      </trkpt>
      <trkpt lat="48.44081" lon="-4.77776">
        <ele>15</ele>
        <time>2020-06-09T11:24:53Z</time>
      </trkpt>
      <trkpt lat="48.44085" lon="-4.77774">
        <ele>15</ele>
        <time>2020-06-09T11:24:54Z</time>
      </trkpt>
      <trkpt lat="48.44086" lon="-4.77774">
        <ele>15</ele>
        <time>2020-06-09T11:24:55Z</time>
      </trkpt>
      <trkpt lat="48.4409" lon="-4.77772">
        <ele>15</ele>
        <time>2020-06-09T11:24:56Z</time>
      </trkpt>
      <trkpt lat="48.44091" lon="-4.77772">
        <ele>15</ele>
        <time>2020-06-09T11:24:57Z</time>
      </trkpt>
      <trkpt lat="48.44094" lon="-4.77771">
        <ele>15.1</ele>
        <time>2020-06-09T11:24:58Z</time>
      </trkpt>
      <trkpt lat="48.44097" lon="-4.7777">
        <ele>15.1</ele>
        <time>2020-06-09T11:24:59Z</time>
      </trkpt>
      <trkpt lat="48.441" lon="-4.77768">
        <ele>15.1</ele>
        <time>2020-06-09T11:25:00Z</time>
      </trkpt>
      <trkpt lat="48.44103" lon="-4.77766">
        <ele>15.1</ele>
        <time>2020-06-09T11:25:01Z</time>
      </trkpt>
      <trkpt lat="48.44105" lon="-4.77764">
        <ele>15.1</ele>
        <time>2020-06-09T11:25:02Z</time>
      </trkpt>
      <trkpt lat="48.44108" lon="-4.77762">
        <ele>15.1</ele>
        <time>2020-06-09T11:25:03Z</time>
      </trkpt>
      <trkpt lat="48.44111" lon="-4.7776">
        <ele>15.1</ele>
        <time>2020-06-09T11:25:04Z</time>
      </trkpt>
      <trkpt lat="48.44114" lon="-4.77758">
        <ele>15.2</ele>
        <time>2020-06-09T11:25:05Z</time>
      </trkpt>
      <trkpt lat="48.44116" lon="-4.77756">
        <ele>15.2</ele>
        <time>2020-06-09T11:25:06Z</time>
      </trkpt>
      <trkpt lat="48.44119" lon="-4.77752">
        <ele>15.2</ele>
        <time>2020-06-09T11:25:07Z</time>
      </trkpt>
      <trkpt lat="48.44121" lon="-4.77749">
        <ele>15.2</ele>
        <time>2020-06-09T11:25:08Z</time>
      </trkpt>
      <trkpt lat="48.44123" lon="-4.77744">
        <ele>15.2</ele>
        <time>2020-06-09T11:25:09Z</time>
      </trkpt>
      <trkpt lat="48.44123" lon="-4.77742">
        <ele>15.2</ele>
        <time>2020-06-09T11:25:10Z</time>
      </trkpt>
      <trkpt lat="48.44125" lon="-4.77739">
        <ele>15.2</ele>
        <time>2020-06-09T11:25:11Z</time>
      </trkpt>
      <trkpt lat="48.44127" lon="-4.77736">
        <ele>15.2</ele>
        <time>2020-06-09T11:25:12Z</time>
      </trkpt>
      <trkpt lat="48.4413" lon="-4.77734">
        <ele>15.2</ele>
        <time>2020-06-09T11:25:13Z</time>
      </trkpt>
      <trkpt lat="48.44132" lon="-4.77731">
        <ele>15.2</ele>
        <time>2020-06-09T11:25:14Z</time>
      </trkpt>
      <trkpt lat="48.44135" lon="-4.77728">
        <ele>15.2</ele>
        <time>2020-06-09T11:25:15Z</time>
      </trkpt>
      <trkpt lat="48.44136" lon="-4.77726">
        <ele>15.2</ele>
        <time>2020-06-09T11:25:16Z</time>
      </trkpt>
      <trkpt lat="48.44139" lon="-4.77723">
        <ele>15.1</ele>
        <time>2020-06-09T11:25:17Z</time>
      </trkpt>
      <trkpt lat="48.4414" lon="-4.77722">
        <ele>15.1</ele>
        <time>2020-06-09T11:25:18Z</time>
      </trkpt>
      <trkpt lat="48.44142" lon="-4.77717">
        <ele>15.1</ele>
        <time>2020-06-09T11:25:19Z</time>
      </trkpt>
      <trkpt lat="48.44143" lon="-4.77716">
        <ele>15.1</ele>
        <time>2020-06-09T11:25:20Z</time>
      </trkpt>
      <trkpt lat="48.44146" lon="-4.77713">
        <ele>15.1</ele>
        <time>2020-06-09T11:25:21Z</time>
      </trkpt>
      <trkpt lat="48.44148" lon="-4.77709">
        <ele>15.1</ele>
        <time>2020-06-09T11:25:22Z</time>
      </trkpt>
      <trkpt lat="48.4415" lon="-4.77705">
        <ele>15.1</ele>
        <time>2020-06-09T11:25:23Z</time>
      </trkpt>
      <trkpt lat="48.44152" lon="-4.77702">
        <ele>15</ele>
        <time>2020-06-09T11:25:24Z</time>
      </trkpt>
      <trkpt lat="48.44154" lon="-4.77698">
        <ele>15</ele>
        <time>2020-06-09T11:25:25Z</time>
      </trkpt>
      <trkpt lat="48.44155" lon="-4.77695">
        <ele>15</ele>
        <time>2020-06-09T11:25:26Z</time>
      </trkpt>
      <trkpt lat="48.44157" lon="-4.77692">
        <ele>15</ele>
        <time>2020-06-09T11:25:27Z</time>
      </trkpt>
      <trkpt lat="48.44159" lon="-4.77688">
        <ele>14.9</ele>
        <time>2020-06-09T11:25:28Z</time>
      </trkpt>
      <trkpt lat="48.44161" lon="-4.77685">
        <ele>14.9</ele>
        <time>2020-06-09T11:25:29Z</time>
      </trkpt>
      <trkpt lat="48.44164" lon="-4.77683">
        <ele>14.9</ele>
        <time>2020-06-09T11:25:30Z</time>
      </trkpt>
      <trkpt lat="48.44166" lon="-4.77679">
        <ele>14.8</ele>
        <time>2020-06-09T11:25:31Z</time>
      </trkpt>
      <trkpt lat="48.44167" lon="-4.77677">
        <ele>14.8</ele>
        <time>2020-06-09T11:25:32Z</time>
      </trkpt>
      <trkpt lat="48.4417" lon="-4.77674">
        <ele>14.8</ele>
        <time>2020-06-09T11:25:33Z</time>
      </trkpt>
      <trkpt lat="48.44171" lon="-4.77672">
        <ele>14.7</ele>
        <time>2020-06-09T11:25:34Z</time>
      </trkpt>
    </trkseg>
  </trk>
</gpx>